<?xml version="1.0" encoding="UTF-8" standalone="no" ?>
<gpx xmlns="http://www.topografix.com/GPX/1/1" xmlns:xsi="http://www.w3.org/2001/XMLSchema-instance" xsi:schemaLocation="http://www.topografix.com/GPX/1/1 http://www.topografix.com/GPX/1/1/gpx.xsd" version="1.1" creator="VisuGPX - https://www.visugpx.com">
  <metadata>
    <name>Tracé actuel: 09 AOU 2022 07:58</name>
  </metadata>
  <trk>
    <name><![CDATA[Tracé actuel: 09 AOU 2022 07:58]]></name>
    <trkseg>
      <trkpt lat="44.86511" lon="1.30185">
        <ele>241.43</ele>
        <time>2022-08-09T05:58:11Z</time>
      </trkpt>
      <trkpt lat="44.865" lon="1.30177">
        <ele>232.3</ele>
        <time>2022-08-09T05:58:17Z</time>
      </trkpt>
      <trkpt lat="44.86505" lon="1.30133">
        <ele>201.53</ele>
        <time>2022-08-09T05:58:25Z</time>
      </trkpt>
      <trkpt lat="44.86512" lon="1.30128">
        <ele>198.17</ele>
        <time>2022-08-09T05:58:26Z</time>
      </trkpt>
      <trkpt lat="44.86513" lon="1.30115">
        <ele>189.04</ele>
        <time>2022-08-09T05:58:27Z</time>
      </trkpt>
      <trkpt lat="44.8655" lon="1.30134">
        <ele>183.27</ele>
        <time>2022-08-09T05:58:43Z</time>
      </trkpt>
      <trkpt lat="44.86553" lon="1.30133">
        <ele>184.71</ele>
        <time>2022-08-09T05:58:44Z</time>
      </trkpt>
      <trkpt lat="44.86555" lon="1.30131">
        <ele>183.75</ele>
        <time>2022-08-09T05:58:45Z</time>
      </trkpt>
      <trkpt lat="44.86577" lon="1.30117">
        <ele>178.94</ele>
        <time>2022-08-09T05:58:56Z</time>
      </trkpt>
      <trkpt lat="44.8657" lon="1.30114">
        <ele>147.22</ele>
        <time>2022-08-09T05:59:02Z</time>
      </trkpt>
      <trkpt lat="44.86579" lon="1.30135">
        <ele>122.22</ele>
        <time>2022-08-09T05:59:14Z</time>
      </trkpt>
      <trkpt lat="44.86581" lon="1.30195">
        <ele>113.57</ele>
        <time>2022-08-09T05:59:30Z</time>
      </trkpt>
      <trkpt lat="44.86559" lon="1.30255">
        <ele>113.09</ele>
        <time>2022-08-09T05:59:45Z</time>
      </trkpt>
      <trkpt lat="44.86537" lon="1.30309">
        <ele>112.13</ele>
        <time>2022-08-09T05:59:59Z</time>
      </trkpt>
      <trkpt lat="44.86525" lon="1.30355">
        <ele>111.17</ele>
        <time>2022-08-09T06:00:11Z</time>
      </trkpt>
      <trkpt lat="44.86506" lon="1.30411">
        <ele>113.09</ele>
        <time>2022-08-09T06:00:26Z</time>
      </trkpt>
      <trkpt lat="44.86487" lon="1.3047">
        <ele>117.42</ele>
        <time>2022-08-09T06:00:41Z</time>
      </trkpt>
      <trkpt lat="44.86465" lon="1.30538">
        <ele>119.34</ele>
        <time>2022-08-09T06:00:59Z</time>
      </trkpt>
      <trkpt lat="44.86444" lon="1.306">
        <ele>120.78</ele>
        <time>2022-08-09T06:01:15Z</time>
      </trkpt>
      <trkpt lat="44.8642" lon="1.30647">
        <ele>123.19</ele>
        <time>2022-08-09T06:01:30Z</time>
      </trkpt>
      <trkpt lat="44.86392" lon="1.30685">
        <ele>125.59</ele>
        <time>2022-08-09T06:01:44Z</time>
      </trkpt>
      <trkpt lat="44.8636" lon="1.30742">
        <ele>127.51</ele>
        <time>2022-08-09T06:02:03Z</time>
      </trkpt>
      <trkpt lat="44.86348" lon="1.30803">
        <ele>128.47</ele>
        <time>2022-08-09T06:02:19Z</time>
      </trkpt>
      <trkpt lat="44.86333" lon="1.30874">
        <ele>127.03</ele>
        <time>2022-08-09T06:02:34Z</time>
      </trkpt>
      <trkpt lat="44.86298" lon="1.30936">
        <ele>128.47</ele>
        <time>2022-08-09T06:02:50Z</time>
      </trkpt>
      <trkpt lat="44.86283" lon="1.30986">
        <ele>129.92</ele>
        <time>2022-08-09T06:03:03Z</time>
      </trkpt>
      <trkpt lat="44.86265" lon="1.31056">
        <ele>133.28</ele>
        <time>2022-08-09T06:03:20Z</time>
      </trkpt>
      <trkpt lat="44.86232" lon="1.31132">
        <ele>136.64</ele>
        <time>2022-08-09T06:03:40Z</time>
      </trkpt>
      <trkpt lat="44.86217" lon="1.31183">
        <ele>138.57</ele>
        <time>2022-08-09T06:03:55Z</time>
      </trkpt>
      <trkpt lat="44.86208" lon="1.31226">
        <ele>140.49</ele>
        <time>2022-08-09T06:04:07Z</time>
      </trkpt>
      <trkpt lat="44.86204" lon="1.31264">
        <ele>142.89</ele>
        <time>2022-08-09T06:04:18Z</time>
      </trkpt>
      <trkpt lat="44.86208" lon="1.31307">
        <ele>143.85</ele>
        <time>2022-08-09T06:04:32Z</time>
      </trkpt>
      <trkpt lat="44.86219" lon="1.31352">
        <ele>143.85</ele>
        <time>2022-08-09T06:04:45Z</time>
      </trkpt>
      <trkpt lat="44.86222" lon="1.31395">
        <ele>145.78</ele>
        <time>2022-08-09T06:04:57Z</time>
      </trkpt>
      <trkpt lat="44.86238" lon="1.31445">
        <ele>147.7</ele>
        <time>2022-08-09T06:05:10Z</time>
      </trkpt>
      <trkpt lat="44.8624" lon="1.31451">
        <ele>147.22</ele>
        <time>2022-08-09T06:05:11Z</time>
      </trkpt>
      <trkpt lat="44.86242" lon="1.31457">
        <ele>146.74</ele>
        <time>2022-08-09T06:05:12Z</time>
      </trkpt>
      <trkpt lat="44.86243" lon="1.31465">
        <ele>146.26</ele>
        <time>2022-08-09T06:05:13Z</time>
      </trkpt>
      <trkpt lat="44.86243" lon="1.31473">
        <ele>145.78</ele>
        <time>2022-08-09T06:05:14Z</time>
      </trkpt>
      <trkpt lat="44.86242" lon="1.31482">
        <ele>145.3</ele>
        <time>2022-08-09T06:05:15Z</time>
      </trkpt>
      <trkpt lat="44.86239" lon="1.31491">
        <ele>144.82</ele>
        <time>2022-08-09T06:05:16Z</time>
      </trkpt>
      <trkpt lat="44.86235" lon="1.31501">
        <ele>144.34</ele>
        <time>2022-08-09T06:05:17Z</time>
      </trkpt>
      <trkpt lat="44.86231" lon="1.31511">
        <ele>143.37</ele>
        <time>2022-08-09T06:05:18Z</time>
      </trkpt>
      <trkpt lat="44.86225" lon="1.31521">
        <ele>142.89</ele>
        <time>2022-08-09T06:05:19Z</time>
      </trkpt>
      <trkpt lat="44.86214" lon="1.31544">
        <ele>140.97</ele>
        <time>2022-08-09T06:05:21Z</time>
      </trkpt>
      <trkpt lat="44.86201" lon="1.31564">
        <ele>139.53</ele>
        <time>2022-08-09T06:05:23Z</time>
      </trkpt>
      <trkpt lat="44.86194" lon="1.31572">
        <ele>138.57</ele>
        <time>2022-08-09T06:05:24Z</time>
      </trkpt>
      <trkpt lat="44.86172" lon="1.31603">
        <ele>135.68</ele>
        <time>2022-08-09T06:05:28Z</time>
      </trkpt>
      <trkpt lat="44.86159" lon="1.31622">
        <ele>132.8</ele>
        <time>2022-08-09T06:05:31Z</time>
      </trkpt>
      <trkpt lat="44.86148" lon="1.31638">
        <ele>130.4</ele>
        <time>2022-08-09T06:05:34Z</time>
      </trkpt>
      <trkpt lat="44.86145" lon="1.31644">
        <ele>129.43</ele>
        <time>2022-08-09T06:05:35Z</time>
      </trkpt>
      <trkpt lat="44.86144" lon="1.3165">
        <ele>128.95</ele>
        <time>2022-08-09T06:05:36Z</time>
      </trkpt>
      <trkpt lat="44.86144" lon="1.31657">
        <ele>127.99</ele>
        <time>2022-08-09T06:05:37Z</time>
      </trkpt>
      <trkpt lat="44.86145" lon="1.31663">
        <ele>127.51</ele>
        <time>2022-08-09T06:05:38Z</time>
      </trkpt>
      <trkpt lat="44.86147" lon="1.31671">
        <ele>127.03</ele>
        <time>2022-08-09T06:05:39Z</time>
      </trkpt>
      <trkpt lat="44.86153" lon="1.31692">
        <ele>126.07</ele>
        <time>2022-08-09T06:05:42Z</time>
      </trkpt>
      <trkpt lat="44.86154" lon="1.317">
        <ele>125.59</ele>
        <time>2022-08-09T06:05:43Z</time>
      </trkpt>
      <trkpt lat="44.86153" lon="1.31707">
        <ele>125.11</ele>
        <time>2022-08-09T06:05:44Z</time>
      </trkpt>
      <trkpt lat="44.86152" lon="1.31713">
        <ele>124.63</ele>
        <time>2022-08-09T06:05:45Z</time>
      </trkpt>
      <trkpt lat="44.86149" lon="1.3172">
        <ele>124.63</ele>
        <time>2022-08-09T06:05:46Z</time>
      </trkpt>
      <trkpt lat="44.86146" lon="1.31725">
        <ele>124.63</ele>
        <time>2022-08-09T06:05:47Z</time>
      </trkpt>
      <trkpt lat="44.86141" lon="1.31729">
        <ele>124.15</ele>
        <time>2022-08-09T06:05:48Z</time>
      </trkpt>
      <trkpt lat="44.86135" lon="1.31732">
        <ele>124.15</ele>
        <time>2022-08-09T06:05:49Z</time>
      </trkpt>
      <trkpt lat="44.86131" lon="1.31734">
        <ele>123.67</ele>
        <time>2022-08-09T06:05:50Z</time>
      </trkpt>
      <trkpt lat="44.86125" lon="1.31735">
        <ele>123.67</ele>
        <time>2022-08-09T06:05:51Z</time>
      </trkpt>
      <trkpt lat="44.86118" lon="1.31736">
        <ele>123.67</ele>
        <time>2022-08-09T06:05:52Z</time>
      </trkpt>
      <trkpt lat="44.86029" lon="1.31756">
        <ele>118.86</ele>
        <time>2022-08-09T06:06:04Z</time>
      </trkpt>
      <trkpt lat="44.85999" lon="1.31777">
        <ele>117.9</ele>
        <time>2022-08-09T06:06:08Z</time>
      </trkpt>
      <trkpt lat="44.85992" lon="1.31784">
        <ele>117.42</ele>
        <time>2022-08-09T06:06:09Z</time>
      </trkpt>
      <trkpt lat="44.85951" lon="1.31834">
        <ele>114.53</ele>
        <time>2022-08-09T06:06:15Z</time>
      </trkpt>
      <trkpt lat="44.85942" lon="1.3184">
        <ele>114.05</ele>
        <time>2022-08-09T06:06:16Z</time>
      </trkpt>
      <trkpt lat="44.85933" lon="1.31844">
        <ele>113.57</ele>
        <time>2022-08-09T06:06:17Z</time>
      </trkpt>
      <trkpt lat="44.85924" lon="1.31847">
        <ele>113.09</ele>
        <time>2022-08-09T06:06:18Z</time>
      </trkpt>
      <trkpt lat="44.85915" lon="1.31848">
        <ele>112.61</ele>
        <time>2022-08-09T06:06:19Z</time>
      </trkpt>
      <trkpt lat="44.85906" lon="1.31848">
        <ele>112.61</ele>
        <time>2022-08-09T06:06:20Z</time>
      </trkpt>
      <trkpt lat="44.85834" lon="1.31843">
        <ele>110.21</ele>
        <time>2022-08-09T06:06:28Z</time>
      </trkpt>
      <trkpt lat="44.85826" lon="1.31845">
        <ele>109.73</ele>
        <time>2022-08-09T06:06:29Z</time>
      </trkpt>
      <trkpt lat="44.85817" lon="1.31847">
        <ele>109.73</ele>
        <time>2022-08-09T06:06:30Z</time>
      </trkpt>
      <trkpt lat="44.85809" lon="1.31851">
        <ele>109.73</ele>
        <time>2022-08-09T06:06:31Z</time>
      </trkpt>
      <trkpt lat="44.85801" lon="1.31855">
        <ele>109.25</ele>
        <time>2022-08-09T06:06:32Z</time>
      </trkpt>
      <trkpt lat="44.85793" lon="1.3186">
        <ele>109.25</ele>
        <time>2022-08-09T06:06:33Z</time>
      </trkpt>
      <trkpt lat="44.85719" lon="1.3194">
        <ele>107.81</ele>
        <time>2022-08-09T06:06:45Z</time>
      </trkpt>
      <trkpt lat="44.85653" lon="1.32027">
        <ele>107.32</ele>
        <time>2022-08-09T06:06:58Z</time>
      </trkpt>
      <trkpt lat="44.8557" lon="1.32083">
        <ele>107.32</ele>
        <time>2022-08-09T06:07:13Z</time>
      </trkpt>
      <trkpt lat="44.85481" lon="1.32141">
        <ele>106.84</ele>
        <time>2022-08-09T06:07:28Z</time>
      </trkpt>
      <trkpt lat="44.85469" lon="1.32152">
        <ele>105.88</ele>
        <time>2022-08-09T06:07:30Z</time>
      </trkpt>
      <trkpt lat="44.85464" lon="1.32159">
        <ele>105.88</ele>
        <time>2022-08-09T06:07:31Z</time>
      </trkpt>
      <trkpt lat="44.85459" lon="1.32167">
        <ele>105.4</ele>
        <time>2022-08-09T06:07:32Z</time>
      </trkpt>
      <trkpt lat="44.85456" lon="1.32175">
        <ele>105.4</ele>
        <time>2022-08-09T06:07:33Z</time>
      </trkpt>
      <trkpt lat="44.85454" lon="1.32183">
        <ele>104.92</ele>
        <time>2022-08-09T06:07:34Z</time>
      </trkpt>
      <trkpt lat="44.85452" lon="1.32192">
        <ele>104.92</ele>
        <time>2022-08-09T06:07:35Z</time>
      </trkpt>
      <trkpt lat="44.85451" lon="1.322">
        <ele>104.92</ele>
        <time>2022-08-09T06:07:36Z</time>
      </trkpt>
      <trkpt lat="44.85451" lon="1.32208">
        <ele>104.92</ele>
        <time>2022-08-09T06:07:37Z</time>
      </trkpt>
      <trkpt lat="44.85451" lon="1.32215">
        <ele>105.4</ele>
        <time>2022-08-09T06:07:38Z</time>
      </trkpt>
      <trkpt lat="44.85454" lon="1.32243">
        <ele>105.4</ele>
        <time>2022-08-09T06:07:42Z</time>
      </trkpt>
      <trkpt lat="44.85475" lon="1.32349">
        <ele>107.81</ele>
        <time>2022-08-09T06:07:59Z</time>
      </trkpt>
      <trkpt lat="44.8551" lon="1.32465">
        <ele>105.88</ele>
        <time>2022-08-09T06:08:16Z</time>
      </trkpt>
      <trkpt lat="44.85528" lon="1.32575">
        <ele>106.36</ele>
        <time>2022-08-09T06:08:32Z</time>
      </trkpt>
      <trkpt lat="44.85532" lon="1.32607">
        <ele>107.32</ele>
        <time>2022-08-09T06:08:38Z</time>
      </trkpt>
      <trkpt lat="44.85535" lon="1.32609">
        <ele>107.32</ele>
        <time>2022-08-09T06:08:39Z</time>
      </trkpt>
      <trkpt lat="44.85539" lon="1.32609">
        <ele>107.32</ele>
        <time>2022-08-09T06:08:40Z</time>
      </trkpt>
      <trkpt lat="44.85542" lon="1.32608">
        <ele>107.81</ele>
        <time>2022-08-09T06:08:41Z</time>
      </trkpt>
      <trkpt lat="44.85545" lon="1.32606">
        <ele>107.81</ele>
        <time>2022-08-09T06:08:42Z</time>
      </trkpt>
      <trkpt lat="44.85549" lon="1.32604">
        <ele>107.81</ele>
        <time>2022-08-09T06:08:43Z</time>
      </trkpt>
      <trkpt lat="44.85604" lon="1.3257">
        <ele>109.73</ele>
        <time>2022-08-09T06:09:01Z</time>
      </trkpt>
      <trkpt lat="44.8564" lon="1.32548">
        <ele>114.05</ele>
        <time>2022-08-09T06:09:17Z</time>
      </trkpt>
      <trkpt lat="44.85672" lon="1.32515">
        <ele>116.94</ele>
        <time>2022-08-09T06:09:35Z</time>
      </trkpt>
      <trkpt lat="44.85696" lon="1.32472">
        <ele>119.82</ele>
        <time>2022-08-09T06:09:54Z</time>
      </trkpt>
      <trkpt lat="44.857" lon="1.32425">
        <ele>122.71</ele>
        <time>2022-08-09T06:10:11Z</time>
      </trkpt>
      <trkpt lat="44.8569" lon="1.32387">
        <ele>128.47</ele>
        <time>2022-08-09T06:10:27Z</time>
      </trkpt>
      <trkpt lat="44.85688" lon="1.32348">
        <ele>129.92</ele>
        <time>2022-08-09T06:10:42Z</time>
      </trkpt>
      <trkpt lat="44.85705" lon="1.32303">
        <ele>130.88</ele>
        <time>2022-08-09T06:10:59Z</time>
      </trkpt>
      <trkpt lat="44.85727" lon="1.32276">
        <ele>133.28</ele>
        <time>2022-08-09T06:11:14Z</time>
      </trkpt>
      <trkpt lat="44.8575" lon="1.32258">
        <ele>134.72</ele>
        <time>2022-08-09T06:11:29Z</time>
      </trkpt>
      <trkpt lat="44.85775" lon="1.32245">
        <ele>138.09</ele>
        <time>2022-08-09T06:11:44Z</time>
      </trkpt>
      <trkpt lat="44.85797" lon="1.32236">
        <ele>138.09</ele>
        <time>2022-08-09T06:11:57Z</time>
      </trkpt>
      <trkpt lat="44.85817" lon="1.32232">
        <ele>140.49</ele>
        <time>2022-08-09T06:12:10Z</time>
      </trkpt>
      <trkpt lat="44.85843" lon="1.32227">
        <ele>143.85</ele>
        <time>2022-08-09T06:12:25Z</time>
      </trkpt>
      <trkpt lat="44.85856" lon="1.32224">
        <ele>145.78</ele>
        <time>2022-08-09T06:12:32Z</time>
      </trkpt>
      <trkpt lat="44.85857" lon="1.32225">
        <ele>146.26</ele>
        <time>2022-08-09T06:12:33Z</time>
      </trkpt>
      <trkpt lat="44.85859" lon="1.32225">
        <ele>146.74</ele>
        <time>2022-08-09T06:12:34Z</time>
      </trkpt>
      <trkpt lat="44.85861" lon="1.32224">
        <ele>146.74</ele>
        <time>2022-08-09T06:12:35Z</time>
      </trkpt>
      <trkpt lat="44.85863" lon="1.32223">
        <ele>147.22</ele>
        <time>2022-08-09T06:12:36Z</time>
      </trkpt>
      <trkpt lat="44.85864" lon="1.32223">
        <ele>147.7</ele>
        <time>2022-08-09T06:12:37Z</time>
      </trkpt>
      <trkpt lat="44.85895" lon="1.32219">
        <ele>151.06</ele>
        <time>2022-08-09T06:12:53Z</time>
      </trkpt>
      <trkpt lat="44.85926" lon="1.32219">
        <ele>154.43</ele>
        <time>2022-08-09T06:13:09Z</time>
      </trkpt>
      <trkpt lat="44.85951" lon="1.3222">
        <ele>158.27</ele>
        <time>2022-08-09T06:13:22Z</time>
      </trkpt>
      <trkpt lat="44.85982" lon="1.32199">
        <ele>159.24</ele>
        <time>2022-08-09T06:13:39Z</time>
      </trkpt>
      <trkpt lat="44.86007" lon="1.32194">
        <ele>160.2</ele>
        <time>2022-08-09T06:13:53Z</time>
      </trkpt>
      <trkpt lat="44.86012" lon="1.32194">
        <ele>160.68</ele>
        <time>2022-08-09T06:13:56Z</time>
      </trkpt>
      <trkpt lat="44.86013" lon="1.32194">
        <ele>160.2</ele>
        <time>2022-08-09T06:13:57Z</time>
      </trkpt>
      <trkpt lat="44.86014" lon="1.32193">
        <ele>160.2</ele>
        <time>2022-08-09T06:13:58Z</time>
      </trkpt>
      <trkpt lat="44.86041" lon="1.32171">
        <ele>163.08</ele>
        <time>2022-08-09T06:14:13Z</time>
      </trkpt>
      <trkpt lat="44.86073" lon="1.32142">
        <ele>161.64</ele>
        <time>2022-08-09T06:14:23Z</time>
      </trkpt>
      <trkpt lat="44.86078" lon="1.32139">
        <ele>161.64</ele>
        <time>2022-08-09T06:14:24Z</time>
      </trkpt>
      <trkpt lat="44.86083" lon="1.32137">
        <ele>161.16</ele>
        <time>2022-08-09T06:14:25Z</time>
      </trkpt>
      <trkpt lat="44.86088" lon="1.32135">
        <ele>161.16</ele>
        <time>2022-08-09T06:14:26Z</time>
      </trkpt>
      <trkpt lat="44.86094" lon="1.32134">
        <ele>160.68</ele>
        <time>2022-08-09T06:14:27Z</time>
      </trkpt>
      <trkpt lat="44.86112" lon="1.3213">
        <ele>160.2</ele>
        <time>2022-08-09T06:14:30Z</time>
      </trkpt>
      <trkpt lat="44.86181" lon="1.32078">
        <ele>157.79</ele>
        <time>2022-08-09T06:14:42Z</time>
      </trkpt>
      <trkpt lat="44.86214" lon="1.32031">
        <ele>158.75</ele>
        <time>2022-08-09T06:14:53Z</time>
      </trkpt>
      <trkpt lat="44.86243" lon="1.32026">
        <ele>161.16</ele>
        <time>2022-08-09T06:15:07Z</time>
      </trkpt>
      <trkpt lat="44.86267" lon="1.32037">
        <ele>162.12</ele>
        <time>2022-08-09T06:15:21Z</time>
      </trkpt>
      <trkpt lat="44.86295" lon="1.3205">
        <ele>165.96</ele>
        <time>2022-08-09T06:15:36Z</time>
      </trkpt>
      <trkpt lat="44.86306" lon="1.32062">
        <ele>166.93</ele>
        <time>2022-08-09T06:15:43Z</time>
      </trkpt>
      <trkpt lat="44.86327" lon="1.32088">
        <ele>170.29</ele>
        <time>2022-08-09T06:15:51Z</time>
      </trkpt>
      <trkpt lat="44.8633" lon="1.32091">
        <ele>170.77</ele>
        <time>2022-08-09T06:15:52Z</time>
      </trkpt>
      <trkpt lat="44.86369" lon="1.32134">
        <ele>173.66</ele>
        <time>2022-08-09T06:16:04Z</time>
      </trkpt>
      <trkpt lat="44.86388" lon="1.32147">
        <ele>174.14</ele>
        <time>2022-08-09T06:16:09Z</time>
      </trkpt>
      <trkpt lat="44.86405" lon="1.32158">
        <ele>174.14</ele>
        <time>2022-08-09T06:16:13Z</time>
      </trkpt>
      <trkpt lat="44.86457" lon="1.32189">
        <ele>177.5</ele>
        <time>2022-08-09T06:16:29Z</time>
      </trkpt>
      <trkpt lat="44.8649" lon="1.32204">
        <ele>180.38</ele>
        <time>2022-08-09T06:16:44Z</time>
      </trkpt>
      <trkpt lat="44.86516" lon="1.32214">
        <ele>181.83</ele>
        <time>2022-08-09T06:16:58Z</time>
      </trkpt>
      <trkpt lat="44.86542" lon="1.3222">
        <ele>182.31</ele>
        <time>2022-08-09T06:17:12Z</time>
      </trkpt>
      <trkpt lat="44.86564" lon="1.3222">
        <ele>185.19</ele>
        <time>2022-08-09T06:17:25Z</time>
      </trkpt>
      <trkpt lat="44.86588" lon="1.32224">
        <ele>189.52</ele>
        <time>2022-08-09T06:17:39Z</time>
      </trkpt>
      <trkpt lat="44.86621" lon="1.32235">
        <ele>192.88</ele>
        <time>2022-08-09T06:17:55Z</time>
      </trkpt>
      <trkpt lat="44.8666" lon="1.32239">
        <ele>194.32</ele>
        <time>2022-08-09T06:18:11Z</time>
      </trkpt>
      <trkpt lat="44.86695" lon="1.32232">
        <ele>194.8</ele>
        <time>2022-08-09T06:18:24Z</time>
      </trkpt>
      <trkpt lat="44.86736" lon="1.32213">
        <ele>197.69</ele>
        <time>2022-08-09T06:18:41Z</time>
      </trkpt>
      <trkpt lat="44.86773" lon="1.32196">
        <ele>199.13</ele>
        <time>2022-08-09T06:18:58Z</time>
      </trkpt>
      <trkpt lat="44.86801" lon="1.32185">
        <ele>198.17</ele>
        <time>2022-08-09T06:19:12Z</time>
      </trkpt>
      <trkpt lat="44.86828" lon="1.32178">
        <ele>199.61</ele>
        <time>2022-08-09T06:19:26Z</time>
      </trkpt>
      <trkpt lat="44.86831" lon="1.32177">
        <ele>200.57</ele>
        <time>2022-08-09T06:19:28Z</time>
      </trkpt>
      <trkpt lat="44.86855" lon="1.32179">
        <ele>201.05</ele>
        <time>2022-08-09T06:19:40Z</time>
      </trkpt>
      <trkpt lat="44.86877" lon="1.32184">
        <ele>202.01</ele>
        <time>2022-08-09T06:19:51Z</time>
      </trkpt>
      <trkpt lat="44.86899" lon="1.32189">
        <ele>204.9</ele>
        <time>2022-08-09T06:20:02Z</time>
      </trkpt>
      <trkpt lat="44.86929" lon="1.32194">
        <ele>208.26</ele>
        <time>2022-08-09T06:20:17Z</time>
      </trkpt>
      <trkpt lat="44.86959" lon="1.32198">
        <ele>208.26</ele>
        <time>2022-08-09T06:20:30Z</time>
      </trkpt>
      <trkpt lat="44.8697" lon="1.32196">
        <ele>209.22</ele>
        <time>2022-08-09T06:20:36Z</time>
      </trkpt>
      <trkpt lat="44.86972" lon="1.32197">
        <ele>209.22</ele>
        <time>2022-08-09T06:20:37Z</time>
      </trkpt>
      <trkpt lat="44.86973" lon="1.32197">
        <ele>209.22</ele>
        <time>2022-08-09T06:20:38Z</time>
      </trkpt>
      <trkpt lat="44.86975" lon="1.32197">
        <ele>209.22</ele>
        <time>2022-08-09T06:20:39Z</time>
      </trkpt>
      <trkpt lat="44.86977" lon="1.32197">
        <ele>209.22</ele>
        <time>2022-08-09T06:20:40Z</time>
      </trkpt>
      <trkpt lat="44.87009" lon="1.32188">
        <ele>213.55</ele>
        <time>2022-08-09T06:20:55Z</time>
      </trkpt>
      <trkpt lat="44.87031" lon="1.32182">
        <ele>216.43</ele>
        <time>2022-08-09T06:21:07Z</time>
      </trkpt>
      <trkpt lat="44.87051" lon="1.32166">
        <ele>219.8</ele>
        <time>2022-08-09T06:21:18Z</time>
      </trkpt>
      <trkpt lat="44.87068" lon="1.3215">
        <ele>222.2</ele>
        <time>2022-08-09T06:21:28Z</time>
      </trkpt>
      <trkpt lat="44.87069" lon="1.32149">
        <ele>222.2</ele>
        <time>2022-08-09T06:21:29Z</time>
      </trkpt>
      <trkpt lat="44.87071" lon="1.32147">
        <ele>222.68</ele>
        <time>2022-08-09T06:21:30Z</time>
      </trkpt>
      <trkpt lat="44.87072" lon="1.32146">
        <ele>222.68</ele>
        <time>2022-08-09T06:21:31Z</time>
      </trkpt>
      <trkpt lat="44.87074" lon="1.32144">
        <ele>223.16</ele>
        <time>2022-08-09T06:21:32Z</time>
      </trkpt>
      <trkpt lat="44.87098" lon="1.32126">
        <ele>226.05</ele>
        <time>2022-08-09T06:21:47Z</time>
      </trkpt>
      <trkpt lat="44.87131" lon="1.32113">
        <ele>228.93</ele>
        <time>2022-08-09T06:22:03Z</time>
      </trkpt>
      <trkpt lat="44.87159" lon="1.32097">
        <ele>233.26</ele>
        <time>2022-08-09T06:22:18Z</time>
      </trkpt>
      <trkpt lat="44.87186" lon="1.32085">
        <ele>234.7</ele>
        <time>2022-08-09T06:22:32Z</time>
      </trkpt>
      <trkpt lat="44.87212" lon="1.32107">
        <ele>236.14</ele>
        <time>2022-08-09T06:22:46Z</time>
      </trkpt>
      <trkpt lat="44.8725" lon="1.32112">
        <ele>236.14</ele>
        <time>2022-08-09T06:23:01Z</time>
      </trkpt>
      <trkpt lat="44.87277" lon="1.3209">
        <ele>236.62</ele>
        <time>2022-08-09T06:23:09Z</time>
      </trkpt>
      <trkpt lat="44.87282" lon="1.32087">
        <ele>236.62</ele>
        <time>2022-08-09T06:23:10Z</time>
      </trkpt>
      <trkpt lat="44.87286" lon="1.32085">
        <ele>236.62</ele>
        <time>2022-08-09T06:23:11Z</time>
      </trkpt>
      <trkpt lat="44.87292" lon="1.32084">
        <ele>236.62</ele>
        <time>2022-08-09T06:23:12Z</time>
      </trkpt>
      <trkpt lat="44.87297" lon="1.32085">
        <ele>236.62</ele>
        <time>2022-08-09T06:23:13Z</time>
      </trkpt>
      <trkpt lat="44.87302" lon="1.32087">
        <ele>236.62</ele>
        <time>2022-08-09T06:23:14Z</time>
      </trkpt>
      <trkpt lat="44.87307" lon="1.32092">
        <ele>236.14</ele>
        <time>2022-08-09T06:23:15Z</time>
      </trkpt>
      <trkpt lat="44.8731" lon="1.32098">
        <ele>236.14</ele>
        <time>2022-08-09T06:23:16Z</time>
      </trkpt>
      <trkpt lat="44.87313" lon="1.32104">
        <ele>236.14</ele>
        <time>2022-08-09T06:23:17Z</time>
      </trkpt>
      <trkpt lat="44.87318" lon="1.32116">
        <ele>235.66</ele>
        <time>2022-08-09T06:23:19Z</time>
      </trkpt>
      <trkpt lat="44.87326" lon="1.32145">
        <ele>233.74</ele>
        <time>2022-08-09T06:23:23Z</time>
      </trkpt>
      <trkpt lat="44.87332" lon="1.32159">
        <ele>232.78</ele>
        <time>2022-08-09T06:23:25Z</time>
      </trkpt>
      <trkpt lat="44.87336" lon="1.32165">
        <ele>232.3</ele>
        <time>2022-08-09T06:23:26Z</time>
      </trkpt>
      <trkpt lat="44.87341" lon="1.3217">
        <ele>231.81</ele>
        <time>2022-08-09T06:23:27Z</time>
      </trkpt>
      <trkpt lat="44.87348" lon="1.32174">
        <ele>231.33</ele>
        <time>2022-08-09T06:23:28Z</time>
      </trkpt>
      <trkpt lat="44.87355" lon="1.32175">
        <ele>230.85</ele>
        <time>2022-08-09T06:23:29Z</time>
      </trkpt>
      <trkpt lat="44.87363" lon="1.32175">
        <ele>230.85</ele>
        <time>2022-08-09T06:23:30Z</time>
      </trkpt>
      <trkpt lat="44.8737" lon="1.32173">
        <ele>229.89</ele>
        <time>2022-08-09T06:23:31Z</time>
      </trkpt>
      <trkpt lat="44.87378" lon="1.32172">
        <ele>229.41</ele>
        <time>2022-08-09T06:23:32Z</time>
      </trkpt>
      <trkpt lat="44.87385" lon="1.32172">
        <ele>228.93</ele>
        <time>2022-08-09T06:23:33Z</time>
      </trkpt>
      <trkpt lat="44.87393" lon="1.32174">
        <ele>228.45</ele>
        <time>2022-08-09T06:23:34Z</time>
      </trkpt>
      <trkpt lat="44.874" lon="1.32178">
        <ele>227.97</ele>
        <time>2022-08-09T06:23:35Z</time>
      </trkpt>
      <trkpt lat="44.87407" lon="1.32183">
        <ele>227.49</ele>
        <time>2022-08-09T06:23:36Z</time>
      </trkpt>
      <trkpt lat="44.87422" lon="1.3219">
        <ele>226.53</ele>
        <time>2022-08-09T06:23:38Z</time>
      </trkpt>
      <trkpt lat="44.8743" lon="1.32192">
        <ele>226.05</ele>
        <time>2022-08-09T06:23:39Z</time>
      </trkpt>
      <trkpt lat="44.87439" lon="1.32193">
        <ele>225.09</ele>
        <time>2022-08-09T06:23:40Z</time>
      </trkpt>
      <trkpt lat="44.87519" lon="1.32171">
        <ele>219.32</ele>
        <time>2022-08-09T06:23:49Z</time>
      </trkpt>
      <trkpt lat="44.87526" lon="1.32169">
        <ele>218.84</ele>
        <time>2022-08-09T06:23:50Z</time>
      </trkpt>
      <trkpt lat="44.87557" lon="1.32167">
        <ele>215.47</ele>
        <time>2022-08-09T06:23:55Z</time>
      </trkpt>
      <trkpt lat="44.87562" lon="1.32166">
        <ele>214.99</ele>
        <time>2022-08-09T06:23:56Z</time>
      </trkpt>
      <trkpt lat="44.87567" lon="1.32164">
        <ele>214.51</ele>
        <time>2022-08-09T06:23:57Z</time>
      </trkpt>
      <trkpt lat="44.87572" lon="1.32163">
        <ele>214.51</ele>
        <time>2022-08-09T06:23:58Z</time>
      </trkpt>
      <trkpt lat="44.87577" lon="1.3216">
        <ele>214.51</ele>
        <time>2022-08-09T06:23:59Z</time>
      </trkpt>
      <trkpt lat="44.87581" lon="1.32156">
        <ele>214.51</ele>
        <time>2022-08-09T06:24:00Z</time>
      </trkpt>
      <trkpt lat="44.87584" lon="1.32152">
        <ele>214.51</ele>
        <time>2022-08-09T06:24:01Z</time>
      </trkpt>
      <trkpt lat="44.87627" lon="1.32097">
        <ele>214.51</ele>
        <time>2022-08-09T06:24:13Z</time>
      </trkpt>
      <trkpt lat="44.87631" lon="1.32093">
        <ele>214.51</ele>
        <time>2022-08-09T06:24:14Z</time>
      </trkpt>
      <trkpt lat="44.87689" lon="1.32014">
        <ele>213.07</ele>
        <time>2022-08-09T06:24:30Z</time>
      </trkpt>
      <trkpt lat="44.87741" lon="1.31945">
        <ele>207.78</ele>
        <time>2022-08-09T06:24:41Z</time>
      </trkpt>
      <trkpt lat="44.87755" lon="1.31932">
        <ele>205.86</ele>
        <time>2022-08-09T06:24:44Z</time>
      </trkpt>
      <trkpt lat="44.87761" lon="1.31928">
        <ele>205.38</ele>
        <time>2022-08-09T06:24:45Z</time>
      </trkpt>
      <trkpt lat="44.87767" lon="1.31926">
        <ele>204.9</ele>
        <time>2022-08-09T06:24:46Z</time>
      </trkpt>
      <trkpt lat="44.87773" lon="1.31925">
        <ele>204.42</ele>
        <time>2022-08-09T06:24:47Z</time>
      </trkpt>
      <trkpt lat="44.87778" lon="1.31924">
        <ele>203.46</ele>
        <time>2022-08-09T06:24:48Z</time>
      </trkpt>
      <trkpt lat="44.87783" lon="1.31925">
        <ele>202.49</ele>
        <time>2022-08-09T06:24:49Z</time>
      </trkpt>
      <trkpt lat="44.87789" lon="1.31926">
        <ele>202.01</ele>
        <time>2022-08-09T06:24:50Z</time>
      </trkpt>
      <trkpt lat="44.87795" lon="1.31928">
        <ele>201.05</ele>
        <time>2022-08-09T06:24:51Z</time>
      </trkpt>
      <trkpt lat="44.87801" lon="1.31931">
        <ele>200.57</ele>
        <time>2022-08-09T06:24:52Z</time>
      </trkpt>
      <trkpt lat="44.87808" lon="1.31934">
        <ele>199.61</ele>
        <time>2022-08-09T06:24:53Z</time>
      </trkpt>
      <trkpt lat="44.8785" lon="1.31952">
        <ele>194.8</ele>
        <time>2022-08-09T06:25:00Z</time>
      </trkpt>
      <trkpt lat="44.87858" lon="1.3195">
        <ele>193.84</ele>
        <time>2022-08-09T06:25:01Z</time>
      </trkpt>
      <trkpt lat="44.87866" lon="1.31946">
        <ele>193.36</ele>
        <time>2022-08-09T06:25:02Z</time>
      </trkpt>
      <trkpt lat="44.87874" lon="1.31939">
        <ele>192.4</ele>
        <time>2022-08-09T06:25:03Z</time>
      </trkpt>
      <trkpt lat="44.87882" lon="1.31932">
        <ele>191.92</ele>
        <time>2022-08-09T06:25:04Z</time>
      </trkpt>
      <trkpt lat="44.88006" lon="1.31822">
        <ele>181.83</ele>
        <time>2022-08-09T06:25:18Z</time>
      </trkpt>
      <trkpt lat="44.88096" lon="1.31725">
        <ele>181.83</ele>
        <time>2022-08-09T06:25:30Z</time>
      </trkpt>
      <trkpt lat="44.88114" lon="1.31697">
        <ele>182.79</ele>
        <time>2022-08-09T06:25:35Z</time>
      </trkpt>
      <trkpt lat="44.88168" lon="1.31613">
        <ele>181.35</ele>
        <time>2022-08-09T06:25:49Z</time>
      </trkpt>
      <trkpt lat="44.88192" lon="1.3157">
        <ele>177.5</ele>
        <time>2022-08-09T06:25:54Z</time>
      </trkpt>
      <trkpt lat="44.88198" lon="1.31564">
        <ele>176.54</ele>
        <time>2022-08-09T06:25:55Z</time>
      </trkpt>
      <trkpt lat="44.88204" lon="1.31558">
        <ele>176.06</ele>
        <time>2022-08-09T06:25:56Z</time>
      </trkpt>
      <trkpt lat="44.88212" lon="1.31554">
        <ele>175.1</ele>
        <time>2022-08-09T06:25:57Z</time>
      </trkpt>
      <trkpt lat="44.8822" lon="1.31551">
        <ele>174.62</ele>
        <time>2022-08-09T06:25:58Z</time>
      </trkpt>
      <trkpt lat="44.88228" lon="1.31548">
        <ele>173.66</ele>
        <time>2022-08-09T06:25:59Z</time>
      </trkpt>
      <trkpt lat="44.88283" lon="1.31534">
        <ele>169.33</ele>
        <time>2022-08-09T06:26:05Z</time>
      </trkpt>
      <trkpt lat="44.88341" lon="1.31535">
        <ele>167.89</ele>
        <time>2022-08-09T06:26:11Z</time>
      </trkpt>
      <trkpt lat="44.88348" lon="1.31533">
        <ele>167.89</ele>
        <time>2022-08-09T06:26:12Z</time>
      </trkpt>
      <trkpt lat="44.88355" lon="1.3153">
        <ele>168.37</ele>
        <time>2022-08-09T06:26:13Z</time>
      </trkpt>
      <trkpt lat="44.88403" lon="1.31502">
        <ele>172.21</ele>
        <time>2022-08-09T06:26:24Z</time>
      </trkpt>
      <trkpt lat="44.88457" lon="1.31483">
        <ele>175.58</ele>
        <time>2022-08-09T06:26:40Z</time>
      </trkpt>
      <trkpt lat="44.885" lon="1.31464">
        <ele>180.38</ele>
        <time>2022-08-09T06:26:55Z</time>
      </trkpt>
      <trkpt lat="44.88545" lon="1.31418">
        <ele>177.98</ele>
        <time>2022-08-09T06:27:08Z</time>
      </trkpt>
      <trkpt lat="44.88584" lon="1.31361">
        <ele>176.54</ele>
        <time>2022-08-09T06:27:18Z</time>
      </trkpt>
      <trkpt lat="44.88587" lon="1.31353">
        <ele>176.06</ele>
        <time>2022-08-09T06:27:19Z</time>
      </trkpt>
      <trkpt lat="44.88588" lon="1.31345">
        <ele>176.06</ele>
        <time>2022-08-09T06:27:20Z</time>
      </trkpt>
      <trkpt lat="44.88589" lon="1.31336">
        <ele>175.1</ele>
        <time>2022-08-09T06:27:21Z</time>
      </trkpt>
      <trkpt lat="44.88589" lon="1.31328">
        <ele>174.62</ele>
        <time>2022-08-09T06:27:22Z</time>
      </trkpt>
      <trkpt lat="44.88589" lon="1.3132">
        <ele>174.14</ele>
        <time>2022-08-09T06:27:23Z</time>
      </trkpt>
      <trkpt lat="44.88588" lon="1.31312">
        <ele>173.66</ele>
        <time>2022-08-09T06:27:24Z</time>
      </trkpt>
      <trkpt lat="44.88587" lon="1.31304">
        <ele>173.17</ele>
        <time>2022-08-09T06:27:25Z</time>
      </trkpt>
      <trkpt lat="44.88574" lon="1.3124">
        <ele>168.85</ele>
        <time>2022-08-09T06:27:33Z</time>
      </trkpt>
      <trkpt lat="44.88573" lon="1.31231">
        <ele>168.37</ele>
        <time>2022-08-09T06:27:34Z</time>
      </trkpt>
      <trkpt lat="44.88573" lon="1.31222">
        <ele>167.89</ele>
        <time>2022-08-09T06:27:35Z</time>
      </trkpt>
      <trkpt lat="44.88575" lon="1.31213">
        <ele>167.41</ele>
        <time>2022-08-09T06:27:36Z</time>
      </trkpt>
      <trkpt lat="44.88578" lon="1.31205">
        <ele>166.45</ele>
        <time>2022-08-09T06:27:37Z</time>
      </trkpt>
      <trkpt lat="44.88582" lon="1.31197">
        <ele>165.96</ele>
        <time>2022-08-09T06:27:38Z</time>
      </trkpt>
      <trkpt lat="44.88586" lon="1.3119">
        <ele>165.48</ele>
        <time>2022-08-09T06:27:39Z</time>
      </trkpt>
      <trkpt lat="44.88592" lon="1.31183">
        <ele>164.52</ele>
        <time>2022-08-09T06:27:40Z</time>
      </trkpt>
      <trkpt lat="44.88663" lon="1.31094">
        <ele>159.72</ele>
        <time>2022-08-09T06:27:52Z</time>
      </trkpt>
      <trkpt lat="44.88667" lon="1.31086">
        <ele>159.24</ele>
        <time>2022-08-09T06:27:53Z</time>
      </trkpt>
      <trkpt lat="44.8867" lon="1.31077">
        <ele>158.75</ele>
        <time>2022-08-09T06:27:54Z</time>
      </trkpt>
      <trkpt lat="44.88672" lon="1.31067">
        <ele>158.27</ele>
        <time>2022-08-09T06:27:55Z</time>
      </trkpt>
      <trkpt lat="44.88674" lon="1.31059">
        <ele>158.27</ele>
        <time>2022-08-09T06:27:56Z</time>
      </trkpt>
      <trkpt lat="44.88675" lon="1.31049">
        <ele>157.79</ele>
        <time>2022-08-09T06:27:57Z</time>
      </trkpt>
      <trkpt lat="44.88677" lon="1.31039">
        <ele>157.31</ele>
        <time>2022-08-09T06:27:58Z</time>
      </trkpt>
      <trkpt lat="44.88683" lon="1.31008">
        <ele>156.35</ele>
        <time>2022-08-09T06:28:01Z</time>
      </trkpt>
      <trkpt lat="44.88686" lon="1.31001">
        <ele>155.87</ele>
        <time>2022-08-09T06:28:02Z</time>
      </trkpt>
      <trkpt lat="44.8869" lon="1.30993">
        <ele>155.39</ele>
        <time>2022-08-09T06:28:03Z</time>
      </trkpt>
      <trkpt lat="44.88702" lon="1.30976">
        <ele>154.91</ele>
        <time>2022-08-09T06:28:06Z</time>
      </trkpt>
      <trkpt lat="44.88711" lon="1.30965">
        <ele>154.43</ele>
        <time>2022-08-09T06:28:08Z</time>
      </trkpt>
      <trkpt lat="44.88717" lon="1.30961">
        <ele>154.43</ele>
        <time>2022-08-09T06:28:09Z</time>
      </trkpt>
      <trkpt lat="44.88723" lon="1.30958">
        <ele>153.95</ele>
        <time>2022-08-09T06:28:10Z</time>
      </trkpt>
      <trkpt lat="44.8873" lon="1.30956">
        <ele>153.95</ele>
        <time>2022-08-09T06:28:11Z</time>
      </trkpt>
      <trkpt lat="44.88736" lon="1.30955">
        <ele>153.95</ele>
        <time>2022-08-09T06:28:12Z</time>
      </trkpt>
      <trkpt lat="44.88744" lon="1.30955">
        <ele>153.95</ele>
        <time>2022-08-09T06:28:13Z</time>
      </trkpt>
      <trkpt lat="44.88843" lon="1.30933">
        <ele>151.54</ele>
        <time>2022-08-09T06:28:28Z</time>
      </trkpt>
      <trkpt lat="44.88873" lon="1.30906">
        <ele>150.58</ele>
        <time>2022-08-09T06:28:38Z</time>
      </trkpt>
      <trkpt lat="44.8889" lon="1.30897">
        <ele>149.14</ele>
        <time>2022-08-09T06:28:42Z</time>
      </trkpt>
      <trkpt lat="44.88896" lon="1.30896">
        <ele>149.14</ele>
        <time>2022-08-09T06:28:43Z</time>
      </trkpt>
      <trkpt lat="44.88902" lon="1.30895">
        <ele>148.66</ele>
        <time>2022-08-09T06:28:44Z</time>
      </trkpt>
      <trkpt lat="44.88907" lon="1.30896">
        <ele>148.18</ele>
        <time>2022-08-09T06:28:45Z</time>
      </trkpt>
      <trkpt lat="44.88912" lon="1.309">
        <ele>148.18</ele>
        <time>2022-08-09T06:28:46Z</time>
      </trkpt>
      <trkpt lat="44.88918" lon="1.30905">
        <ele>147.7</ele>
        <time>2022-08-09T06:28:47Z</time>
      </trkpt>
      <trkpt lat="44.88922" lon="1.30911">
        <ele>147.22</ele>
        <time>2022-08-09T06:28:48Z</time>
      </trkpt>
      <trkpt lat="44.88944" lon="1.30937">
        <ele>146.26</ele>
        <time>2022-08-09T06:28:52Z</time>
      </trkpt>
      <trkpt lat="44.8895" lon="1.30942">
        <ele>145.78</ele>
        <time>2022-08-09T06:28:53Z</time>
      </trkpt>
      <trkpt lat="44.88957" lon="1.30946">
        <ele>145.3</ele>
        <time>2022-08-09T06:28:54Z</time>
      </trkpt>
      <trkpt lat="44.88964" lon="1.3095">
        <ele>145.3</ele>
        <time>2022-08-09T06:28:55Z</time>
      </trkpt>
      <trkpt lat="44.8897" lon="1.30954">
        <ele>144.82</ele>
        <time>2022-08-09T06:28:56Z</time>
      </trkpt>
      <trkpt lat="44.88981" lon="1.30958">
        <ele>143.85</ele>
        <time>2022-08-09T06:28:58Z</time>
      </trkpt>
      <trkpt lat="44.88986" lon="1.30956">
        <ele>143.37</ele>
        <time>2022-08-09T06:28:59Z</time>
      </trkpt>
      <trkpt lat="44.8899" lon="1.30952">
        <ele>142.89</ele>
        <time>2022-08-09T06:29:00Z</time>
      </trkpt>
      <trkpt lat="44.88993" lon="1.30946">
        <ele>142.41</ele>
        <time>2022-08-09T06:29:01Z</time>
      </trkpt>
      <trkpt lat="44.88996" lon="1.30939">
        <ele>141.93</ele>
        <time>2022-08-09T06:29:02Z</time>
      </trkpt>
      <trkpt lat="44.88999" lon="1.30932">
        <ele>141.45</ele>
        <time>2022-08-09T06:29:03Z</time>
      </trkpt>
      <trkpt lat="44.89002" lon="1.30926">
        <ele>140.97</ele>
        <time>2022-08-09T06:29:04Z</time>
      </trkpt>
      <trkpt lat="44.89007" lon="1.3092">
        <ele>140.49</ele>
        <time>2022-08-09T06:29:05Z</time>
      </trkpt>
      <trkpt lat="44.89034" lon="1.30886">
        <ele>137.13</ele>
        <time>2022-08-09T06:29:10Z</time>
      </trkpt>
      <trkpt lat="44.89041" lon="1.30882">
        <ele>136.16</ele>
        <time>2022-08-09T06:29:11Z</time>
      </trkpt>
      <trkpt lat="44.89049" lon="1.30882">
        <ele>135.2</ele>
        <time>2022-08-09T06:29:12Z</time>
      </trkpt>
      <trkpt lat="44.89057" lon="1.30885">
        <ele>134.72</ele>
        <time>2022-08-09T06:29:13Z</time>
      </trkpt>
      <trkpt lat="44.89065" lon="1.30886">
        <ele>133.76</ele>
        <time>2022-08-09T06:29:14Z</time>
      </trkpt>
      <trkpt lat="44.89071" lon="1.30885">
        <ele>133.28</ele>
        <time>2022-08-09T06:29:15Z</time>
      </trkpt>
      <trkpt lat="44.89078" lon="1.30881">
        <ele>132.8</ele>
        <time>2022-08-09T06:29:16Z</time>
      </trkpt>
      <trkpt lat="44.89083" lon="1.30875">
        <ele>132.32</ele>
        <time>2022-08-09T06:29:17Z</time>
      </trkpt>
      <trkpt lat="44.89088" lon="1.30868">
        <ele>131.84</ele>
        <time>2022-08-09T06:29:18Z</time>
      </trkpt>
      <trkpt lat="44.89092" lon="1.3086">
        <ele>131.36</ele>
        <time>2022-08-09T06:29:19Z</time>
      </trkpt>
      <trkpt lat="44.89153" lon="1.30751">
        <ele>129.43</ele>
        <time>2022-08-09T06:29:33Z</time>
      </trkpt>
      <trkpt lat="44.89159" lon="1.30746">
        <ele>129.92</ele>
        <time>2022-08-09T06:29:34Z</time>
      </trkpt>
      <trkpt lat="44.89165" lon="1.30742">
        <ele>129.92</ele>
        <time>2022-08-09T06:29:35Z</time>
      </trkpt>
      <trkpt lat="44.89171" lon="1.30739">
        <ele>129.92</ele>
        <time>2022-08-09T06:29:36Z</time>
      </trkpt>
      <trkpt lat="44.89176" lon="1.30737">
        <ele>130.4</ele>
        <time>2022-08-09T06:29:37Z</time>
      </trkpt>
      <trkpt lat="44.89182" lon="1.30734">
        <ele>130.88</ele>
        <time>2022-08-09T06:29:38Z</time>
      </trkpt>
      <trkpt lat="44.89186" lon="1.30733">
        <ele>130.88</ele>
        <time>2022-08-09T06:29:39Z</time>
      </trkpt>
      <trkpt lat="44.89232" lon="1.30728">
        <ele>134.72</ele>
        <time>2022-08-09T06:29:52Z</time>
      </trkpt>
      <trkpt lat="44.89252" lon="1.30736">
        <ele>134.72</ele>
        <time>2022-08-09T06:29:57Z</time>
      </trkpt>
      <trkpt lat="44.89256" lon="1.30739">
        <ele>134.72</ele>
        <time>2022-08-09T06:29:58Z</time>
      </trkpt>
      <trkpt lat="44.89281" lon="1.30758">
        <ele>134.72</ele>
        <time>2022-08-09T06:30:04Z</time>
      </trkpt>
      <trkpt lat="44.89285" lon="1.30761">
        <ele>134.24</ele>
        <time>2022-08-09T06:30:05Z</time>
      </trkpt>
      <trkpt lat="44.8929" lon="1.30763">
        <ele>134.24</ele>
        <time>2022-08-09T06:30:06Z</time>
      </trkpt>
      <trkpt lat="44.89306" lon="1.30767">
        <ele>133.76</ele>
        <time>2022-08-09T06:30:09Z</time>
      </trkpt>
      <trkpt lat="44.89383" lon="1.30769">
        <ele>130.4</ele>
        <time>2022-08-09T06:30:20Z</time>
      </trkpt>
      <trkpt lat="44.89389" lon="1.3077">
        <ele>130.4</ele>
        <time>2022-08-09T06:30:21Z</time>
      </trkpt>
      <trkpt lat="44.89395" lon="1.30773">
        <ele>130.4</ele>
        <time>2022-08-09T06:30:22Z</time>
      </trkpt>
      <trkpt lat="44.89402" lon="1.30776">
        <ele>130.4</ele>
        <time>2022-08-09T06:30:23Z</time>
      </trkpt>
      <trkpt lat="44.89407" lon="1.3078">
        <ele>130.4</ele>
        <time>2022-08-09T06:30:24Z</time>
      </trkpt>
      <trkpt lat="44.89412" lon="1.30783">
        <ele>130.88</ele>
        <time>2022-08-09T06:30:25Z</time>
      </trkpt>
      <trkpt lat="44.89417" lon="1.30789">
        <ele>130.88</ele>
        <time>2022-08-09T06:30:26Z</time>
      </trkpt>
      <trkpt lat="44.89422" lon="1.30795">
        <ele>130.88</ele>
        <time>2022-08-09T06:30:27Z</time>
      </trkpt>
      <trkpt lat="44.89453" lon="1.30851">
        <ele>133.28</ele>
        <time>2022-08-09T06:30:36Z</time>
      </trkpt>
      <trkpt lat="44.89457" lon="1.30857">
        <ele>134.24</ele>
        <time>2022-08-09T06:30:37Z</time>
      </trkpt>
      <trkpt lat="44.8946" lon="1.30863">
        <ele>134.72</ele>
        <time>2022-08-09T06:30:38Z</time>
      </trkpt>
      <trkpt lat="44.89468" lon="1.30873">
        <ele>135.68</ele>
        <time>2022-08-09T06:30:40Z</time>
      </trkpt>
      <trkpt lat="44.89472" lon="1.30877">
        <ele>136.16</ele>
        <time>2022-08-09T06:30:41Z</time>
      </trkpt>
      <trkpt lat="44.89476" lon="1.30881">
        <ele>136.64</ele>
        <time>2022-08-09T06:30:42Z</time>
      </trkpt>
      <trkpt lat="44.89532" lon="1.30922">
        <ele>138.57</ele>
        <time>2022-08-09T06:30:57Z</time>
      </trkpt>
      <trkpt lat="44.89573" lon="1.30951">
        <ele>141.93</ele>
        <time>2022-08-09T06:31:13Z</time>
      </trkpt>
      <trkpt lat="44.89598" lon="1.30958">
        <ele>143.85</ele>
        <time>2022-08-09T06:31:26Z</time>
      </trkpt>
      <trkpt lat="44.89622" lon="1.30964">
        <ele>144.82</ele>
        <time>2022-08-09T06:31:38Z</time>
      </trkpt>
      <trkpt lat="44.89638" lon="1.30971">
        <ele>144.34</ele>
        <time>2022-08-09T06:31:46Z</time>
      </trkpt>
      <trkpt lat="44.89649" lon="1.30981">
        <ele>144.34</ele>
        <time>2022-08-09T06:31:51Z</time>
      </trkpt>
      <trkpt lat="44.89682" lon="1.3101">
        <ele>147.22</ele>
        <time>2022-08-09T06:32:06Z</time>
      </trkpt>
      <trkpt lat="44.89712" lon="1.31042">
        <ele>150.58</ele>
        <time>2022-08-09T06:32:19Z</time>
      </trkpt>
      <trkpt lat="44.89765" lon="1.31098">
        <ele>154.43</ele>
        <time>2022-08-09T06:32:36Z</time>
      </trkpt>
      <trkpt lat="44.89828" lon="1.31164">
        <ele>154.91</ele>
        <time>2022-08-09T06:32:55Z</time>
      </trkpt>
      <trkpt lat="44.89879" lon="1.31203">
        <ele>158.75</ele>
        <time>2022-08-09T06:33:12Z</time>
      </trkpt>
      <trkpt lat="44.89929" lon="1.31234">
        <ele>160.68</ele>
        <time>2022-08-09T06:33:27Z</time>
      </trkpt>
      <trkpt lat="44.89936" lon="1.31236">
        <ele>160.68</ele>
        <time>2022-08-09T06:33:29Z</time>
      </trkpt>
      <trkpt lat="44.89991" lon="1.31245">
        <ele>160.2</ele>
        <time>2022-08-09T06:33:43Z</time>
      </trkpt>
      <trkpt lat="44.90001" lon="1.31248">
        <ele>159.72</ele>
        <time>2022-08-09T06:33:45Z</time>
      </trkpt>
      <trkpt lat="44.90005" lon="1.3125">
        <ele>159.72</ele>
        <time>2022-08-09T06:33:46Z</time>
      </trkpt>
      <trkpt lat="44.9001" lon="1.31252">
        <ele>159.72</ele>
        <time>2022-08-09T06:33:47Z</time>
      </trkpt>
      <trkpt lat="44.90025" lon="1.3126">
        <ele>159.24</ele>
        <time>2022-08-09T06:33:52Z</time>
      </trkpt>
      <trkpt lat="44.90029" lon="1.31257">
        <ele>159.24</ele>
        <time>2022-08-09T06:33:53Z</time>
      </trkpt>
      <trkpt lat="44.90032" lon="1.31253">
        <ele>158.75</ele>
        <time>2022-08-09T06:33:54Z</time>
      </trkpt>
      <trkpt lat="44.90034" lon="1.3125">
        <ele>158.75</ele>
        <time>2022-08-09T06:33:55Z</time>
      </trkpt>
      <trkpt lat="44.90037" lon="1.31245">
        <ele>158.27</ele>
        <time>2022-08-09T06:33:56Z</time>
      </trkpt>
      <trkpt lat="44.9007" lon="1.31165">
        <ele>157.79</ele>
        <time>2022-08-09T06:34:11Z</time>
      </trkpt>
      <trkpt lat="44.90095" lon="1.31041">
        <ele>153.47</ele>
        <time>2022-08-09T06:34:26Z</time>
      </trkpt>
      <trkpt lat="44.90116" lon="1.30885">
        <ele>152.99</ele>
        <time>2022-08-09T06:34:44Z</time>
      </trkpt>
      <trkpt lat="44.9013" lon="1.3075">
        <ele>150.58</ele>
        <time>2022-08-09T06:35:00Z</time>
      </trkpt>
      <trkpt lat="44.90134" lon="1.30732">
        <ele>150.1</ele>
        <time>2022-08-09T06:35:02Z</time>
      </trkpt>
      <trkpt lat="44.90138" lon="1.30723">
        <ele>150.1</ele>
        <time>2022-08-09T06:35:03Z</time>
      </trkpt>
      <trkpt lat="44.90141" lon="1.30716">
        <ele>150.1</ele>
        <time>2022-08-09T06:35:04Z</time>
      </trkpt>
      <trkpt lat="44.90195" lon="1.3062">
        <ele>149.14</ele>
        <time>2022-08-09T06:35:18Z</time>
      </trkpt>
      <trkpt lat="44.90207" lon="1.30599">
        <ele>148.66</ele>
        <time>2022-08-09T06:35:21Z</time>
      </trkpt>
      <trkpt lat="44.90208" lon="1.30593">
        <ele>148.66</ele>
        <time>2022-08-09T06:35:22Z</time>
      </trkpt>
      <trkpt lat="44.90209" lon="1.30585">
        <ele>148.66</ele>
        <time>2022-08-09T06:35:23Z</time>
      </trkpt>
      <trkpt lat="44.90207" lon="1.30579">
        <ele>148.18</ele>
        <time>2022-08-09T06:35:24Z</time>
      </trkpt>
      <trkpt lat="44.90205" lon="1.30575">
        <ele>148.18</ele>
        <time>2022-08-09T06:35:25Z</time>
      </trkpt>
      <trkpt lat="44.90201" lon="1.30572">
        <ele>148.18</ele>
        <time>2022-08-09T06:35:26Z</time>
      </trkpt>
      <trkpt lat="44.90197" lon="1.30568">
        <ele>147.7</ele>
        <time>2022-08-09T06:35:27Z</time>
      </trkpt>
      <trkpt lat="44.90193" lon="1.30564">
        <ele>147.7</ele>
        <time>2022-08-09T06:35:28Z</time>
      </trkpt>
      <trkpt lat="44.9019" lon="1.30559">
        <ele>147.7</ele>
        <time>2022-08-09T06:35:29Z</time>
      </trkpt>
      <trkpt lat="44.90186" lon="1.30551">
        <ele>147.22</ele>
        <time>2022-08-09T06:35:30Z</time>
      </trkpt>
      <trkpt lat="44.90183" lon="1.30543">
        <ele>147.22</ele>
        <time>2022-08-09T06:35:31Z</time>
      </trkpt>
      <trkpt lat="44.90181" lon="1.30534">
        <ele>147.22</ele>
        <time>2022-08-09T06:35:32Z</time>
      </trkpt>
      <trkpt lat="44.9018" lon="1.30525">
        <ele>147.22</ele>
        <time>2022-08-09T06:35:33Z</time>
      </trkpt>
      <trkpt lat="44.90179" lon="1.30516">
        <ele>147.22</ele>
        <time>2022-08-09T06:35:34Z</time>
      </trkpt>
      <trkpt lat="44.90179" lon="1.30508">
        <ele>147.22</ele>
        <time>2022-08-09T06:35:35Z</time>
      </trkpt>
      <trkpt lat="44.90184" lon="1.30434">
        <ele>147.22</ele>
        <time>2022-08-09T06:35:43Z</time>
      </trkpt>
      <trkpt lat="44.90204" lon="1.30344">
        <ele>150.1</ele>
        <time>2022-08-09T06:35:55Z</time>
      </trkpt>
      <trkpt lat="44.90233" lon="1.3026">
        <ele>151.06</ele>
        <time>2022-08-09T06:36:08Z</time>
      </trkpt>
      <trkpt lat="44.90238" lon="1.30236">
        <ele>151.54</ele>
        <time>2022-08-09T06:36:12Z</time>
      </trkpt>
      <trkpt lat="44.90238" lon="1.3023">
        <ele>151.54</ele>
        <time>2022-08-09T06:36:13Z</time>
      </trkpt>
      <trkpt lat="44.90237" lon="1.30223">
        <ele>152.03</ele>
        <time>2022-08-09T06:36:14Z</time>
      </trkpt>
      <trkpt lat="44.90236" lon="1.30217">
        <ele>152.03</ele>
        <time>2022-08-09T06:36:15Z</time>
      </trkpt>
      <trkpt lat="44.90234" lon="1.30212">
        <ele>152.51</ele>
        <time>2022-08-09T06:36:16Z</time>
      </trkpt>
      <trkpt lat="44.9023" lon="1.30201">
        <ele>152.99</ele>
        <time>2022-08-09T06:36:18Z</time>
      </trkpt>
      <trkpt lat="44.90184" lon="1.30104">
        <ele>151.54</ele>
        <time>2022-08-09T06:36:31Z</time>
      </trkpt>
      <trkpt lat="44.90127" lon="1.29966">
        <ele>146.26</ele>
        <time>2022-08-09T06:36:45Z</time>
      </trkpt>
      <trkpt lat="44.90055" lon="1.29814">
        <ele>138.09</ele>
        <time>2022-08-09T06:36:57Z</time>
      </trkpt>
      <trkpt lat="44.90001" lon="1.29688">
        <ele>135.2</ele>
        <time>2022-08-09T06:37:08Z</time>
      </trkpt>
      <trkpt lat="44.89995" lon="1.29681">
        <ele>135.2</ele>
        <time>2022-08-09T06:37:09Z</time>
      </trkpt>
      <trkpt lat="44.89988" lon="1.29675">
        <ele>135.2</ele>
        <time>2022-08-09T06:37:10Z</time>
      </trkpt>
      <trkpt lat="44.89965" lon="1.29655">
        <ele>135.2</ele>
        <time>2022-08-09T06:37:14Z</time>
      </trkpt>
      <trkpt lat="44.89961" lon="1.29649">
        <ele>135.68</ele>
        <time>2022-08-09T06:37:15Z</time>
      </trkpt>
      <trkpt lat="44.89958" lon="1.29642">
        <ele>135.68</ele>
        <time>2022-08-09T06:37:16Z</time>
      </trkpt>
      <trkpt lat="44.89956" lon="1.29635">
        <ele>135.68</ele>
        <time>2022-08-09T06:37:17Z</time>
      </trkpt>
      <trkpt lat="44.89955" lon="1.29629">
        <ele>135.68</ele>
        <time>2022-08-09T06:37:18Z</time>
      </trkpt>
      <trkpt lat="44.89938" lon="1.29528">
        <ele>134.24</ele>
        <time>2022-08-09T06:37:32Z</time>
      </trkpt>
      <trkpt lat="44.89936" lon="1.29506">
        <ele>133.76</ele>
        <time>2022-08-09T06:37:35Z</time>
      </trkpt>
      <trkpt lat="44.89937" lon="1.29499">
        <ele>133.28</ele>
        <time>2022-08-09T06:37:36Z</time>
      </trkpt>
      <trkpt lat="44.89946" lon="1.29458">
        <ele>132.8</ele>
        <time>2022-08-09T06:37:42Z</time>
      </trkpt>
      <trkpt lat="44.89948" lon="1.29451">
        <ele>132.32</ele>
        <time>2022-08-09T06:37:43Z</time>
      </trkpt>
      <trkpt lat="44.89975" lon="1.29331">
        <ele>127.03</ele>
        <time>2022-08-09T06:37:55Z</time>
      </trkpt>
      <trkpt lat="44.90001" lon="1.29191">
        <ele>126.07</ele>
        <time>2022-08-09T06:38:09Z</time>
      </trkpt>
      <trkpt lat="44.90019" lon="1.29085">
        <ele>127.99</ele>
        <time>2022-08-09T06:38:24Z</time>
      </trkpt>
      <trkpt lat="44.90022" lon="1.29072">
        <ele>127.99</ele>
        <time>2022-08-09T06:38:26Z</time>
      </trkpt>
      <trkpt lat="44.90039" lon="1.2901">
        <ele>132.32</ele>
        <time>2022-08-09T06:38:39Z</time>
      </trkpt>
      <trkpt lat="44.90067" lon="1.2897">
        <ele>133.28</ele>
        <time>2022-08-09T06:38:51Z</time>
      </trkpt>
      <trkpt lat="44.90092" lon="1.28935">
        <ele>132.8</ele>
        <time>2022-08-09T06:39:01Z</time>
      </trkpt>
      <trkpt lat="44.90096" lon="1.28931">
        <ele>132.32</ele>
        <time>2022-08-09T06:39:02Z</time>
      </trkpt>
      <trkpt lat="44.901" lon="1.28928">
        <ele>131.84</ele>
        <time>2022-08-09T06:39:03Z</time>
      </trkpt>
      <trkpt lat="44.90106" lon="1.28925">
        <ele>130.88</ele>
        <time>2022-08-09T06:39:04Z</time>
      </trkpt>
      <trkpt lat="44.90111" lon="1.28923">
        <ele>130.4</ele>
        <time>2022-08-09T06:39:05Z</time>
      </trkpt>
      <trkpt lat="44.90117" lon="1.2892">
        <ele>129.43</ele>
        <time>2022-08-09T06:39:06Z</time>
      </trkpt>
      <trkpt lat="44.90137" lon="1.28912">
        <ele>127.51</ele>
        <time>2022-08-09T06:39:09Z</time>
      </trkpt>
      <trkpt lat="44.90145" lon="1.28906">
        <ele>126.55</ele>
        <time>2022-08-09T06:39:10Z</time>
      </trkpt>
      <trkpt lat="44.90152" lon="1.28899">
        <ele>125.59</ele>
        <time>2022-08-09T06:39:11Z</time>
      </trkpt>
      <trkpt lat="44.9016" lon="1.28891">
        <ele>124.63</ele>
        <time>2022-08-09T06:39:12Z</time>
      </trkpt>
      <trkpt lat="44.90166" lon="1.28883">
        <ele>124.15</ele>
        <time>2022-08-09T06:39:13Z</time>
      </trkpt>
      <trkpt lat="44.90222" lon="1.28835">
        <ele>117.9</ele>
        <time>2022-08-09T06:39:21Z</time>
      </trkpt>
      <trkpt lat="44.9023" lon="1.28833">
        <ele>116.94</ele>
        <time>2022-08-09T06:39:22Z</time>
      </trkpt>
      <trkpt lat="44.90238" lon="1.28833">
        <ele>115.98</ele>
        <time>2022-08-09T06:39:23Z</time>
      </trkpt>
      <trkpt lat="44.90246" lon="1.28835">
        <ele>115.01</ele>
        <time>2022-08-09T06:39:24Z</time>
      </trkpt>
      <trkpt lat="44.90253" lon="1.28839">
        <ele>114.53</ele>
        <time>2022-08-09T06:39:25Z</time>
      </trkpt>
      <trkpt lat="44.9026" lon="1.28845">
        <ele>113.57</ele>
        <time>2022-08-09T06:39:26Z</time>
      </trkpt>
      <trkpt lat="44.90266" lon="1.28851">
        <ele>113.09</ele>
        <time>2022-08-09T06:39:27Z</time>
      </trkpt>
      <trkpt lat="44.90277" lon="1.28864">
        <ele>111.65</ele>
        <time>2022-08-09T06:39:29Z</time>
      </trkpt>
      <trkpt lat="44.90283" lon="1.28867">
        <ele>111.17</ele>
        <time>2022-08-09T06:39:30Z</time>
      </trkpt>
      <trkpt lat="44.90288" lon="1.28868">
        <ele>110.21</ele>
        <time>2022-08-09T06:39:31Z</time>
      </trkpt>
      <trkpt lat="44.90294" lon="1.28867">
        <ele>109.73</ele>
        <time>2022-08-09T06:39:32Z</time>
      </trkpt>
      <trkpt lat="44.903" lon="1.28863">
        <ele>109.25</ele>
        <time>2022-08-09T06:39:33Z</time>
      </trkpt>
      <trkpt lat="44.90306" lon="1.28859">
        <ele>108.77</ele>
        <time>2022-08-09T06:39:34Z</time>
      </trkpt>
      <trkpt lat="44.90311" lon="1.28853">
        <ele>108.29</ele>
        <time>2022-08-09T06:39:35Z</time>
      </trkpt>
      <trkpt lat="44.90316" lon="1.28847">
        <ele>108.29</ele>
        <time>2022-08-09T06:39:36Z</time>
      </trkpt>
      <trkpt lat="44.90341" lon="1.28818">
        <ele>107.81</ele>
        <time>2022-08-09T06:39:41Z</time>
      </trkpt>
      <trkpt lat="44.90371" lon="1.28774">
        <ele>108.29</ele>
        <time>2022-08-09T06:39:49Z</time>
      </trkpt>
      <trkpt lat="44.90396" lon="1.28748">
        <ele>109.73</ele>
        <time>2022-08-09T06:39:57Z</time>
      </trkpt>
      <trkpt lat="44.90399" lon="1.28748">
        <ele>109.73</ele>
        <time>2022-08-09T06:39:58Z</time>
      </trkpt>
      <trkpt lat="44.90424" lon="1.28744">
        <ele>112.13</ele>
        <time>2022-08-09T06:40:10Z</time>
      </trkpt>
      <trkpt lat="44.90432" lon="1.28722">
        <ele>112.13</ele>
        <time>2022-08-09T06:40:15Z</time>
      </trkpt>
      <trkpt lat="44.90434" lon="1.28717">
        <ele>112.13</ele>
        <time>2022-08-09T06:40:16Z</time>
      </trkpt>
      <trkpt lat="44.90437" lon="1.28711">
        <ele>111.65</ele>
        <time>2022-08-09T06:40:17Z</time>
      </trkpt>
      <trkpt lat="44.9044" lon="1.28706">
        <ele>111.65</ele>
        <time>2022-08-09T06:40:18Z</time>
      </trkpt>
      <trkpt lat="44.90443" lon="1.28701">
        <ele>111.65</ele>
        <time>2022-08-09T06:40:19Z</time>
      </trkpt>
      <trkpt lat="44.90476" lon="1.28653">
        <ele>110.21</ele>
        <time>2022-08-09T06:40:28Z</time>
      </trkpt>
      <trkpt lat="44.90478" lon="1.28648">
        <ele>110.21</ele>
        <time>2022-08-09T06:40:29Z</time>
      </trkpt>
      <trkpt lat="44.90486" lon="1.28628">
        <ele>110.21</ele>
        <time>2022-08-09T06:40:32Z</time>
      </trkpt>
      <trkpt lat="44.90487" lon="1.28621">
        <ele>110.21</ele>
        <time>2022-08-09T06:40:33Z</time>
      </trkpt>
      <trkpt lat="44.90513" lon="1.2848">
        <ele>111.65</ele>
        <time>2022-08-09T06:40:51Z</time>
      </trkpt>
      <trkpt lat="44.90539" lon="1.28321">
        <ele>112.61</ele>
        <time>2022-08-09T06:41:12Z</time>
      </trkpt>
      <trkpt lat="44.90556" lon="1.2822">
        <ele>116.94</ele>
        <time>2022-08-09T06:41:29Z</time>
      </trkpt>
      <trkpt lat="44.90547" lon="1.28134">
        <ele>119.34</ele>
        <time>2022-08-09T06:41:45Z</time>
      </trkpt>
      <trkpt lat="44.90528" lon="1.28056">
        <ele>121.26</ele>
        <time>2022-08-09T06:42:00Z</time>
      </trkpt>
      <trkpt lat="44.90509" lon="1.27977">
        <ele>124.63</ele>
        <time>2022-08-09T06:42:15Z</time>
      </trkpt>
      <trkpt lat="44.90505" lon="1.27962">
        <ele>125.11</ele>
        <time>2022-08-09T06:42:18Z</time>
      </trkpt>
      <trkpt lat="44.90479" lon="1.27885">
        <ele>128.95</ele>
        <time>2022-08-09T06:42:34Z</time>
      </trkpt>
      <trkpt lat="44.90442" lon="1.27797">
        <ele>132.32</ele>
        <time>2022-08-09T06:42:53Z</time>
      </trkpt>
      <trkpt lat="44.9041" lon="1.27718">
        <ele>134.24</ele>
        <time>2022-08-09T06:43:11Z</time>
      </trkpt>
      <trkpt lat="44.90384" lon="1.27656">
        <ele>135.2</ele>
        <time>2022-08-09T06:43:25Z</time>
      </trkpt>
      <trkpt lat="44.90356" lon="1.27592">
        <ele>140.01</ele>
        <time>2022-08-09T06:43:41Z</time>
      </trkpt>
      <trkpt lat="44.90327" lon="1.27545">
        <ele>142.41</ele>
        <time>2022-08-09T06:43:54Z</time>
      </trkpt>
      <trkpt lat="44.90284" lon="1.27504">
        <ele>145.78</ele>
        <time>2022-08-09T06:44:08Z</time>
      </trkpt>
      <trkpt lat="44.90238" lon="1.27461">
        <ele>146.74</ele>
        <time>2022-08-09T06:44:22Z</time>
      </trkpt>
      <trkpt lat="44.90189" lon="1.27404">
        <ele>146.26</ele>
        <time>2022-08-09T06:44:38Z</time>
      </trkpt>
      <trkpt lat="44.9015" lon="1.27347">
        <ele>148.66</ele>
        <time>2022-08-09T06:44:52Z</time>
      </trkpt>
      <trkpt lat="44.90105" lon="1.27281">
        <ele>152.99</ele>
        <time>2022-08-09T06:45:09Z</time>
      </trkpt>
      <trkpt lat="44.90062" lon="1.27213">
        <ele>154.43</ele>
        <time>2022-08-09T06:45:25Z</time>
      </trkpt>
      <trkpt lat="44.90031" lon="1.27156">
        <ele>152.03</ele>
        <time>2022-08-09T06:45:38Z</time>
      </trkpt>
      <trkpt lat="44.90013" lon="1.27084">
        <ele>152.51</ele>
        <time>2022-08-09T06:45:52Z</time>
      </trkpt>
      <trkpt lat="44.8998" lon="1.27025">
        <ele>152.51</ele>
        <time>2022-08-09T06:46:04Z</time>
      </trkpt>
      <trkpt lat="44.89931" lon="1.26947">
        <ele>153.47</ele>
        <time>2022-08-09T06:46:20Z</time>
      </trkpt>
      <trkpt lat="44.8989" lon="1.26867">
        <ele>155.87</ele>
        <time>2022-08-09T06:46:35Z</time>
      </trkpt>
      <trkpt lat="44.89885" lon="1.2685">
        <ele>156.35</ele>
        <time>2022-08-09T06:46:38Z</time>
      </trkpt>
      <trkpt lat="44.89866" lon="1.26755">
        <ele>159.24</ele>
        <time>2022-08-09T06:46:57Z</time>
      </trkpt>
      <trkpt lat="44.89844" lon="1.26696">
        <ele>161.64</ele>
        <time>2022-08-09T06:47:12Z</time>
      </trkpt>
      <trkpt lat="44.8981" lon="1.26643">
        <ele>165</ele>
        <time>2022-08-09T06:47:29Z</time>
      </trkpt>
      <trkpt lat="44.89775" lon="1.2662">
        <ele>168.85</ele>
        <time>2022-08-09T06:47:43Z</time>
      </trkpt>
      <trkpt lat="44.89768" lon="1.26571">
        <ele>173.17</ele>
        <time>2022-08-09T06:47:56Z</time>
      </trkpt>
      <trkpt lat="44.89759" lon="1.26526">
        <ele>175.58</ele>
        <time>2022-08-09T06:48:09Z</time>
      </trkpt>
      <trkpt lat="44.89749" lon="1.26486">
        <ele>177.98</ele>
        <time>2022-08-09T06:48:22Z</time>
      </trkpt>
      <trkpt lat="44.8974" lon="1.26449">
        <ele>178.94</ele>
        <time>2022-08-09T06:48:34Z</time>
      </trkpt>
      <trkpt lat="44.89726" lon="1.26415">
        <ele>183.27</ele>
        <time>2022-08-09T06:48:46Z</time>
      </trkpt>
      <trkpt lat="44.897" lon="1.26383">
        <ele>185.19</ele>
        <time>2022-08-09T06:49:00Z</time>
      </trkpt>
      <trkpt lat="44.89665" lon="1.26355">
        <ele>188.08</ele>
        <time>2022-08-09T06:49:15Z</time>
      </trkpt>
      <trkpt lat="44.89624" lon="1.26326">
        <ele>192.4</ele>
        <time>2022-08-09T06:49:32Z</time>
      </trkpt>
      <trkpt lat="44.89585" lon="1.26304">
        <ele>194.8</ele>
        <time>2022-08-09T06:49:48Z</time>
      </trkpt>
      <trkpt lat="44.89551" lon="1.26277">
        <ele>196.73</ele>
        <time>2022-08-09T06:50:04Z</time>
      </trkpt>
      <trkpt lat="44.89522" lon="1.26261">
        <ele>198.17</ele>
        <time>2022-08-09T06:50:17Z</time>
      </trkpt>
      <trkpt lat="44.89482" lon="1.26238">
        <ele>199.13</ele>
        <time>2022-08-09T06:50:33Z</time>
      </trkpt>
      <trkpt lat="44.89455" lon="1.26195">
        <ele>202.01</ele>
        <time>2022-08-09T06:50:49Z</time>
      </trkpt>
      <trkpt lat="44.89425" lon="1.26173">
        <ele>202.49</ele>
        <time>2022-08-09T06:51:03Z</time>
      </trkpt>
      <trkpt lat="44.89382" lon="1.26177">
        <ele>203.46</ele>
        <time>2022-08-09T06:51:20Z</time>
      </trkpt>
      <trkpt lat="44.89345" lon="1.26174">
        <ele>206.82</ele>
        <time>2022-08-09T06:51:35Z</time>
      </trkpt>
      <trkpt lat="44.89309" lon="1.26159">
        <ele>209.7</ele>
        <time>2022-08-09T06:51:50Z</time>
      </trkpt>
      <trkpt lat="44.8927" lon="1.2613">
        <ele>213.07</ele>
        <time>2022-08-09T06:52:07Z</time>
      </trkpt>
      <trkpt lat="44.89268" lon="1.26084">
        <ele>214.99</ele>
        <time>2022-08-09T06:52:20Z</time>
      </trkpt>
      <trkpt lat="44.89295" lon="1.26044">
        <ele>215.95</ele>
        <time>2022-08-09T06:52:36Z</time>
      </trkpt>
      <trkpt lat="44.89302" lon="1.25992">
        <ele>218.36</ele>
        <time>2022-08-09T06:52:51Z</time>
      </trkpt>
      <trkpt lat="44.89306" lon="1.25982">
        <ele>218.36</ele>
        <time>2022-08-09T06:52:54Z</time>
      </trkpt>
      <trkpt lat="44.89308" lon="1.2598">
        <ele>218.36</ele>
        <time>2022-08-09T06:52:55Z</time>
      </trkpt>
      <trkpt lat="44.8931" lon="1.25978">
        <ele>218.36</ele>
        <time>2022-08-09T06:52:56Z</time>
      </trkpt>
      <trkpt lat="44.89312" lon="1.25976">
        <ele>218.84</ele>
        <time>2022-08-09T06:52:57Z</time>
      </trkpt>
      <trkpt lat="44.89314" lon="1.25974">
        <ele>219.32</ele>
        <time>2022-08-09T06:52:58Z</time>
      </trkpt>
      <trkpt lat="44.89353" lon="1.25966">
        <ele>220.76</ele>
        <time>2022-08-09T06:53:13Z</time>
      </trkpt>
      <trkpt lat="44.89376" lon="1.25932">
        <ele>223.16</ele>
        <time>2022-08-09T06:53:26Z</time>
      </trkpt>
      <trkpt lat="44.89383" lon="1.25873">
        <ele>224.61</ele>
        <time>2022-08-09T06:53:42Z</time>
      </trkpt>
      <trkpt lat="44.89381" lon="1.25822">
        <ele>227.49</ele>
        <time>2022-08-09T06:53:56Z</time>
      </trkpt>
      <trkpt lat="44.8937" lon="1.25774">
        <ele>231.81</ele>
        <time>2022-08-09T06:54:09Z</time>
      </trkpt>
      <trkpt lat="44.89353" lon="1.25732">
        <ele>235.66</ele>
        <time>2022-08-09T06:54:21Z</time>
      </trkpt>
      <trkpt lat="44.89352" lon="1.25682">
        <ele>234.7</ele>
        <time>2022-08-09T06:54:34Z</time>
      </trkpt>
      <trkpt lat="44.89389" lon="1.25665">
        <ele>235.66</ele>
        <time>2022-08-09T06:54:48Z</time>
      </trkpt>
      <trkpt lat="44.8944" lon="1.25667">
        <ele>236.14</ele>
        <time>2022-08-09T06:55:04Z</time>
      </trkpt>
      <trkpt lat="44.89465" lon="1.25631">
        <ele>236.62</ele>
        <time>2022-08-09T06:55:16Z</time>
      </trkpt>
      <trkpt lat="44.89462" lon="1.25561">
        <ele>238.54</ele>
        <time>2022-08-09T06:55:30Z</time>
      </trkpt>
      <trkpt lat="44.89474" lon="1.25445">
        <ele>239.99</ele>
        <time>2022-08-09T06:55:49Z</time>
      </trkpt>
      <trkpt lat="44.89491" lon="1.25323">
        <ele>239.99</ele>
        <time>2022-08-09T06:56:09Z</time>
      </trkpt>
      <trkpt lat="44.8949" lon="1.25191">
        <ele>240.95</ele>
        <time>2022-08-09T06:56:28Z</time>
      </trkpt>
      <trkpt lat="44.89487" lon="1.25023">
        <ele>241.43</ele>
        <time>2022-08-09T06:56:50Z</time>
      </trkpt>
      <trkpt lat="44.89485" lon="1.24863">
        <ele>241.43</ele>
        <time>2022-08-09T06:57:11Z</time>
      </trkpt>
      <trkpt lat="44.89488" lon="1.24726">
        <ele>242.39</ele>
        <time>2022-08-09T06:57:30Z</time>
      </trkpt>
      <trkpt lat="44.89519" lon="1.24599">
        <ele>244.79</ele>
        <time>2022-08-09T06:57:50Z</time>
      </trkpt>
      <trkpt lat="44.89575" lon="1.24488">
        <ele>244.31</ele>
        <time>2022-08-09T06:58:09Z</time>
      </trkpt>
      <trkpt lat="44.8959" lon="1.24466">
        <ele>243.83</ele>
        <time>2022-08-09T06:58:13Z</time>
      </trkpt>
      <trkpt lat="44.89615" lon="1.24438">
        <ele>243.35</ele>
        <time>2022-08-09T06:58:19Z</time>
      </trkpt>
      <trkpt lat="44.89619" lon="1.24435">
        <ele>243.35</ele>
        <time>2022-08-09T06:58:20Z</time>
      </trkpt>
      <trkpt lat="44.89695" lon="1.244">
        <ele>241.91</ele>
        <time>2022-08-09T06:58:34Z</time>
      </trkpt>
      <trkpt lat="44.89801" lon="1.24363">
        <ele>239.99</ele>
        <time>2022-08-09T06:58:51Z</time>
      </trkpt>
      <trkpt lat="44.89887" lon="1.24279">
        <ele>239.02</ele>
        <time>2022-08-09T06:59:06Z</time>
      </trkpt>
      <trkpt lat="44.89997" lon="1.24149">
        <ele>236.62</ele>
        <time>2022-08-09T06:59:26Z</time>
      </trkpt>
      <trkpt lat="44.90055" lon="1.24058">
        <ele>236.62</ele>
        <time>2022-08-09T06:59:41Z</time>
      </trkpt>
      <trkpt lat="44.90077" lon="1.23972">
        <ele>240.47</ele>
        <time>2022-08-09T06:59:56Z</time>
      </trkpt>
      <trkpt lat="44.90087" lon="1.23903">
        <ele>243.35</ele>
        <time>2022-08-09T07:00:10Z</time>
      </trkpt>
      <trkpt lat="44.90087" lon="1.23829">
        <ele>243.83</ele>
        <time>2022-08-09T07:00:25Z</time>
      </trkpt>
      <trkpt lat="44.90067" lon="1.23764">
        <ele>248.64</ele>
        <time>2022-08-09T07:00:40Z</time>
      </trkpt>
      <trkpt lat="44.9005" lon="1.23693">
        <ele>254.89</ele>
        <time>2022-08-09T07:00:56Z</time>
      </trkpt>
      <trkpt lat="44.90047" lon="1.23635">
        <ele>258.73</ele>
        <time>2022-08-09T07:01:09Z</time>
      </trkpt>
      <trkpt lat="44.9006" lon="1.23567">
        <ele>256.33</ele>
        <time>2022-08-09T07:01:23Z</time>
      </trkpt>
      <trkpt lat="44.90061" lon="1.23502">
        <ele>258.73</ele>
        <time>2022-08-09T07:01:38Z</time>
      </trkpt>
      <trkpt lat="44.90033" lon="1.23439">
        <ele>262.1</ele>
        <time>2022-08-09T07:01:55Z</time>
      </trkpt>
      <trkpt lat="44.90036" lon="1.23374">
        <ele>264.02</ele>
        <time>2022-08-09T07:02:10Z</time>
      </trkpt>
      <trkpt lat="44.90071" lon="1.2331">
        <ele>264.98</ele>
        <time>2022-08-09T07:02:27Z</time>
      </trkpt>
      <trkpt lat="44.90088" lon="1.23244">
        <ele>266.42</ele>
        <time>2022-08-09T07:02:43Z</time>
      </trkpt>
      <trkpt lat="44.90077" lon="1.23221">
        <ele>266.42</ele>
        <time>2022-08-09T07:02:48Z</time>
      </trkpt>
      <trkpt lat="44.90072" lon="1.23217">
        <ele>266.42</ele>
        <time>2022-08-09T07:02:49Z</time>
      </trkpt>
      <trkpt lat="44.90067" lon="1.23215">
        <ele>266.42</ele>
        <time>2022-08-09T07:02:50Z</time>
      </trkpt>
      <trkpt lat="44.90062" lon="1.23214">
        <ele>266.42</ele>
        <time>2022-08-09T07:02:51Z</time>
      </trkpt>
      <trkpt lat="44.90058" lon="1.23214">
        <ele>265.94</ele>
        <time>2022-08-09T07:02:52Z</time>
      </trkpt>
      <trkpt lat="44.90053" lon="1.23214">
        <ele>265.94</ele>
        <time>2022-08-09T07:02:53Z</time>
      </trkpt>
      <trkpt lat="44.90049" lon="1.23214">
        <ele>265.94</ele>
        <time>2022-08-09T07:02:54Z</time>
      </trkpt>
      <trkpt lat="44.90046" lon="1.23213">
        <ele>265.46</ele>
        <time>2022-08-09T07:02:55Z</time>
      </trkpt>
      <trkpt lat="44.90043" lon="1.2321">
        <ele>265.46</ele>
        <time>2022-08-09T07:02:56Z</time>
      </trkpt>
      <trkpt lat="44.90042" lon="1.23203">
        <ele>264.98</ele>
        <time>2022-08-09T07:02:57Z</time>
      </trkpt>
      <trkpt lat="44.90044" lon="1.23199">
        <ele>264.5</ele>
        <time>2022-08-09T07:02:58Z</time>
      </trkpt>
      <trkpt lat="44.90047" lon="1.23193">
        <ele>264.5</ele>
        <time>2022-08-09T07:02:59Z</time>
      </trkpt>
      <trkpt lat="44.90051" lon="1.23188">
        <ele>264.02</ele>
        <time>2022-08-09T07:03:00Z</time>
      </trkpt>
      <trkpt lat="44.90111" lon="1.23108">
        <ele>258.73</ele>
        <time>2022-08-09T07:03:11Z</time>
      </trkpt>
      <trkpt lat="44.90116" lon="1.23099">
        <ele>258.73</ele>
        <time>2022-08-09T07:03:12Z</time>
      </trkpt>
      <trkpt lat="44.9012" lon="1.23088">
        <ele>258.73</ele>
        <time>2022-08-09T07:03:13Z</time>
      </trkpt>
      <trkpt lat="44.90123" lon="1.23076">
        <ele>258.73</ele>
        <time>2022-08-09T07:03:14Z</time>
      </trkpt>
      <trkpt lat="44.90126" lon="1.23063">
        <ele>258.73</ele>
        <time>2022-08-09T07:03:15Z</time>
      </trkpt>
      <trkpt lat="44.9013" lon="1.23024">
        <ele>258.25</ele>
        <time>2022-08-09T07:03:18Z</time>
      </trkpt>
      <trkpt lat="44.90128" lon="1.23011">
        <ele>258.25</ele>
        <time>2022-08-09T07:03:19Z</time>
      </trkpt>
      <trkpt lat="44.90124" lon="1.22997">
        <ele>258.25</ele>
        <time>2022-08-09T07:03:20Z</time>
      </trkpt>
      <trkpt lat="44.90117" lon="1.22982">
        <ele>257.77</ele>
        <time>2022-08-09T07:03:21Z</time>
      </trkpt>
      <trkpt lat="44.90109" lon="1.22967">
        <ele>256.81</ele>
        <time>2022-08-09T07:03:22Z</time>
      </trkpt>
      <trkpt lat="44.901" lon="1.22953">
        <ele>255.85</ele>
        <time>2022-08-09T07:03:23Z</time>
      </trkpt>
      <trkpt lat="44.90028" lon="1.22835">
        <ele>247.68</ele>
        <time>2022-08-09T07:03:30Z</time>
      </trkpt>
      <trkpt lat="44.89952" lon="1.22704">
        <ele>244.31</ele>
        <time>2022-08-09T07:03:38Z</time>
      </trkpt>
      <trkpt lat="44.89934" lon="1.22672">
        <ele>239.99</ele>
        <time>2022-08-09T07:03:41Z</time>
      </trkpt>
      <trkpt lat="44.89927" lon="1.22663">
        <ele>238.54</ele>
        <time>2022-08-09T07:03:42Z</time>
      </trkpt>
      <trkpt lat="44.89918" lon="1.22656">
        <ele>237.1</ele>
        <time>2022-08-09T07:03:43Z</time>
      </trkpt>
      <trkpt lat="44.89908" lon="1.2265">
        <ele>235.18</ele>
        <time>2022-08-09T07:03:44Z</time>
      </trkpt>
      <trkpt lat="44.89896" lon="1.22644">
        <ele>233.26</ele>
        <time>2022-08-09T07:03:45Z</time>
      </trkpt>
      <trkpt lat="44.89822" lon="1.22604">
        <ele>214.51</ele>
        <time>2022-08-09T07:03:53Z</time>
      </trkpt>
      <trkpt lat="44.89818" lon="1.22598">
        <ele>213.55</ele>
        <time>2022-08-09T07:03:54Z</time>
      </trkpt>
      <trkpt lat="44.89815" lon="1.22589">
        <ele>212.59</ele>
        <time>2022-08-09T07:03:55Z</time>
      </trkpt>
      <trkpt lat="44.89813" lon="1.22579">
        <ele>212.11</ele>
        <time>2022-08-09T07:03:56Z</time>
      </trkpt>
      <trkpt lat="44.89813" lon="1.22569">
        <ele>211.63</ele>
        <time>2022-08-09T07:03:57Z</time>
      </trkpt>
      <trkpt lat="44.89812" lon="1.22559">
        <ele>210.67</ele>
        <time>2022-08-09T07:03:58Z</time>
      </trkpt>
      <trkpt lat="44.89812" lon="1.22547">
        <ele>210.19</ele>
        <time>2022-08-09T07:03:59Z</time>
      </trkpt>
      <trkpt lat="44.89804" lon="1.22393">
        <ele>199.13</ele>
        <time>2022-08-09T07:04:10Z</time>
      </trkpt>
      <trkpt lat="44.89807" lon="1.22209">
        <ele>186.15</ele>
        <time>2022-08-09T07:04:21Z</time>
      </trkpt>
      <trkpt lat="44.89811" lon="1.22192">
        <ele>184.71</ele>
        <time>2022-08-09T07:04:22Z</time>
      </trkpt>
      <trkpt lat="44.89815" lon="1.22176">
        <ele>183.75</ele>
        <time>2022-08-09T07:04:23Z</time>
      </trkpt>
      <trkpt lat="44.89835" lon="1.22096">
        <ele>179.42</ele>
        <time>2022-08-09T07:04:29Z</time>
      </trkpt>
      <trkpt lat="44.89839" lon="1.22085">
        <ele>178.94</ele>
        <time>2022-08-09T07:04:30Z</time>
      </trkpt>
      <trkpt lat="44.89844" lon="1.22075">
        <ele>177.98</ele>
        <time>2022-08-09T07:04:31Z</time>
      </trkpt>
      <trkpt lat="44.89865" lon="1.22032">
        <ele>174.14</ele>
        <time>2022-08-09T07:04:36Z</time>
      </trkpt>
      <trkpt lat="44.89869" lon="1.22026">
        <ele>173.17</ele>
        <time>2022-08-09T07:04:37Z</time>
      </trkpt>
      <trkpt lat="44.89874" lon="1.22022">
        <ele>172.69</ele>
        <time>2022-08-09T07:04:38Z</time>
      </trkpt>
      <trkpt lat="44.89886" lon="1.22002">
        <ele>169.33</ele>
        <time>2022-08-09T07:04:44Z</time>
      </trkpt>
      <trkpt lat="44.89885" lon="1.21998">
        <ele>168.85</ele>
        <time>2022-08-09T07:04:45Z</time>
      </trkpt>
      <trkpt lat="44.89884" lon="1.21995">
        <ele>168.85</ele>
        <time>2022-08-09T07:04:46Z</time>
      </trkpt>
      <trkpt lat="44.89878" lon="1.21985">
        <ele>168.37</ele>
        <time>2022-08-09T07:04:48Z</time>
      </trkpt>
      <trkpt lat="44.89875" lon="1.21979">
        <ele>167.89</ele>
        <time>2022-08-09T07:04:49Z</time>
      </trkpt>
      <trkpt lat="44.89836" lon="1.21875">
        <ele>165.48</ele>
        <time>2022-08-09T07:05:03Z</time>
      </trkpt>
      <trkpt lat="44.89814" lon="1.21766">
        <ele>162.6</ele>
        <time>2022-08-09T07:05:15Z</time>
      </trkpt>
      <trkpt lat="44.89811" lon="1.21757">
        <ele>162.12</ele>
        <time>2022-08-09T07:05:16Z</time>
      </trkpt>
      <trkpt lat="44.89808" lon="1.21749">
        <ele>162.12</ele>
        <time>2022-08-09T07:05:17Z</time>
      </trkpt>
      <trkpt lat="44.89804" lon="1.21741">
        <ele>162.12</ele>
        <time>2022-08-09T07:05:18Z</time>
      </trkpt>
      <trkpt lat="44.898" lon="1.21734">
        <ele>161.64</ele>
        <time>2022-08-09T07:05:19Z</time>
      </trkpt>
      <trkpt lat="44.89782" lon="1.21695">
        <ele>161.16</ele>
        <time>2022-08-09T07:05:24Z</time>
      </trkpt>
      <trkpt lat="44.89779" lon="1.21686">
        <ele>160.68</ele>
        <time>2022-08-09T07:05:25Z</time>
      </trkpt>
      <trkpt lat="44.89778" lon="1.21676">
        <ele>161.16</ele>
        <time>2022-08-09T07:05:26Z</time>
      </trkpt>
      <trkpt lat="44.89776" lon="1.21667">
        <ele>161.16</ele>
        <time>2022-08-09T07:05:27Z</time>
      </trkpt>
      <trkpt lat="44.89776" lon="1.21658">
        <ele>160.68</ele>
        <time>2022-08-09T07:05:28Z</time>
      </trkpt>
      <trkpt lat="44.89776" lon="1.21648">
        <ele>160.68</ele>
        <time>2022-08-09T07:05:29Z</time>
      </trkpt>
      <trkpt lat="44.89777" lon="1.21639">
        <ele>160.2</ele>
        <time>2022-08-09T07:05:30Z</time>
      </trkpt>
      <trkpt lat="44.89778" lon="1.2163">
        <ele>160.2</ele>
        <time>2022-08-09T07:05:31Z</time>
      </trkpt>
      <trkpt lat="44.8978" lon="1.21621">
        <ele>159.72</ele>
        <time>2022-08-09T07:05:32Z</time>
      </trkpt>
      <trkpt lat="44.89791" lon="1.21579">
        <ele>158.27</ele>
        <time>2022-08-09T07:05:37Z</time>
      </trkpt>
      <trkpt lat="44.89793" lon="1.21571">
        <ele>158.27</ele>
        <time>2022-08-09T07:05:38Z</time>
      </trkpt>
      <trkpt lat="44.89793" lon="1.21562">
        <ele>157.79</ele>
        <time>2022-08-09T07:05:39Z</time>
      </trkpt>
      <trkpt lat="44.89793" lon="1.21553">
        <ele>157.79</ele>
        <time>2022-08-09T07:05:40Z</time>
      </trkpt>
      <trkpt lat="44.89791" lon="1.21545">
        <ele>157.79</ele>
        <time>2022-08-09T07:05:41Z</time>
      </trkpt>
      <trkpt lat="44.89789" lon="1.21536">
        <ele>157.31</ele>
        <time>2022-08-09T07:05:42Z</time>
      </trkpt>
      <trkpt lat="44.89786" lon="1.21527">
        <ele>157.31</ele>
        <time>2022-08-09T07:05:43Z</time>
      </trkpt>
      <trkpt lat="44.89782" lon="1.21518">
        <ele>157.31</ele>
        <time>2022-08-09T07:05:44Z</time>
      </trkpt>
      <trkpt lat="44.89755" lon="1.21469">
        <ele>155.39</ele>
        <time>2022-08-09T07:05:50Z</time>
      </trkpt>
      <trkpt lat="44.89751" lon="1.21463">
        <ele>155.39</ele>
        <time>2022-08-09T07:05:51Z</time>
      </trkpt>
      <trkpt lat="44.89746" lon="1.21459">
        <ele>154.91</ele>
        <time>2022-08-09T07:05:52Z</time>
      </trkpt>
      <trkpt lat="44.8974" lon="1.21455">
        <ele>154.43</ele>
        <time>2022-08-09T07:05:53Z</time>
      </trkpt>
      <trkpt lat="44.89734" lon="1.21453">
        <ele>154.43</ele>
        <time>2022-08-09T07:05:54Z</time>
      </trkpt>
      <trkpt lat="44.89728" lon="1.21452">
        <ele>153.95</ele>
        <time>2022-08-09T07:05:55Z</time>
      </trkpt>
      <trkpt lat="44.89722" lon="1.21452">
        <ele>153.47</ele>
        <time>2022-08-09T07:05:56Z</time>
      </trkpt>
      <trkpt lat="44.89716" lon="1.21451">
        <ele>153.47</ele>
        <time>2022-08-09T07:05:57Z</time>
      </trkpt>
      <trkpt lat="44.89703" lon="1.21453">
        <ele>152.99</ele>
        <time>2022-08-09T07:05:59Z</time>
      </trkpt>
      <trkpt lat="44.89698" lon="1.21455">
        <ele>152.51</ele>
        <time>2022-08-09T07:06:00Z</time>
      </trkpt>
      <trkpt lat="44.89604" lon="1.21484">
        <ele>152.51</ele>
        <time>2022-08-09T07:06:16Z</time>
      </trkpt>
      <trkpt lat="44.89557" lon="1.21495">
        <ele>152.51</ele>
        <time>2022-08-09T07:06:25Z</time>
      </trkpt>
      <trkpt lat="44.89472" lon="1.21537">
        <ele>152.51</ele>
        <time>2022-08-09T07:06:41Z</time>
      </trkpt>
      <trkpt lat="44.89458" lon="1.21545">
        <ele>152.03</ele>
        <time>2022-08-09T07:06:44Z</time>
      </trkpt>
      <trkpt lat="44.89453" lon="1.21546">
        <ele>151.54</ele>
        <time>2022-08-09T07:06:45Z</time>
      </trkpt>
      <trkpt lat="44.89448" lon="1.21546">
        <ele>151.54</ele>
        <time>2022-08-09T07:06:46Z</time>
      </trkpt>
      <trkpt lat="44.89386" lon="1.21542">
        <ele>151.06</ele>
        <time>2022-08-09T07:06:57Z</time>
      </trkpt>
      <trkpt lat="44.89382" lon="1.21539">
        <ele>151.54</ele>
        <time>2022-08-09T07:06:58Z</time>
      </trkpt>
      <trkpt lat="44.89379" lon="1.21536">
        <ele>151.54</ele>
        <time>2022-08-09T07:06:59Z</time>
      </trkpt>
      <trkpt lat="44.89376" lon="1.21533">
        <ele>151.54</ele>
        <time>2022-08-09T07:07:00Z</time>
      </trkpt>
      <trkpt lat="44.89373" lon="1.21532">
        <ele>151.54</ele>
        <time>2022-08-09T07:07:01Z</time>
      </trkpt>
      <trkpt lat="44.89369" lon="1.21534">
        <ele>151.54</ele>
        <time>2022-08-09T07:07:02Z</time>
      </trkpt>
      <trkpt lat="44.89364" lon="1.21536">
        <ele>151.54</ele>
        <time>2022-08-09T07:07:03Z</time>
      </trkpt>
      <trkpt lat="44.89359" lon="1.21538">
        <ele>151.54</ele>
        <time>2022-08-09T07:07:04Z</time>
      </trkpt>
      <trkpt lat="44.89354" lon="1.21538">
        <ele>151.54</ele>
        <time>2022-08-09T07:07:05Z</time>
      </trkpt>
      <trkpt lat="44.89348" lon="1.21538">
        <ele>151.54</ele>
        <time>2022-08-09T07:07:06Z</time>
      </trkpt>
      <trkpt lat="44.89271" lon="1.21533">
        <ele>148.18</ele>
        <time>2022-08-09T07:07:16Z</time>
      </trkpt>
      <trkpt lat="44.8919" lon="1.21522">
        <ele>146.74</ele>
        <time>2022-08-09T07:07:26Z</time>
      </trkpt>
      <trkpt lat="44.89175" lon="1.21516">
        <ele>147.7</ele>
        <time>2022-08-09T07:07:28Z</time>
      </trkpt>
      <trkpt lat="44.89167" lon="1.21513">
        <ele>147.7</ele>
        <time>2022-08-09T07:07:29Z</time>
      </trkpt>
      <trkpt lat="44.89144" lon="1.21504">
        <ele>149.14</ele>
        <time>2022-08-09T07:07:32Z</time>
      </trkpt>
      <trkpt lat="44.89131" lon="1.21503">
        <ele>149.14</ele>
        <time>2022-08-09T07:07:34Z</time>
      </trkpt>
      <trkpt lat="44.89111" lon="1.21493">
        <ele>149.62</ele>
        <time>2022-08-09T07:07:38Z</time>
      </trkpt>
      <trkpt lat="44.89109" lon="1.2149">
        <ele>149.62</ele>
        <time>2022-08-09T07:07:39Z</time>
      </trkpt>
      <trkpt lat="44.89097" lon="1.21473">
        <ele>156.83</ele>
        <time>2022-08-09T07:07:49Z</time>
      </trkpt>
      <trkpt lat="44.89071" lon="1.21456">
        <ele>164.52</ele>
        <time>2022-08-09T07:08:03Z</time>
      </trkpt>
      <trkpt lat="44.89043" lon="1.21445">
        <ele>164.04</ele>
        <time>2022-08-09T07:08:18Z</time>
      </trkpt>
      <trkpt lat="44.89034" lon="1.21439">
        <ele>164.52</ele>
        <time>2022-08-09T07:08:27Z</time>
      </trkpt>
      <trkpt lat="44.89033" lon="1.21437">
        <ele>165</ele>
        <time>2022-08-09T07:08:28Z</time>
      </trkpt>
      <trkpt lat="44.89032" lon="1.21436">
        <ele>165.48</ele>
        <time>2022-08-09T07:08:29Z</time>
      </trkpt>
      <trkpt lat="44.89023" lon="1.21422">
        <ele>165</ele>
        <time>2022-08-09T07:08:41Z</time>
      </trkpt>
      <trkpt lat="44.88982" lon="1.21443">
        <ele>162.12</ele>
        <time>2022-08-09T07:08:50Z</time>
      </trkpt>
      <trkpt lat="44.88939" lon="1.21459">
        <ele>161.16</ele>
        <time>2022-08-09T07:08:57Z</time>
      </trkpt>
      <trkpt lat="44.88934" lon="1.21459">
        <ele>160.68</ele>
        <time>2022-08-09T07:08:58Z</time>
      </trkpt>
      <trkpt lat="44.88928" lon="1.21458">
        <ele>160.68</ele>
        <time>2022-08-09T07:08:59Z</time>
      </trkpt>
      <trkpt lat="44.88921" lon="1.21456">
        <ele>160.68</ele>
        <time>2022-08-09T07:09:00Z</time>
      </trkpt>
      <trkpt lat="44.88915" lon="1.21453">
        <ele>160.2</ele>
        <time>2022-08-09T07:09:01Z</time>
      </trkpt>
      <trkpt lat="44.8891" lon="1.2145">
        <ele>160.2</ele>
        <time>2022-08-09T07:09:02Z</time>
      </trkpt>
      <trkpt lat="44.88871" lon="1.21431">
        <ele>157.31</ele>
        <time>2022-08-09T07:09:09Z</time>
      </trkpt>
      <trkpt lat="44.88864" lon="1.2143">
        <ele>156.83</ele>
        <time>2022-08-09T07:09:10Z</time>
      </trkpt>
      <trkpt lat="44.88856" lon="1.2143">
        <ele>156.35</ele>
        <time>2022-08-09T07:09:11Z</time>
      </trkpt>
      <trkpt lat="44.88849" lon="1.21431">
        <ele>155.39</ele>
        <time>2022-08-09T07:09:12Z</time>
      </trkpt>
      <trkpt lat="44.88841" lon="1.21435">
        <ele>154.91</ele>
        <time>2022-08-09T07:09:13Z</time>
      </trkpt>
      <trkpt lat="44.88835" lon="1.2144">
        <ele>154.43</ele>
        <time>2022-08-09T07:09:14Z</time>
      </trkpt>
      <trkpt lat="44.88828" lon="1.21448">
        <ele>153.47</ele>
        <time>2022-08-09T07:09:15Z</time>
      </trkpt>
      <trkpt lat="44.88823" lon="1.21458">
        <ele>152.99</ele>
        <time>2022-08-09T07:09:16Z</time>
      </trkpt>
      <trkpt lat="44.88818" lon="1.21469">
        <ele>152.03</ele>
        <time>2022-08-09T07:09:17Z</time>
      </trkpt>
      <trkpt lat="44.88781" lon="1.2154">
        <ele>146.74</ele>
        <time>2022-08-09T07:09:24Z</time>
      </trkpt>
      <trkpt lat="44.88726" lon="1.21609">
        <ele>139.53</ele>
        <time>2022-08-09T07:09:33Z</time>
      </trkpt>
      <trkpt lat="44.88721" lon="1.21613">
        <ele>139.05</ele>
        <time>2022-08-09T07:09:34Z</time>
      </trkpt>
      <trkpt lat="44.88715" lon="1.21616">
        <ele>138.57</ele>
        <time>2022-08-09T07:09:35Z</time>
      </trkpt>
      <trkpt lat="44.88709" lon="1.21619">
        <ele>138.09</ele>
        <time>2022-08-09T07:09:36Z</time>
      </trkpt>
      <trkpt lat="44.88705" lon="1.21621">
        <ele>137.61</ele>
        <time>2022-08-09T07:09:37Z</time>
      </trkpt>
      <trkpt lat="44.88699" lon="1.21622">
        <ele>137.13</ele>
        <time>2022-08-09T07:09:38Z</time>
      </trkpt>
      <trkpt lat="44.8864" lon="1.21634">
        <ele>134.24</ele>
        <time>2022-08-09T07:09:50Z</time>
      </trkpt>
      <trkpt lat="44.88585" lon="1.21643">
        <ele>133.76</ele>
        <time>2022-08-09T07:10:00Z</time>
      </trkpt>
      <trkpt lat="44.88514" lon="1.21633">
        <ele>139.05</ele>
        <time>2022-08-09T07:10:14Z</time>
      </trkpt>
      <trkpt lat="44.88441" lon="1.21621">
        <ele>144.34</ele>
        <time>2022-08-09T07:10:29Z</time>
      </trkpt>
      <trkpt lat="44.88377" lon="1.21609">
        <ele>145.78</ele>
        <time>2022-08-09T07:10:44Z</time>
      </trkpt>
      <trkpt lat="44.88342" lon="1.21601">
        <ele>145.3</ele>
        <time>2022-08-09T07:10:54Z</time>
      </trkpt>
      <trkpt lat="44.88333" lon="1.216">
        <ele>144.82</ele>
        <time>2022-08-09T07:10:56Z</time>
      </trkpt>
      <trkpt lat="44.88328" lon="1.21601">
        <ele>144.34</ele>
        <time>2022-08-09T07:10:57Z</time>
      </trkpt>
      <trkpt lat="44.88322" lon="1.216">
        <ele>144.34</ele>
        <time>2022-08-09T07:10:58Z</time>
      </trkpt>
      <trkpt lat="44.88223" lon="1.21582">
        <ele>140.49</ele>
        <time>2022-08-09T07:11:13Z</time>
      </trkpt>
      <trkpt lat="44.88094" lon="1.2156">
        <ele>137.13</ele>
        <time>2022-08-09T07:11:29Z</time>
      </trkpt>
      <trkpt lat="44.88013" lon="1.21566">
        <ele>134.72</ele>
        <time>2022-08-09T07:11:37Z</time>
      </trkpt>
      <trkpt lat="44.87923" lon="1.2162">
        <ele>133.76</ele>
        <time>2022-08-09T07:11:47Z</time>
      </trkpt>
      <trkpt lat="44.87917" lon="1.21622">
        <ele>133.76</ele>
        <time>2022-08-09T07:11:48Z</time>
      </trkpt>
      <trkpt lat="44.87912" lon="1.21623">
        <ele>133.76</ele>
        <time>2022-08-09T07:11:49Z</time>
      </trkpt>
      <trkpt lat="44.87907" lon="1.21622">
        <ele>133.76</ele>
        <time>2022-08-09T07:11:50Z</time>
      </trkpt>
      <trkpt lat="44.87902" lon="1.21621">
        <ele>133.76</ele>
        <time>2022-08-09T07:11:51Z</time>
      </trkpt>
      <trkpt lat="44.87899" lon="1.21619">
        <ele>133.76</ele>
        <time>2022-08-09T07:11:52Z</time>
      </trkpt>
      <trkpt lat="44.87893" lon="1.21615">
        <ele>134.24</ele>
        <time>2022-08-09T07:11:53Z</time>
      </trkpt>
      <trkpt lat="44.87888" lon="1.21611">
        <ele>134.24</ele>
        <time>2022-08-09T07:11:54Z</time>
      </trkpt>
      <trkpt lat="44.87882" lon="1.21609">
        <ele>134.24</ele>
        <time>2022-08-09T07:11:55Z</time>
      </trkpt>
      <trkpt lat="44.87877" lon="1.21611">
        <ele>134.24</ele>
        <time>2022-08-09T07:11:56Z</time>
      </trkpt>
      <trkpt lat="44.87873" lon="1.21615">
        <ele>133.76</ele>
        <time>2022-08-09T07:11:57Z</time>
      </trkpt>
      <trkpt lat="44.8787" lon="1.21621">
        <ele>133.76</ele>
        <time>2022-08-09T07:11:58Z</time>
      </trkpt>
      <trkpt lat="44.87869" lon="1.21627">
        <ele>133.76</ele>
        <time>2022-08-09T07:11:59Z</time>
      </trkpt>
      <trkpt lat="44.87868" lon="1.21632">
        <ele>133.28</ele>
        <time>2022-08-09T07:12:00Z</time>
      </trkpt>
      <trkpt lat="44.87865" lon="1.21647">
        <ele>132.32</ele>
        <time>2022-08-09T07:12:03Z</time>
      </trkpt>
      <trkpt lat="44.87858" lon="1.21672">
        <ele>131.36</ele>
        <time>2022-08-09T07:12:07Z</time>
      </trkpt>
      <trkpt lat="44.87843" lon="1.21704">
        <ele>130.4</ele>
        <time>2022-08-09T07:12:12Z</time>
      </trkpt>
      <trkpt lat="44.87824" lon="1.21729">
        <ele>130.88</ele>
        <time>2022-08-09T07:12:17Z</time>
      </trkpt>
      <trkpt lat="44.8782" lon="1.21732">
        <ele>130.88</ele>
        <time>2022-08-09T07:12:18Z</time>
      </trkpt>
      <trkpt lat="44.87815" lon="1.21734">
        <ele>130.88</ele>
        <time>2022-08-09T07:12:19Z</time>
      </trkpt>
      <trkpt lat="44.8781" lon="1.21735">
        <ele>130.4</ele>
        <time>2022-08-09T07:12:20Z</time>
      </trkpt>
      <trkpt lat="44.87806" lon="1.21735">
        <ele>130.4</ele>
        <time>2022-08-09T07:12:21Z</time>
      </trkpt>
      <trkpt lat="44.87801" lon="1.21733">
        <ele>129.92</ele>
        <time>2022-08-09T07:12:22Z</time>
      </trkpt>
      <trkpt lat="44.87796" lon="1.21732">
        <ele>129.92</ele>
        <time>2022-08-09T07:12:23Z</time>
      </trkpt>
      <trkpt lat="44.87791" lon="1.2173">
        <ele>129.92</ele>
        <time>2022-08-09T07:12:24Z</time>
      </trkpt>
      <trkpt lat="44.87781" lon="1.21725">
        <ele>129.43</ele>
        <time>2022-08-09T07:12:26Z</time>
      </trkpt>
      <trkpt lat="44.87776" lon="1.21723">
        <ele>129.43</ele>
        <time>2022-08-09T07:12:27Z</time>
      </trkpt>
      <trkpt lat="44.87771" lon="1.21723">
        <ele>129.43</ele>
        <time>2022-08-09T07:12:28Z</time>
      </trkpt>
      <trkpt lat="44.87743" lon="1.21719">
        <ele>131.84</ele>
        <time>2022-08-09T07:12:34Z</time>
      </trkpt>
      <trkpt lat="44.87739" lon="1.21716">
        <ele>132.32</ele>
        <time>2022-08-09T07:12:35Z</time>
      </trkpt>
      <trkpt lat="44.87731" lon="1.2171">
        <ele>132.8</ele>
        <time>2022-08-09T07:12:37Z</time>
      </trkpt>
      <trkpt lat="44.87727" lon="1.21708">
        <ele>132.32</ele>
        <time>2022-08-09T07:12:38Z</time>
      </trkpt>
      <trkpt lat="44.87722" lon="1.21707">
        <ele>132.32</ele>
        <time>2022-08-09T07:12:39Z</time>
      </trkpt>
      <trkpt lat="44.87718" lon="1.21708">
        <ele>131.84</ele>
        <time>2022-08-09T07:12:40Z</time>
      </trkpt>
      <trkpt lat="44.87714" lon="1.2171">
        <ele>131.36</ele>
        <time>2022-08-09T07:12:41Z</time>
      </trkpt>
      <trkpt lat="44.8771" lon="1.21713">
        <ele>131.36</ele>
        <time>2022-08-09T07:12:42Z</time>
      </trkpt>
      <trkpt lat="44.87706" lon="1.21717">
        <ele>131.36</ele>
        <time>2022-08-09T07:12:43Z</time>
      </trkpt>
      <trkpt lat="44.87702" lon="1.21721">
        <ele>131.36</ele>
        <time>2022-08-09T07:12:44Z</time>
      </trkpt>
      <trkpt lat="44.87698" lon="1.21723">
        <ele>131.36</ele>
        <time>2022-08-09T07:12:45Z</time>
      </trkpt>
      <trkpt lat="44.87693" lon="1.21724">
        <ele>131.36</ele>
        <time>2022-08-09T07:12:46Z</time>
      </trkpt>
      <trkpt lat="44.87688" lon="1.21724">
        <ele>131.36</ele>
        <time>2022-08-09T07:12:47Z</time>
      </trkpt>
      <trkpt lat="44.87683" lon="1.21723">
        <ele>130.88</ele>
        <time>2022-08-09T07:12:48Z</time>
      </trkpt>
      <trkpt lat="44.87677" lon="1.21722">
        <ele>130.4</ele>
        <time>2022-08-09T07:12:49Z</time>
      </trkpt>
      <trkpt lat="44.87623" lon="1.21717">
        <ele>127.03</ele>
        <time>2022-08-09T07:12:56Z</time>
      </trkpt>
      <trkpt lat="44.87564" lon="1.21698">
        <ele>127.99</ele>
        <time>2022-08-09T07:13:05Z</time>
      </trkpt>
      <trkpt lat="44.87558" lon="1.21698">
        <ele>127.99</ele>
        <time>2022-08-09T07:13:06Z</time>
      </trkpt>
      <trkpt lat="44.87552" lon="1.21699">
        <ele>127.99</ele>
        <time>2022-08-09T07:13:07Z</time>
      </trkpt>
      <trkpt lat="44.87547" lon="1.21701">
        <ele>127.51</ele>
        <time>2022-08-09T07:13:08Z</time>
      </trkpt>
      <trkpt lat="44.87541" lon="1.21703">
        <ele>127.51</ele>
        <time>2022-08-09T07:13:09Z</time>
      </trkpt>
      <trkpt lat="44.8744" lon="1.21735">
        <ele>129.92</ele>
        <time>2022-08-09T07:13:28Z</time>
      </trkpt>
      <trkpt lat="44.87415" lon="1.21743">
        <ele>131.36</ele>
        <time>2022-08-09T07:13:33Z</time>
      </trkpt>
      <trkpt lat="44.87398" lon="1.21752">
        <ele>131.84</ele>
        <time>2022-08-09T07:13:37Z</time>
      </trkpt>
      <trkpt lat="44.87394" lon="1.21756">
        <ele>131.84</ele>
        <time>2022-08-09T07:13:38Z</time>
      </trkpt>
      <trkpt lat="44.87366" lon="1.21778">
        <ele>131.84</ele>
        <time>2022-08-09T07:13:45Z</time>
      </trkpt>
      <trkpt lat="44.87299" lon="1.21812">
        <ele>134.72</ele>
        <time>2022-08-09T07:14:03Z</time>
      </trkpt>
      <trkpt lat="44.87253" lon="1.21847">
        <ele>136.16</ele>
        <time>2022-08-09T07:14:17Z</time>
      </trkpt>
      <trkpt lat="44.87223" lon="1.21928">
        <ele>138.57</ele>
        <time>2022-08-09T07:14:35Z</time>
      </trkpt>
      <trkpt lat="44.87213" lon="1.22006">
        <ele>144.82</ele>
        <time>2022-08-09T07:14:52Z</time>
      </trkpt>
      <trkpt lat="44.87225" lon="1.22054">
        <ele>147.7</ele>
        <time>2022-08-09T07:15:05Z</time>
      </trkpt>
      <trkpt lat="44.87225" lon="1.22121">
        <ele>149.62</ele>
        <time>2022-08-09T07:15:22Z</time>
      </trkpt>
      <trkpt lat="44.87192" lon="1.22187">
        <ele>151.06</ele>
        <time>2022-08-09T07:15:40Z</time>
      </trkpt>
      <trkpt lat="44.87159" lon="1.22249">
        <ele>154.43</ele>
        <time>2022-08-09T07:15:57Z</time>
      </trkpt>
      <trkpt lat="44.87126" lon="1.22318">
        <ele>158.75</ele>
        <time>2022-08-09T07:16:16Z</time>
      </trkpt>
      <trkpt lat="44.87105" lon="1.22361">
        <ele>162.12</ele>
        <time>2022-08-09T07:16:30Z</time>
      </trkpt>
      <trkpt lat="44.87088" lon="1.22404">
        <ele>165.48</ele>
        <time>2022-08-09T07:16:46Z</time>
      </trkpt>
      <trkpt lat="44.87074" lon="1.22439">
        <ele>167.89</ele>
        <time>2022-08-09T07:17:00Z</time>
      </trkpt>
      <trkpt lat="44.87051" lon="1.22469">
        <ele>171.25</ele>
        <time>2022-08-09T07:17:16Z</time>
      </trkpt>
      <trkpt lat="44.87025" lon="1.22491">
        <ele>174.62</ele>
        <time>2022-08-09T07:17:32Z</time>
      </trkpt>
      <trkpt lat="44.87001" lon="1.22514">
        <ele>176.54</ele>
        <time>2022-08-09T07:17:48Z</time>
      </trkpt>
      <trkpt lat="44.86977" lon="1.22537">
        <ele>178.94</ele>
        <time>2022-08-09T07:18:04Z</time>
      </trkpt>
      <trkpt lat="44.86958" lon="1.22555">
        <ele>182.31</ele>
        <time>2022-08-09T07:18:18Z</time>
      </trkpt>
      <trkpt lat="44.86937" lon="1.22577">
        <ele>185.67</ele>
        <time>2022-08-09T07:18:33Z</time>
      </trkpt>
      <trkpt lat="44.8691" lon="1.22602">
        <ele>188.56</ele>
        <time>2022-08-09T07:18:49Z</time>
      </trkpt>
      <trkpt lat="44.86881" lon="1.22631">
        <ele>191.44</ele>
        <time>2022-08-09T07:19:06Z</time>
      </trkpt>
      <trkpt lat="44.86848" lon="1.22666">
        <ele>193.84</ele>
        <time>2022-08-09T07:19:25Z</time>
      </trkpt>
      <trkpt lat="44.86795" lon="1.22712">
        <ele>191.92</ele>
        <time>2022-08-09T07:19:39Z</time>
      </trkpt>
      <trkpt lat="44.86718" lon="1.22779">
        <ele>185.67</ele>
        <time>2022-08-09T07:19:49Z</time>
      </trkpt>
      <trkpt lat="44.86616" lon="1.22886">
        <ele>176.06</ele>
        <time>2022-08-09T07:20:01Z</time>
      </trkpt>
      <trkpt lat="44.86549" lon="1.2295">
        <ele>170.29</ele>
        <time>2022-08-09T07:20:12Z</time>
      </trkpt>
      <trkpt lat="44.86508" lon="1.22971">
        <ele>170.77</ele>
        <time>2022-08-09T07:20:23Z</time>
      </trkpt>
      <trkpt lat="44.8642" lon="1.22991">
        <ele>168.37</ele>
        <time>2022-08-09T07:20:37Z</time>
      </trkpt>
      <trkpt lat="44.86344" lon="1.22993">
        <ele>170.29</ele>
        <time>2022-08-09T07:20:52Z</time>
      </trkpt>
      <trkpt lat="44.86288" lon="1.23004">
        <ele>172.21</ele>
        <time>2022-08-09T07:21:06Z</time>
      </trkpt>
      <trkpt lat="44.86224" lon="1.23029">
        <ele>174.14</ele>
        <time>2022-08-09T07:21:22Z</time>
      </trkpt>
      <trkpt lat="44.86177" lon="1.23047">
        <ele>176.06</ele>
        <time>2022-08-09T07:21:36Z</time>
      </trkpt>
      <trkpt lat="44.86114" lon="1.23088">
        <ele>175.58</ele>
        <time>2022-08-09T07:21:51Z</time>
      </trkpt>
      <trkpt lat="44.86032" lon="1.23151">
        <ele>171.25</ele>
        <time>2022-08-09T07:22:05Z</time>
      </trkpt>
      <trkpt lat="44.86025" lon="1.23161">
        <ele>171.25</ele>
        <time>2022-08-09T07:22:06Z</time>
      </trkpt>
      <trkpt lat="44.8602" lon="1.2317">
        <ele>170.29</ele>
        <time>2022-08-09T07:22:07Z</time>
      </trkpt>
      <trkpt lat="44.86014" lon="1.23181">
        <ele>169.81</ele>
        <time>2022-08-09T07:22:08Z</time>
      </trkpt>
      <trkpt lat="44.86008" lon="1.23192">
        <ele>168.85</ele>
        <time>2022-08-09T07:22:09Z</time>
      </trkpt>
      <trkpt lat="44.86002" lon="1.23203">
        <ele>168.37</ele>
        <time>2022-08-09T07:22:10Z</time>
      </trkpt>
      <trkpt lat="44.85996" lon="1.23213">
        <ele>167.41</ele>
        <time>2022-08-09T07:22:11Z</time>
      </trkpt>
      <trkpt lat="44.85989" lon="1.23222">
        <ele>166.93</ele>
        <time>2022-08-09T07:22:12Z</time>
      </trkpt>
      <trkpt lat="44.85963" lon="1.23256">
        <ele>165.48</ele>
        <time>2022-08-09T07:22:17Z</time>
      </trkpt>
      <trkpt lat="44.85942" lon="1.2328">
        <ele>164.52</ele>
        <time>2022-08-09T07:22:25Z</time>
      </trkpt>
      <trkpt lat="44.85907" lon="1.23364">
        <ele>162.12</ele>
        <time>2022-08-09T07:22:37Z</time>
      </trkpt>
      <trkpt lat="44.85881" lon="1.2341">
        <ele>160.2</ele>
        <time>2022-08-09T07:22:43Z</time>
      </trkpt>
      <trkpt lat="44.85877" lon="1.23419">
        <ele>159.72</ele>
        <time>2022-08-09T07:22:44Z</time>
      </trkpt>
      <trkpt lat="44.85875" lon="1.23428">
        <ele>158.75</ele>
        <time>2022-08-09T07:22:45Z</time>
      </trkpt>
      <trkpt lat="44.85873" lon="1.23439">
        <ele>158.27</ele>
        <time>2022-08-09T07:22:46Z</time>
      </trkpt>
      <trkpt lat="44.85872" lon="1.23451">
        <ele>157.79</ele>
        <time>2022-08-09T07:22:47Z</time>
      </trkpt>
      <trkpt lat="44.85872" lon="1.23463">
        <ele>156.83</ele>
        <time>2022-08-09T07:22:48Z</time>
      </trkpt>
      <trkpt lat="44.85873" lon="1.23476">
        <ele>156.35</ele>
        <time>2022-08-09T07:22:49Z</time>
      </trkpt>
      <trkpt lat="44.85875" lon="1.2349">
        <ele>155.87</ele>
        <time>2022-08-09T07:22:50Z</time>
      </trkpt>
      <trkpt lat="44.8589" lon="1.23573">
        <ele>150.1</ele>
        <time>2022-08-09T07:22:58Z</time>
      </trkpt>
      <trkpt lat="44.85891" lon="1.23587">
        <ele>149.14</ele>
        <time>2022-08-09T07:23:00Z</time>
      </trkpt>
      <trkpt lat="44.85892" lon="1.23593">
        <ele>149.14</ele>
        <time>2022-08-09T07:23:01Z</time>
      </trkpt>
      <trkpt lat="44.85895" lon="1.23599">
        <ele>148.18</ele>
        <time>2022-08-09T07:23:02Z</time>
      </trkpt>
      <trkpt lat="44.85898" lon="1.23604">
        <ele>148.18</ele>
        <time>2022-08-09T07:23:03Z</time>
      </trkpt>
      <trkpt lat="44.85903" lon="1.23609">
        <ele>147.22</ele>
        <time>2022-08-09T07:23:04Z</time>
      </trkpt>
      <trkpt lat="44.85921" lon="1.23634">
        <ele>144.82</ele>
        <time>2022-08-09T07:23:07Z</time>
      </trkpt>
      <trkpt lat="44.85927" lon="1.23645">
        <ele>143.37</ele>
        <time>2022-08-09T07:23:08Z</time>
      </trkpt>
      <trkpt lat="44.85932" lon="1.23658">
        <ele>142.41</ele>
        <time>2022-08-09T07:23:09Z</time>
      </trkpt>
      <trkpt lat="44.85935" lon="1.23673">
        <ele>140.97</ele>
        <time>2022-08-09T07:23:10Z</time>
      </trkpt>
      <trkpt lat="44.85936" lon="1.23688">
        <ele>140.01</ele>
        <time>2022-08-09T07:23:11Z</time>
      </trkpt>
      <trkpt lat="44.85937" lon="1.23704">
        <ele>139.53</ele>
        <time>2022-08-09T07:23:12Z</time>
      </trkpt>
      <trkpt lat="44.8594" lon="1.23778">
        <ele>136.16</ele>
        <time>2022-08-09T07:23:19Z</time>
      </trkpt>
      <trkpt lat="44.85935" lon="1.23808">
        <ele>134.24</ele>
        <time>2022-08-09T07:23:27Z</time>
      </trkpt>
      <trkpt lat="44.85931" lon="1.2381">
        <ele>134.24</ele>
        <time>2022-08-09T07:23:28Z</time>
      </trkpt>
      <trkpt lat="44.85837" lon="1.2383">
        <ele>133.76</ele>
        <time>2022-08-09T07:23:48Z</time>
      </trkpt>
      <trkpt lat="44.85831" lon="1.23831">
        <ele>133.28</ele>
        <time>2022-08-09T07:23:49Z</time>
      </trkpt>
      <trkpt lat="44.85827" lon="1.23832">
        <ele>133.28</ele>
        <time>2022-08-09T07:23:50Z</time>
      </trkpt>
      <trkpt lat="44.85823" lon="1.23831">
        <ele>132.8</ele>
        <time>2022-08-09T07:23:51Z</time>
      </trkpt>
      <trkpt lat="44.85822" lon="1.23831">
        <ele>132.8</ele>
        <time>2022-08-09T07:23:52Z</time>
      </trkpt>
      <trkpt lat="44.8582" lon="1.2383">
        <ele>132.8</ele>
        <time>2022-08-09T07:23:53Z</time>
      </trkpt>
      <trkpt lat="44.85818" lon="1.23829">
        <ele>132.8</ele>
        <time>2022-08-09T07:23:54Z</time>
      </trkpt>
      <trkpt lat="44.85816" lon="1.23829">
        <ele>132.8</ele>
        <time>2022-08-09T07:23:55Z</time>
      </trkpt>
      <trkpt lat="44.85814" lon="1.23831">
        <ele>132.8</ele>
        <time>2022-08-09T07:23:56Z</time>
      </trkpt>
      <trkpt lat="44.85811" lon="1.23835">
        <ele>132.8</ele>
        <time>2022-08-09T07:23:57Z</time>
      </trkpt>
      <trkpt lat="44.8581" lon="1.23838">
        <ele>132.8</ele>
        <time>2022-08-09T07:23:58Z</time>
      </trkpt>
      <trkpt lat="44.85809" lon="1.23843">
        <ele>132.32</ele>
        <time>2022-08-09T07:23:59Z</time>
      </trkpt>
      <trkpt lat="44.85809" lon="1.23849">
        <ele>132.32</ele>
        <time>2022-08-09T07:24:00Z</time>
      </trkpt>
      <trkpt lat="44.85809" lon="1.23855">
        <ele>131.84</ele>
        <time>2022-08-09T07:24:01Z</time>
      </trkpt>
      <trkpt lat="44.85803" lon="1.23982">
        <ele>128.95</ele>
        <time>2022-08-09T07:24:18Z</time>
      </trkpt>
      <trkpt lat="44.85799" lon="1.24056">
        <ele>128.47</ele>
        <time>2022-08-09T07:24:27Z</time>
      </trkpt>
      <trkpt lat="44.85797" lon="1.24064">
        <ele>127.99</ele>
        <time>2022-08-09T07:24:28Z</time>
      </trkpt>
      <trkpt lat="44.85794" lon="1.24072">
        <ele>127.99</ele>
        <time>2022-08-09T07:24:29Z</time>
      </trkpt>
      <trkpt lat="44.85758" lon="1.24166">
        <ele>127.51</ele>
        <time>2022-08-09T07:24:42Z</time>
      </trkpt>
      <trkpt lat="44.85754" lon="1.24172">
        <ele>127.51</ele>
        <time>2022-08-09T07:24:43Z</time>
      </trkpt>
      <trkpt lat="44.85749" lon="1.24175">
        <ele>127.51</ele>
        <time>2022-08-09T07:24:44Z</time>
      </trkpt>
      <trkpt lat="44.85743" lon="1.24178">
        <ele>127.03</ele>
        <time>2022-08-09T07:24:45Z</time>
      </trkpt>
      <trkpt lat="44.85738" lon="1.2418">
        <ele>127.51</ele>
        <time>2022-08-09T07:24:46Z</time>
      </trkpt>
      <trkpt lat="44.85727" lon="1.24185">
        <ele>127.51</ele>
        <time>2022-08-09T07:24:48Z</time>
      </trkpt>
      <trkpt lat="44.85723" lon="1.24189">
        <ele>127.03</ele>
        <time>2022-08-09T07:24:49Z</time>
      </trkpt>
      <trkpt lat="44.85719" lon="1.24194">
        <ele>127.03</ele>
        <time>2022-08-09T07:24:50Z</time>
      </trkpt>
      <trkpt lat="44.85715" lon="1.242">
        <ele>127.03</ele>
        <time>2022-08-09T07:24:51Z</time>
      </trkpt>
      <trkpt lat="44.85713" lon="1.24207">
        <ele>126.55</ele>
        <time>2022-08-09T07:24:52Z</time>
      </trkpt>
      <trkpt lat="44.85711" lon="1.24214">
        <ele>126.55</ele>
        <time>2022-08-09T07:24:53Z</time>
      </trkpt>
      <trkpt lat="44.85711" lon="1.24221">
        <ele>126.55</ele>
        <time>2022-08-09T07:24:54Z</time>
      </trkpt>
      <trkpt lat="44.85711" lon="1.24228">
        <ele>126.55</ele>
        <time>2022-08-09T07:24:55Z</time>
      </trkpt>
      <trkpt lat="44.85711" lon="1.24234">
        <ele>126.55</ele>
        <time>2022-08-09T07:24:56Z</time>
      </trkpt>
      <trkpt lat="44.85711" lon="1.2424">
        <ele>126.55</ele>
        <time>2022-08-09T07:24:57Z</time>
      </trkpt>
      <trkpt lat="44.85715" lon="1.24272">
        <ele>127.51</ele>
        <time>2022-08-09T07:25:05Z</time>
      </trkpt>
      <trkpt lat="44.85717" lon="1.24274">
        <ele>127.99</ele>
        <time>2022-08-09T07:25:06Z</time>
      </trkpt>
      <trkpt lat="44.8572" lon="1.24275">
        <ele>127.99</ele>
        <time>2022-08-09T07:25:07Z</time>
      </trkpt>
      <trkpt lat="44.85724" lon="1.24275">
        <ele>127.99</ele>
        <time>2022-08-09T07:25:08Z</time>
      </trkpt>
      <trkpt lat="44.85728" lon="1.24274">
        <ele>127.99</ele>
        <time>2022-08-09T07:25:09Z</time>
      </trkpt>
      <trkpt lat="44.85747" lon="1.24293">
        <ele>128.47</ele>
        <time>2022-08-09T07:25:17Z</time>
      </trkpt>
      <trkpt lat="44.85755" lon="1.24312">
        <ele>128.47</ele>
        <time>2022-08-09T07:25:21Z</time>
      </trkpt>
      <trkpt lat="44.85776" lon="1.24367">
        <ele>128.47</ele>
        <time>2022-08-09T07:25:33Z</time>
      </trkpt>
      <trkpt lat="44.85779" lon="1.24384">
        <ele>128.95</ele>
        <time>2022-08-09T07:25:36Z</time>
      </trkpt>
      <trkpt lat="44.85781" lon="1.24396">
        <ele>129.43</ele>
        <time>2022-08-09T07:25:38Z</time>
      </trkpt>
      <trkpt lat="44.85783" lon="1.24416">
        <ele>129.92</ele>
        <time>2022-08-09T07:25:41Z</time>
      </trkpt>
      <trkpt lat="44.85783" lon="1.24422">
        <ele>129.92</ele>
        <time>2022-08-09T07:25:42Z</time>
      </trkpt>
      <trkpt lat="44.85784" lon="1.24429">
        <ele>129.92</ele>
        <time>2022-08-09T07:25:43Z</time>
      </trkpt>
      <trkpt lat="44.85784" lon="1.24435">
        <ele>129.43</ele>
        <time>2022-08-09T07:25:44Z</time>
      </trkpt>
      <trkpt lat="44.85785" lon="1.24441">
        <ele>129.43</ele>
        <time>2022-08-09T07:25:45Z</time>
      </trkpt>
      <trkpt lat="44.85786" lon="1.24492">
        <ele>128.47</ele>
        <time>2022-08-09T07:25:53Z</time>
      </trkpt>
      <trkpt lat="44.85785" lon="1.24537">
        <ele>127.03</ele>
        <time>2022-08-09T07:25:59Z</time>
      </trkpt>
      <trkpt lat="44.85795" lon="1.24666">
        <ele>122.22</ele>
        <time>2022-08-09T07:26:11Z</time>
      </trkpt>
      <trkpt lat="44.85794" lon="1.24687">
        <ele>121.74</ele>
        <time>2022-08-09T07:26:13Z</time>
      </trkpt>
      <trkpt lat="44.85793" lon="1.24698">
        <ele>121.74</ele>
        <time>2022-08-09T07:26:14Z</time>
      </trkpt>
      <trkpt lat="44.85791" lon="1.24708">
        <ele>121.74</ele>
        <time>2022-08-09T07:26:15Z</time>
      </trkpt>
      <trkpt lat="44.85789" lon="1.24717">
        <ele>121.26</ele>
        <time>2022-08-09T07:26:16Z</time>
      </trkpt>
      <trkpt lat="44.85786" lon="1.24725">
        <ele>121.26</ele>
        <time>2022-08-09T07:26:17Z</time>
      </trkpt>
      <trkpt lat="44.85783" lon="1.24733">
        <ele>121.26</ele>
        <time>2022-08-09T07:26:18Z</time>
      </trkpt>
      <trkpt lat="44.85777" lon="1.24752">
        <ele>121.26</ele>
        <time>2022-08-09T07:26:21Z</time>
      </trkpt>
      <trkpt lat="44.85771" lon="1.24776">
        <ele>122.22</ele>
        <time>2022-08-09T07:26:25Z</time>
      </trkpt>
      <trkpt lat="44.8577" lon="1.24789">
        <ele>122.71</ele>
        <time>2022-08-09T07:26:27Z</time>
      </trkpt>
      <trkpt lat="44.85761" lon="1.24871">
        <ele>124.63</ele>
        <time>2022-08-09T07:26:41Z</time>
      </trkpt>
      <trkpt lat="44.85758" lon="1.24882">
        <ele>125.11</ele>
        <time>2022-08-09T07:26:43Z</time>
      </trkpt>
      <trkpt lat="44.85753" lon="1.24893">
        <ele>125.59</ele>
        <time>2022-08-09T07:26:45Z</time>
      </trkpt>
      <trkpt lat="44.85741" lon="1.24919">
        <ele>125.11</ele>
        <time>2022-08-09T07:26:49Z</time>
      </trkpt>
      <trkpt lat="44.85738" lon="1.24927">
        <ele>124.63</ele>
        <time>2022-08-09T07:26:50Z</time>
      </trkpt>
      <trkpt lat="44.85738" lon="1.24936">
        <ele>124.15</ele>
        <time>2022-08-09T07:26:51Z</time>
      </trkpt>
      <trkpt lat="44.85739" lon="1.24944">
        <ele>123.67</ele>
        <time>2022-08-09T07:26:52Z</time>
      </trkpt>
      <trkpt lat="44.85743" lon="1.24952">
        <ele>123.19</ele>
        <time>2022-08-09T07:26:53Z</time>
      </trkpt>
      <trkpt lat="44.85747" lon="1.24959">
        <ele>122.22</ele>
        <time>2022-08-09T07:26:54Z</time>
      </trkpt>
      <trkpt lat="44.85752" lon="1.24967">
        <ele>121.74</ele>
        <time>2022-08-09T07:26:55Z</time>
      </trkpt>
      <trkpt lat="44.85827" lon="1.25043">
        <ele>114.53</ele>
        <time>2022-08-09T07:27:06Z</time>
      </trkpt>
      <trkpt lat="44.85859" lon="1.25076">
        <ele>111.65</ele>
        <time>2022-08-09T07:27:12Z</time>
      </trkpt>
      <trkpt lat="44.85863" lon="1.25084">
        <ele>111.17</ele>
        <time>2022-08-09T07:27:13Z</time>
      </trkpt>
      <trkpt lat="44.85866" lon="1.25092">
        <ele>110.21</ele>
        <time>2022-08-09T07:27:14Z</time>
      </trkpt>
      <trkpt lat="44.85869" lon="1.25101">
        <ele>109.73</ele>
        <time>2022-08-09T07:27:15Z</time>
      </trkpt>
      <trkpt lat="44.85871" lon="1.25111">
        <ele>109.25</ele>
        <time>2022-08-09T07:27:16Z</time>
      </trkpt>
      <trkpt lat="44.85873" lon="1.2512">
        <ele>108.29</ele>
        <time>2022-08-09T07:27:17Z</time>
      </trkpt>
      <trkpt lat="44.85879" lon="1.2518">
        <ele>103.48</ele>
        <time>2022-08-09T07:27:27Z</time>
      </trkpt>
      <trkpt lat="44.8585" lon="1.25216">
        <ele>103.48</ele>
        <time>2022-08-09T07:27:36Z</time>
      </trkpt>
      <trkpt lat="44.85794" lon="1.25295">
        <ele>102.52</ele>
        <time>2022-08-09T07:27:50Z</time>
      </trkpt>
      <trkpt lat="44.85791" lon="1.25302">
        <ele>102.04</ele>
        <time>2022-08-09T07:27:51Z</time>
      </trkpt>
      <trkpt lat="44.85788" lon="1.2531">
        <ele>102.52</ele>
        <time>2022-08-09T07:27:52Z</time>
      </trkpt>
      <trkpt lat="44.85786" lon="1.25319">
        <ele>102.52</ele>
        <time>2022-08-09T07:27:53Z</time>
      </trkpt>
      <trkpt lat="44.85785" lon="1.25327">
        <ele>102.52</ele>
        <time>2022-08-09T07:27:54Z</time>
      </trkpt>
      <trkpt lat="44.85786" lon="1.25336">
        <ele>102.52</ele>
        <time>2022-08-09T07:27:55Z</time>
      </trkpt>
      <trkpt lat="44.85786" lon="1.25346">
        <ele>102.52</ele>
        <time>2022-08-09T07:27:56Z</time>
      </trkpt>
      <trkpt lat="44.85788" lon="1.25355">
        <ele>102.52</ele>
        <time>2022-08-09T07:27:57Z</time>
      </trkpt>
      <trkpt lat="44.8579" lon="1.25362">
        <ele>102.52</ele>
        <time>2022-08-09T07:27:58Z</time>
      </trkpt>
      <trkpt lat="44.85791" lon="1.25368">
        <ele>102.52</ele>
        <time>2022-08-09T07:27:59Z</time>
      </trkpt>
      <trkpt lat="44.85799" lon="1.25399">
        <ele>102.52</ele>
        <time>2022-08-09T07:28:03Z</time>
      </trkpt>
      <trkpt lat="44.85801" lon="1.25409">
        <ele>102.52</ele>
        <time>2022-08-09T07:28:04Z</time>
      </trkpt>
      <trkpt lat="44.85802" lon="1.25421">
        <ele>102.52</ele>
        <time>2022-08-09T07:28:05Z</time>
      </trkpt>
      <trkpt lat="44.85802" lon="1.25432">
        <ele>103</ele>
        <time>2022-08-09T07:28:06Z</time>
      </trkpt>
      <trkpt lat="44.85801" lon="1.25442">
        <ele>103</ele>
        <time>2022-08-09T07:28:07Z</time>
      </trkpt>
      <trkpt lat="44.85799" lon="1.25452">
        <ele>102.52</ele>
        <time>2022-08-09T07:28:08Z</time>
      </trkpt>
      <trkpt lat="44.85796" lon="1.25462">
        <ele>102.52</ele>
        <time>2022-08-09T07:28:09Z</time>
      </trkpt>
      <trkpt lat="44.85793" lon="1.25471">
        <ele>102.52</ele>
        <time>2022-08-09T07:28:10Z</time>
      </trkpt>
      <trkpt lat="44.85771" lon="1.25533">
        <ele>101.56</ele>
        <time>2022-08-09T07:28:17Z</time>
      </trkpt>
      <trkpt lat="44.8575" lon="1.25689">
        <ele>100.6</ele>
        <time>2022-08-09T07:28:33Z</time>
      </trkpt>
      <trkpt lat="44.85738" lon="1.25732">
        <ele>100.11</ele>
        <time>2022-08-09T07:28:38Z</time>
      </trkpt>
      <trkpt lat="44.85734" lon="1.2574">
        <ele>100.11</ele>
        <time>2022-08-09T07:28:39Z</time>
      </trkpt>
      <trkpt lat="44.85729" lon="1.25747">
        <ele>99.63</ele>
        <time>2022-08-09T07:28:40Z</time>
      </trkpt>
      <trkpt lat="44.85725" lon="1.25754">
        <ele>99.15</ele>
        <time>2022-08-09T07:28:41Z</time>
      </trkpt>
      <trkpt lat="44.8572" lon="1.25759">
        <ele>99.15</ele>
        <time>2022-08-09T07:28:42Z</time>
      </trkpt>
      <trkpt lat="44.85715" lon="1.25765">
        <ele>99.15</ele>
        <time>2022-08-09T07:28:43Z</time>
      </trkpt>
      <trkpt lat="44.85709" lon="1.2577">
        <ele>99.15</ele>
        <time>2022-08-09T07:28:44Z</time>
      </trkpt>
      <trkpt lat="44.85606" lon="1.25862">
        <ele>96.75</ele>
        <time>2022-08-09T07:29:01Z</time>
      </trkpt>
      <trkpt lat="44.85517" lon="1.2595">
        <ele>95.31</ele>
        <time>2022-08-09T07:29:16Z</time>
      </trkpt>
      <trkpt lat="44.85469" lon="1.2606">
        <ele>93.39</ele>
        <time>2022-08-09T07:29:28Z</time>
      </trkpt>
      <trkpt lat="44.85433" lon="1.26219">
        <ele>90.5</ele>
        <time>2022-08-09T07:29:43Z</time>
      </trkpt>
      <trkpt lat="44.85376" lon="1.26337">
        <ele>88.58</ele>
        <time>2022-08-09T07:29:56Z</time>
      </trkpt>
      <trkpt lat="44.85346" lon="1.26484">
        <ele>87.14</ele>
        <time>2022-08-09T07:30:10Z</time>
      </trkpt>
      <trkpt lat="44.85348" lon="1.26662">
        <ele>85.69</ele>
        <time>2022-08-09T07:30:26Z</time>
      </trkpt>
      <trkpt lat="44.85362" lon="1.26836">
        <ele>85.21</ele>
        <time>2022-08-09T07:30:42Z</time>
      </trkpt>
      <trkpt lat="44.8534" lon="1.27013">
        <ele>83.77</ele>
        <time>2022-08-09T07:30:59Z</time>
      </trkpt>
      <trkpt lat="44.85296" lon="1.27128">
        <ele>82.81</ele>
        <time>2022-08-09T07:31:11Z</time>
      </trkpt>
      <trkpt lat="44.85223" lon="1.27197">
        <ele>81.37</ele>
        <time>2022-08-09T07:31:23Z</time>
      </trkpt>
      <trkpt lat="44.8511" lon="1.27255">
        <ele>79.45</ele>
        <time>2022-08-09T07:31:39Z</time>
      </trkpt>
      <trkpt lat="44.84977" lon="1.27309">
        <ele>78.97</ele>
        <time>2022-08-09T07:31:57Z</time>
      </trkpt>
      <trkpt lat="44.84923" lon="1.27327">
        <ele>78.48</ele>
        <time>2022-08-09T07:32:05Z</time>
      </trkpt>
      <trkpt lat="44.84916" lon="1.27327">
        <ele>78.48</ele>
        <time>2022-08-09T07:32:06Z</time>
      </trkpt>
      <trkpt lat="44.8491" lon="1.27326">
        <ele>78.48</ele>
        <time>2022-08-09T07:32:07Z</time>
      </trkpt>
      <trkpt lat="44.84904" lon="1.27323">
        <ele>78.48</ele>
        <time>2022-08-09T07:32:08Z</time>
      </trkpt>
      <trkpt lat="44.84899" lon="1.27318">
        <ele>78.48</ele>
        <time>2022-08-09T07:32:09Z</time>
      </trkpt>
      <trkpt lat="44.84893" lon="1.27312">
        <ele>78</ele>
        <time>2022-08-09T07:32:10Z</time>
      </trkpt>
      <trkpt lat="44.84878" lon="1.2729">
        <ele>78</ele>
        <time>2022-08-09T07:32:13Z</time>
      </trkpt>
      <trkpt lat="44.84873" lon="1.27283">
        <ele>78</ele>
        <time>2022-08-09T07:32:14Z</time>
      </trkpt>
      <trkpt lat="44.84868" lon="1.27277">
        <ele>78</ele>
        <time>2022-08-09T07:32:15Z</time>
      </trkpt>
      <trkpt lat="44.84862" lon="1.27272">
        <ele>78</ele>
        <time>2022-08-09T07:32:16Z</time>
      </trkpt>
      <trkpt lat="44.84856" lon="1.27267">
        <ele>78</ele>
        <time>2022-08-09T07:32:17Z</time>
      </trkpt>
      <trkpt lat="44.84849" lon="1.27263">
        <ele>78</ele>
        <time>2022-08-09T07:32:18Z</time>
      </trkpt>
      <trkpt lat="44.84844" lon="1.27261">
        <ele>78</ele>
        <time>2022-08-09T07:32:19Z</time>
      </trkpt>
      <trkpt lat="44.84741" lon="1.27243">
        <ele>78</ele>
        <time>2022-08-09T07:32:34Z</time>
      </trkpt>
      <trkpt lat="44.84628" lon="1.2724">
        <ele>77.52</ele>
        <time>2022-08-09T07:32:50Z</time>
      </trkpt>
      <trkpt lat="44.84553" lon="1.273">
        <ele>79.45</ele>
        <time>2022-08-09T07:33:02Z</time>
      </trkpt>
      <trkpt lat="44.84461" lon="1.27423">
        <ele>78.48</ele>
        <time>2022-08-09T07:33:19Z</time>
      </trkpt>
      <trkpt lat="44.84405" lon="1.27486">
        <ele>78</ele>
        <time>2022-08-09T07:33:29Z</time>
      </trkpt>
      <trkpt lat="44.84398" lon="1.2749">
        <ele>77.52</ele>
        <time>2022-08-09T07:33:30Z</time>
      </trkpt>
      <trkpt lat="44.84385" lon="1.27495">
        <ele>77.52</ele>
        <time>2022-08-09T07:33:32Z</time>
      </trkpt>
      <trkpt lat="44.84366" lon="1.27497">
        <ele>78</ele>
        <time>2022-08-09T07:33:35Z</time>
      </trkpt>
      <trkpt lat="44.84281" lon="1.27483">
        <ele>78.97</ele>
        <time>2022-08-09T07:33:49Z</time>
      </trkpt>
      <trkpt lat="44.84229" lon="1.27475">
        <ele>81.37</ele>
        <time>2022-08-09T07:34:00Z</time>
      </trkpt>
      <trkpt lat="44.84225" lon="1.27475">
        <ele>81.37</ele>
        <time>2022-08-09T07:34:01Z</time>
      </trkpt>
      <trkpt lat="44.84197" lon="1.27484">
        <ele>81.37</ele>
        <time>2022-08-09T07:34:07Z</time>
      </trkpt>
      <trkpt lat="44.84178" lon="1.2749">
        <ele>81.85</ele>
        <time>2022-08-09T07:34:11Z</time>
      </trkpt>
      <trkpt lat="44.84173" lon="1.27491">
        <ele>82.33</ele>
        <time>2022-08-09T07:34:12Z</time>
      </trkpt>
      <trkpt lat="44.84132" lon="1.27514">
        <ele>85.21</ele>
        <time>2022-08-09T07:34:22Z</time>
      </trkpt>
      <trkpt lat="44.84127" lon="1.27516">
        <ele>85.21</ele>
        <time>2022-08-09T07:34:23Z</time>
      </trkpt>
      <trkpt lat="44.84073" lon="1.2754">
        <ele>87.14</ele>
        <time>2022-08-09T07:34:38Z</time>
      </trkpt>
      <trkpt lat="44.84065" lon="1.27541">
        <ele>87.14</ele>
        <time>2022-08-09T07:34:40Z</time>
      </trkpt>
      <trkpt lat="44.84061" lon="1.27541">
        <ele>87.14</ele>
        <time>2022-08-09T07:34:41Z</time>
      </trkpt>
      <trkpt lat="44.84057" lon="1.27541">
        <ele>87.14</ele>
        <time>2022-08-09T07:34:42Z</time>
      </trkpt>
      <trkpt lat="44.83995" lon="1.27538">
        <ele>88.1</ele>
        <time>2022-08-09T07:34:57Z</time>
      </trkpt>
      <trkpt lat="44.83978" lon="1.27539">
        <ele>87.62</ele>
        <time>2022-08-09T07:35:01Z</time>
      </trkpt>
      <trkpt lat="44.83974" lon="1.2754">
        <ele>88.1</ele>
        <time>2022-08-09T07:35:02Z</time>
      </trkpt>
      <trkpt lat="44.8397" lon="1.27542">
        <ele>88.1</ele>
        <time>2022-08-09T07:35:03Z</time>
      </trkpt>
      <trkpt lat="44.8394" lon="1.2758">
        <ele>89.06</ele>
        <time>2022-08-09T07:35:14Z</time>
      </trkpt>
      <trkpt lat="44.83917" lon="1.27638">
        <ele>90.98</ele>
        <time>2022-08-09T07:35:27Z</time>
      </trkpt>
      <trkpt lat="44.83913" lon="1.27641">
        <ele>90.98</ele>
        <time>2022-08-09T07:35:28Z</time>
      </trkpt>
      <trkpt lat="44.83909" lon="1.27643">
        <ele>90.98</ele>
        <time>2022-08-09T07:35:29Z</time>
      </trkpt>
      <trkpt lat="44.83901" lon="1.27646">
        <ele>90.98</ele>
        <time>2022-08-09T07:35:31Z</time>
      </trkpt>
      <trkpt lat="44.83897" lon="1.27646">
        <ele>90.98</ele>
        <time>2022-08-09T07:35:32Z</time>
      </trkpt>
      <trkpt lat="44.83887" lon="1.27645">
        <ele>90.98</ele>
        <time>2022-08-09T07:35:34Z</time>
      </trkpt>
      <trkpt lat="44.83883" lon="1.27644">
        <ele>91.46</ele>
        <time>2022-08-09T07:35:35Z</time>
      </trkpt>
      <trkpt lat="44.83879" lon="1.27642">
        <ele>91.46</ele>
        <time>2022-08-09T07:35:36Z</time>
      </trkpt>
      <trkpt lat="44.83823" lon="1.27595">
        <ele>94.35</ele>
        <time>2022-08-09T07:35:50Z</time>
      </trkpt>
      <trkpt lat="44.83762" lon="1.2756">
        <ele>97.23</ele>
        <time>2022-08-09T07:36:04Z</time>
      </trkpt>
      <trkpt lat="44.83687" lon="1.27527">
        <ele>102.52</ele>
        <time>2022-08-09T07:36:23Z</time>
      </trkpt>
      <trkpt lat="44.83652" lon="1.27501">
        <ele>106.36</ele>
        <time>2022-08-09T07:36:36Z</time>
      </trkpt>
      <trkpt lat="44.8365" lon="1.27493">
        <ele>105.88</ele>
        <time>2022-08-09T07:36:39Z</time>
      </trkpt>
      <trkpt lat="44.8365" lon="1.27491">
        <ele>104.92</ele>
        <time>2022-08-09T07:36:40Z</time>
      </trkpt>
      <trkpt lat="44.83651" lon="1.27488">
        <ele>104.92</ele>
        <time>2022-08-09T07:36:41Z</time>
      </trkpt>
      <trkpt lat="44.83655" lon="1.27476">
        <ele>103</ele>
        <time>2022-08-09T07:36:45Z</time>
      </trkpt>
      <trkpt lat="44.83654" lon="1.27473">
        <ele>102.52</ele>
        <time>2022-08-09T07:36:46Z</time>
      </trkpt>
      <trkpt lat="44.83652" lon="1.27471">
        <ele>102.52</ele>
        <time>2022-08-09T07:36:47Z</time>
      </trkpt>
      <trkpt lat="44.83602" lon="1.27452">
        <ele>101.08</ele>
        <time>2022-08-09T07:36:59Z</time>
      </trkpt>
      <trkpt lat="44.83495" lon="1.27407">
        <ele>101.08</ele>
        <time>2022-08-09T07:37:19Z</time>
      </trkpt>
      <trkpt lat="44.83426" lon="1.27379">
        <ele>101.08</ele>
        <time>2022-08-09T07:37:31Z</time>
      </trkpt>
      <trkpt lat="44.83334" lon="1.27342">
        <ele>100.6</ele>
        <time>2022-08-09T07:37:46Z</time>
      </trkpt>
      <trkpt lat="44.83296" lon="1.27328">
        <ele>100.6</ele>
        <time>2022-08-09T07:37:55Z</time>
      </trkpt>
      <trkpt lat="44.83255" lon="1.27323">
        <ele>99.15</ele>
        <time>2022-08-09T07:38:07Z</time>
      </trkpt>
      <trkpt lat="44.83183" lon="1.27331">
        <ele>98.19</ele>
        <time>2022-08-09T07:38:19Z</time>
      </trkpt>
      <trkpt lat="44.83108" lon="1.27374">
        <ele>97.71</ele>
        <time>2022-08-09T07:38:30Z</time>
      </trkpt>
      <trkpt lat="44.83025" lon="1.27481">
        <ele>96.75</ele>
        <time>2022-08-09T07:38:44Z</time>
      </trkpt>
      <trkpt lat="44.82966" lon="1.27608">
        <ele>95.79</ele>
        <time>2022-08-09T07:38:57Z</time>
      </trkpt>
      <trkpt lat="44.82914" lon="1.2772">
        <ele>96.75</ele>
        <time>2022-08-09T07:39:09Z</time>
      </trkpt>
      <trkpt lat="44.82881" lon="1.27792">
        <ele>97.71</ele>
        <time>2022-08-09T07:39:17Z</time>
      </trkpt>
      <trkpt lat="44.82839" lon="1.27885">
        <ele>101.08</ele>
        <time>2022-08-09T07:39:29Z</time>
      </trkpt>
      <trkpt lat="44.82834" lon="1.27898">
        <ele>101.08</ele>
        <time>2022-08-09T07:39:32Z</time>
      </trkpt>
      <trkpt lat="44.82832" lon="1.27903">
        <ele>101.08</ele>
        <time>2022-08-09T07:39:33Z</time>
      </trkpt>
      <trkpt lat="44.82829" lon="1.27909">
        <ele>101.08</ele>
        <time>2022-08-09T07:39:34Z</time>
      </trkpt>
      <trkpt lat="44.82827" lon="1.27915">
        <ele>100.6</ele>
        <time>2022-08-09T07:39:35Z</time>
      </trkpt>
      <trkpt lat="44.82824" lon="1.27921">
        <ele>100.6</ele>
        <time>2022-08-09T07:39:36Z</time>
      </trkpt>
      <trkpt lat="44.82781" lon="1.28013">
        <ele>98.19</ele>
        <time>2022-08-09T07:39:48Z</time>
      </trkpt>
      <trkpt lat="44.8277" lon="1.28045">
        <ele>95.79</ele>
        <time>2022-08-09T07:39:54Z</time>
      </trkpt>
      <trkpt lat="44.82772" lon="1.28049">
        <ele>95.31</ele>
        <time>2022-08-09T07:39:55Z</time>
      </trkpt>
      <trkpt lat="44.82774" lon="1.28053">
        <ele>94.83</ele>
        <time>2022-08-09T07:39:56Z</time>
      </trkpt>
      <trkpt lat="44.82776" lon="1.28056">
        <ele>94.83</ele>
        <time>2022-08-09T07:39:57Z</time>
      </trkpt>
      <trkpt lat="44.82779" lon="1.2806">
        <ele>94.83</ele>
        <time>2022-08-09T07:39:58Z</time>
      </trkpt>
      <trkpt lat="44.82808" lon="1.28091">
        <ele>96.75</ele>
        <time>2022-08-09T07:40:08Z</time>
      </trkpt>
      <trkpt lat="44.82809" lon="1.28096">
        <ele>97.23</ele>
        <time>2022-08-09T07:40:09Z</time>
      </trkpt>
      <trkpt lat="44.82809" lon="1.28102">
        <ele>97.23</ele>
        <time>2022-08-09T07:40:10Z</time>
      </trkpt>
      <trkpt lat="44.82808" lon="1.28109">
        <ele>97.71</ele>
        <time>2022-08-09T07:40:11Z</time>
      </trkpt>
      <trkpt lat="44.82808" lon="1.28115">
        <ele>97.71</ele>
        <time>2022-08-09T07:40:12Z</time>
      </trkpt>
      <trkpt lat="44.82807" lon="1.28223">
        <ele>96.27</ele>
        <time>2022-08-09T07:40:27Z</time>
      </trkpt>
      <trkpt lat="44.82816" lon="1.28315">
        <ele>95.79</ele>
        <time>2022-08-09T07:40:40Z</time>
      </trkpt>
      <trkpt lat="44.82817" lon="1.28322">
        <ele>95.79</ele>
        <time>2022-08-09T07:40:41Z</time>
      </trkpt>
      <trkpt lat="44.82818" lon="1.28329">
        <ele>95.31</ele>
        <time>2022-08-09T07:40:42Z</time>
      </trkpt>
      <trkpt lat="44.82824" lon="1.28366">
        <ele>94.83</ele>
        <time>2022-08-09T07:40:47Z</time>
      </trkpt>
      <trkpt lat="44.82851" lon="1.28462">
        <ele>97.23</ele>
        <time>2022-08-09T07:41:00Z</time>
      </trkpt>
      <trkpt lat="44.82892" lon="1.28565">
        <ele>98.19</ele>
        <time>2022-08-09T07:41:15Z</time>
      </trkpt>
      <trkpt lat="44.82941" lon="1.2865">
        <ele>98.67</ele>
        <time>2022-08-09T07:41:29Z</time>
      </trkpt>
      <trkpt lat="44.83" lon="1.28743">
        <ele>100.6</ele>
        <time>2022-08-09T07:41:44Z</time>
      </trkpt>
      <trkpt lat="44.83074" lon="1.28858">
        <ele>99.15</ele>
        <time>2022-08-09T07:42:02Z</time>
      </trkpt>
      <trkpt lat="44.83144" lon="1.28965">
        <ele>100.11</ele>
        <time>2022-08-09T07:42:19Z</time>
      </trkpt>
      <trkpt lat="44.83188" lon="1.29034">
        <ele>103.96</ele>
        <time>2022-08-09T07:42:30Z</time>
      </trkpt>
      <trkpt lat="44.83192" lon="1.2904">
        <ele>103.96</ele>
        <time>2022-08-09T07:42:31Z</time>
      </trkpt>
      <trkpt lat="44.83199" lon="1.2905">
        <ele>104.44</ele>
        <time>2022-08-09T07:42:33Z</time>
      </trkpt>
      <trkpt lat="44.83202" lon="1.29056">
        <ele>104.92</ele>
        <time>2022-08-09T07:42:34Z</time>
      </trkpt>
      <trkpt lat="44.83225" lon="1.29091">
        <ele>106.84</ele>
        <time>2022-08-09T07:42:44Z</time>
      </trkpt>
      <trkpt lat="44.83252" lon="1.29132">
        <ele>108.29</ele>
        <time>2022-08-09T07:42:54Z</time>
      </trkpt>
      <trkpt lat="44.8328" lon="1.29175">
        <ele>109.73</ele>
        <time>2022-08-09T07:43:01Z</time>
      </trkpt>
      <trkpt lat="44.83342" lon="1.29273">
        <ele>103</ele>
        <time>2022-08-09T07:43:16Z</time>
      </trkpt>
      <trkpt lat="44.83377" lon="1.29326">
        <ele>103</ele>
        <time>2022-08-09T07:43:26Z</time>
      </trkpt>
      <trkpt lat="44.83427" lon="1.29404">
        <ele>103</ele>
        <time>2022-08-09T07:43:40Z</time>
      </trkpt>
      <trkpt lat="44.83486" lon="1.29494">
        <ele>102.04</ele>
        <time>2022-08-09T07:43:55Z</time>
      </trkpt>
      <trkpt lat="44.83539" lon="1.29576">
        <ele>103.96</ele>
        <time>2022-08-09T07:44:09Z</time>
      </trkpt>
      <trkpt lat="44.83543" lon="1.29583">
        <ele>103.96</ele>
        <time>2022-08-09T07:44:10Z</time>
      </trkpt>
      <trkpt lat="44.83547" lon="1.29589">
        <ele>104.44</ele>
        <time>2022-08-09T07:44:11Z</time>
      </trkpt>
      <trkpt lat="44.83613" lon="1.29692">
        <ele>103.96</ele>
        <time>2022-08-09T07:44:28Z</time>
      </trkpt>
      <trkpt lat="44.83646" lon="1.29741">
        <ele>103</ele>
        <time>2022-08-09T07:44:38Z</time>
      </trkpt>
      <trkpt lat="44.83699" lon="1.29812">
        <ele>102.52</ele>
        <time>2022-08-09T07:44:51Z</time>
      </trkpt>
      <trkpt lat="44.8376" lon="1.29879">
        <ele>103</ele>
        <time>2022-08-09T07:45:03Z</time>
      </trkpt>
      <trkpt lat="44.83842" lon="1.29957">
        <ele>101.56</ele>
        <time>2022-08-09T07:45:18Z</time>
      </trkpt>
      <trkpt lat="44.83873" lon="1.29988">
        <ele>101.56</ele>
        <time>2022-08-09T07:45:24Z</time>
      </trkpt>
      <trkpt lat="44.83878" lon="1.29993">
        <ele>101.56</ele>
        <time>2022-08-09T07:45:25Z</time>
      </trkpt>
      <trkpt lat="44.83945" lon="1.30056">
        <ele>101.56</ele>
        <time>2022-08-09T07:45:38Z</time>
      </trkpt>
      <trkpt lat="44.84033" lon="1.30142">
        <ele>99.15</ele>
        <time>2022-08-09T07:45:53Z</time>
      </trkpt>
      <trkpt lat="44.84116" lon="1.30235">
        <ele>94.83</ele>
        <time>2022-08-09T07:46:08Z</time>
      </trkpt>
      <trkpt lat="44.84189" lon="1.30322">
        <ele>91.94</ele>
        <time>2022-08-09T07:46:23Z</time>
      </trkpt>
      <trkpt lat="44.84252" lon="1.30407">
        <ele>90.5</ele>
        <time>2022-08-09T07:46:37Z</time>
      </trkpt>
      <trkpt lat="44.84301" lon="1.30514">
        <ele>87.62</ele>
        <time>2022-08-09T07:46:51Z</time>
      </trkpt>
      <trkpt lat="44.84339" lon="1.30633">
        <ele>84.73</ele>
        <time>2022-08-09T07:47:05Z</time>
      </trkpt>
      <trkpt lat="44.84358" lon="1.30692">
        <ele>85.69</ele>
        <time>2022-08-09T07:47:12Z</time>
      </trkpt>
      <trkpt lat="44.8437" lon="1.30721">
        <ele>86.66</ele>
        <time>2022-08-09T07:47:16Z</time>
      </trkpt>
      <trkpt lat="44.84371" lon="1.30726">
        <ele>86.66</ele>
        <time>2022-08-09T07:47:17Z</time>
      </trkpt>
      <trkpt lat="44.8438" lon="1.30772">
        <ele>85.69</ele>
        <time>2022-08-09T07:47:24Z</time>
      </trkpt>
      <trkpt lat="44.84382" lon="1.3078">
        <ele>85.21</ele>
        <time>2022-08-09T07:47:25Z</time>
      </trkpt>
      <trkpt lat="44.84388" lon="1.30794">
        <ele>83.29</ele>
        <time>2022-08-09T07:47:28Z</time>
      </trkpt>
      <trkpt lat="44.84389" lon="1.30796">
        <ele>83.29</ele>
        <time>2022-08-09T07:47:29Z</time>
      </trkpt>
      <trkpt lat="44.8439" lon="1.30798">
        <ele>82.81</ele>
        <time>2022-08-09T07:47:30Z</time>
      </trkpt>
      <trkpt lat="44.84391" lon="1.308">
        <ele>82.33</ele>
        <time>2022-08-09T07:47:31Z</time>
      </trkpt>
      <trkpt lat="44.84392" lon="1.30802">
        <ele>82.33</ele>
        <time>2022-08-09T07:47:32Z</time>
      </trkpt>
      <trkpt lat="44.84393" lon="1.30805">
        <ele>81.85</ele>
        <time>2022-08-09T07:47:33Z</time>
      </trkpt>
      <trkpt lat="44.84395" lon="1.30808">
        <ele>81.37</ele>
        <time>2022-08-09T07:47:34Z</time>
      </trkpt>
      <trkpt lat="44.84397" lon="1.30812">
        <ele>80.89</ele>
        <time>2022-08-09T07:47:35Z</time>
      </trkpt>
      <trkpt lat="44.84439" lon="1.30876">
        <ele>78.48</ele>
        <time>2022-08-09T07:47:47Z</time>
      </trkpt>
      <trkpt lat="44.84518" lon="1.30956">
        <ele>77.52</ele>
        <time>2022-08-09T07:48:03Z</time>
      </trkpt>
      <trkpt lat="44.84607" lon="1.31026">
        <ele>77.04</ele>
        <time>2022-08-09T07:48:18Z</time>
      </trkpt>
      <trkpt lat="44.84636" lon="1.3105">
        <ele>77.52</ele>
        <time>2022-08-09T07:48:23Z</time>
      </trkpt>
      <trkpt lat="44.8464" lon="1.31056">
        <ele>77.52</ele>
        <time>2022-08-09T07:48:24Z</time>
      </trkpt>
      <trkpt lat="44.84644" lon="1.31063">
        <ele>77.52</ele>
        <time>2022-08-09T07:48:25Z</time>
      </trkpt>
      <trkpt lat="44.84648" lon="1.3107">
        <ele>78</ele>
        <time>2022-08-09T07:48:26Z</time>
      </trkpt>
      <trkpt lat="44.84651" lon="1.31077">
        <ele>78.48</ele>
        <time>2022-08-09T07:48:27Z</time>
      </trkpt>
      <trkpt lat="44.84654" lon="1.31086">
        <ele>78.48</ele>
        <time>2022-08-09T07:48:28Z</time>
      </trkpt>
      <trkpt lat="44.84656" lon="1.31094">
        <ele>78.48</ele>
        <time>2022-08-09T07:48:29Z</time>
      </trkpt>
      <trkpt lat="44.84674" lon="1.31183">
        <ele>80.89</ele>
        <time>2022-08-09T07:48:40Z</time>
      </trkpt>
      <trkpt lat="44.84677" lon="1.31191">
        <ele>81.37</ele>
        <time>2022-08-09T07:48:41Z</time>
      </trkpt>
      <trkpt lat="44.8468" lon="1.31199">
        <ele>81.37</ele>
        <time>2022-08-09T07:48:42Z</time>
      </trkpt>
      <trkpt lat="44.84689" lon="1.31222">
        <ele>82.33</ele>
        <time>2022-08-09T07:48:45Z</time>
      </trkpt>
      <trkpt lat="44.84693" lon="1.3123">
        <ele>82.81</ele>
        <time>2022-08-09T07:48:46Z</time>
      </trkpt>
      <trkpt lat="44.84758" lon="1.3133">
        <ele>82.33</ele>
        <time>2022-08-09T07:49:01Z</time>
      </trkpt>
      <trkpt lat="44.84763" lon="1.31332">
        <ele>82.33</ele>
        <time>2022-08-09T07:49:02Z</time>
      </trkpt>
      <trkpt lat="44.84768" lon="1.31331">
        <ele>81.85</ele>
        <time>2022-08-09T07:49:03Z</time>
      </trkpt>
      <trkpt lat="44.84773" lon="1.31327">
        <ele>81.85</ele>
        <time>2022-08-09T07:49:04Z</time>
      </trkpt>
      <trkpt lat="44.84777" lon="1.31322">
        <ele>81.85</ele>
        <time>2022-08-09T07:49:05Z</time>
      </trkpt>
      <trkpt lat="44.84781" lon="1.31316">
        <ele>81.85</ele>
        <time>2022-08-09T07:49:06Z</time>
      </trkpt>
      <trkpt lat="44.84807" lon="1.3128">
        <ele>79.93</ele>
        <time>2022-08-09T07:49:12Z</time>
      </trkpt>
      <trkpt lat="44.8481" lon="1.31272">
        <ele>79.45</ele>
        <time>2022-08-09T07:49:13Z</time>
      </trkpt>
      <trkpt lat="44.84811" lon="1.31263">
        <ele>79.45</ele>
        <time>2022-08-09T07:49:14Z</time>
      </trkpt>
      <trkpt lat="44.84811" lon="1.31254">
        <ele>79.45</ele>
        <time>2022-08-09T07:49:15Z</time>
      </trkpt>
      <trkpt lat="44.8481" lon="1.31245">
        <ele>79.45</ele>
        <time>2022-08-09T07:49:16Z</time>
      </trkpt>
      <trkpt lat="44.84808" lon="1.31238">
        <ele>78.97</ele>
        <time>2022-08-09T07:49:17Z</time>
      </trkpt>
      <trkpt lat="44.84806" lon="1.3123">
        <ele>78.97</ele>
        <time>2022-08-09T07:49:18Z</time>
      </trkpt>
      <trkpt lat="44.84804" lon="1.31222">
        <ele>78.97</ele>
        <time>2022-08-09T07:49:19Z</time>
      </trkpt>
      <trkpt lat="44.84797" lon="1.31201">
        <ele>78.97</ele>
        <time>2022-08-09T07:49:22Z</time>
      </trkpt>
      <trkpt lat="44.84794" lon="1.31196">
        <ele>79.45</ele>
        <time>2022-08-09T07:49:23Z</time>
      </trkpt>
      <trkpt lat="44.8478" lon="1.31149">
        <ele>83.77</ele>
        <time>2022-08-09T07:49:33Z</time>
      </trkpt>
      <trkpt lat="44.84782" lon="1.31146">
        <ele>83.77</ele>
        <time>2022-08-09T07:49:34Z</time>
      </trkpt>
      <trkpt lat="44.84785" lon="1.31144">
        <ele>83.77</ele>
        <time>2022-08-09T07:49:35Z</time>
      </trkpt>
      <trkpt lat="44.84789" lon="1.31144">
        <ele>83.77</ele>
        <time>2022-08-09T07:49:36Z</time>
      </trkpt>
      <trkpt lat="44.84792" lon="1.31145">
        <ele>83.77</ele>
        <time>2022-08-09T07:49:37Z</time>
      </trkpt>
      <trkpt lat="44.84795" lon="1.31147">
        <ele>83.77</ele>
        <time>2022-08-09T07:49:38Z</time>
      </trkpt>
      <trkpt lat="44.84799" lon="1.31149">
        <ele>83.77</ele>
        <time>2022-08-09T07:49:39Z</time>
      </trkpt>
      <trkpt lat="44.84803" lon="1.31151">
        <ele>83.77</ele>
        <time>2022-08-09T07:49:40Z</time>
      </trkpt>
      <trkpt lat="44.84817" lon="1.31155">
        <ele>82.81</ele>
        <time>2022-08-09T07:49:49Z</time>
      </trkpt>
      <trkpt lat="44.84818" lon="1.31155">
        <ele>82.81</ele>
        <time>2022-08-09T07:49:55Z</time>
      </trkpt>
      <trkpt lat="44.84821" lon="1.31155">
        <ele>82.81</ele>
        <time>2022-08-09T07:49:56Z</time>
      </trkpt>
      <trkpt lat="44.84824" lon="1.31153">
        <ele>82.33</ele>
        <time>2022-08-09T07:49:57Z</time>
      </trkpt>
      <trkpt lat="44.84827" lon="1.31148">
        <ele>82.33</ele>
        <time>2022-08-09T07:49:58Z</time>
      </trkpt>
      <trkpt lat="44.84828" lon="1.31142">
        <ele>82.33</ele>
        <time>2022-08-09T07:49:59Z</time>
      </trkpt>
      <trkpt lat="44.84829" lon="1.31137">
        <ele>82.33</ele>
        <time>2022-08-09T07:50:00Z</time>
      </trkpt>
      <trkpt lat="44.84831" lon="1.31118">
        <ele>82.81</ele>
        <time>2022-08-09T07:50:03Z</time>
      </trkpt>
      <trkpt lat="44.84832" lon="1.31113">
        <ele>82.81</ele>
        <time>2022-08-09T07:50:04Z</time>
      </trkpt>
      <trkpt lat="44.84845" lon="1.31053">
        <ele>83.29</ele>
        <time>2022-08-09T07:50:14Z</time>
      </trkpt>
      <trkpt lat="44.84858" lon="1.31021">
        <ele>84.25</ele>
        <time>2022-08-09T07:50:20Z</time>
      </trkpt>
      <trkpt lat="44.84867" lon="1.31005">
        <ele>84.25</ele>
        <time>2022-08-09T07:50:23Z</time>
      </trkpt>
      <trkpt lat="44.84869" lon="1.31">
        <ele>84.73</ele>
        <time>2022-08-09T07:50:24Z</time>
      </trkpt>
      <trkpt lat="44.84923" lon="1.3094">
        <ele>85.21</ele>
        <time>2022-08-09T07:50:39Z</time>
      </trkpt>
      <trkpt lat="44.84955" lon="1.30919">
        <ele>85.21</ele>
        <time>2022-08-09T07:50:47Z</time>
      </trkpt>
      <trkpt lat="44.85031" lon="1.30886">
        <ele>84.73</ele>
        <time>2022-08-09T07:51:02Z</time>
      </trkpt>
      <trkpt lat="44.85118" lon="1.3085">
        <ele>86.66</ele>
        <time>2022-08-09T07:51:18Z</time>
      </trkpt>
      <trkpt lat="44.85177" lon="1.30824">
        <ele>88.58</ele>
        <time>2022-08-09T07:51:30Z</time>
      </trkpt>
      <trkpt lat="44.85182" lon="1.30822">
        <ele>88.58</ele>
        <time>2022-08-09T07:51:31Z</time>
      </trkpt>
      <trkpt lat="44.85249" lon="1.30785">
        <ele>91.94</ele>
        <time>2022-08-09T07:51:46Z</time>
      </trkpt>
      <trkpt lat="44.85253" lon="1.30784">
        <ele>91.94</ele>
        <time>2022-08-09T07:51:47Z</time>
      </trkpt>
      <trkpt lat="44.85259" lon="1.30784">
        <ele>92.42</ele>
        <time>2022-08-09T07:51:48Z</time>
      </trkpt>
      <trkpt lat="44.85263" lon="1.30785">
        <ele>92.42</ele>
        <time>2022-08-09T07:51:49Z</time>
      </trkpt>
      <trkpt lat="44.85267" lon="1.30787">
        <ele>92.42</ele>
        <time>2022-08-09T07:51:50Z</time>
      </trkpt>
      <trkpt lat="44.85272" lon="1.3079">
        <ele>92.9</ele>
        <time>2022-08-09T07:51:51Z</time>
      </trkpt>
      <trkpt lat="44.85276" lon="1.30793">
        <ele>92.9</ele>
        <time>2022-08-09T07:51:52Z</time>
      </trkpt>
      <trkpt lat="44.85288" lon="1.30801">
        <ele>93.87</ele>
        <time>2022-08-09T07:51:55Z</time>
      </trkpt>
      <trkpt lat="44.85302" lon="1.30806">
        <ele>94.35</ele>
        <time>2022-08-09T07:51:58Z</time>
      </trkpt>
      <trkpt lat="44.85307" lon="1.30806">
        <ele>94.83</ele>
        <time>2022-08-09T07:51:59Z</time>
      </trkpt>
      <trkpt lat="44.85311" lon="1.30806">
        <ele>94.83</ele>
        <time>2022-08-09T07:52:00Z</time>
      </trkpt>
      <trkpt lat="44.85316" lon="1.30805">
        <ele>95.31</ele>
        <time>2022-08-09T07:52:01Z</time>
      </trkpt>
      <trkpt lat="44.8532" lon="1.30804">
        <ele>95.31</ele>
        <time>2022-08-09T07:52:02Z</time>
      </trkpt>
      <trkpt lat="44.85328" lon="1.30803">
        <ele>95.79</ele>
        <time>2022-08-09T07:52:04Z</time>
      </trkpt>
      <trkpt lat="44.85333" lon="1.30804">
        <ele>96.27</ele>
        <time>2022-08-09T07:52:05Z</time>
      </trkpt>
      <trkpt lat="44.85355" lon="1.30836">
        <ele>98.67</ele>
        <time>2022-08-09T07:52:16Z</time>
      </trkpt>
      <trkpt lat="44.85375" lon="1.3089">
        <ele>101.56</ele>
        <time>2022-08-09T07:52:34Z</time>
      </trkpt>
      <trkpt lat="44.85397" lon="1.30928">
        <ele>105.4</ele>
        <time>2022-08-09T07:52:50Z</time>
      </trkpt>
      <trkpt lat="44.85421" lon="1.30953">
        <ele>108.77</ele>
        <time>2022-08-09T07:53:04Z</time>
      </trkpt>
      <trkpt lat="44.85446" lon="1.30971">
        <ele>112.13</ele>
        <time>2022-08-09T07:53:17Z</time>
      </trkpt>
      <trkpt lat="44.85457" lon="1.30979">
        <ele>112.61</ele>
        <time>2022-08-09T07:53:23Z</time>
      </trkpt>
      <trkpt lat="44.85458" lon="1.30981">
        <ele>112.61</ele>
        <time>2022-08-09T07:53:24Z</time>
      </trkpt>
      <trkpt lat="44.8546" lon="1.30983">
        <ele>112.61</ele>
        <time>2022-08-09T07:53:25Z</time>
      </trkpt>
      <trkpt lat="44.85482" lon="1.31009">
        <ele>115.5</ele>
        <time>2022-08-09T07:53:40Z</time>
      </trkpt>
      <trkpt lat="44.85498" lon="1.31033">
        <ele>116.46</ele>
        <time>2022-08-09T07:53:52Z</time>
      </trkpt>
      <trkpt lat="44.85515" lon="1.31063">
        <ele>119.34</ele>
        <time>2022-08-09T07:54:05Z</time>
      </trkpt>
      <trkpt lat="44.8553" lon="1.311">
        <ele>123.67</ele>
        <time>2022-08-09T07:54:17Z</time>
      </trkpt>
      <trkpt lat="44.85532" lon="1.31137">
        <ele>129.92</ele>
        <time>2022-08-09T07:54:29Z</time>
      </trkpt>
      <trkpt lat="44.85526" lon="1.31169">
        <ele>132.32</ele>
        <time>2022-08-09T07:54:42Z</time>
      </trkpt>
      <trkpt lat="44.85523" lon="1.31211">
        <ele>135.68</ele>
        <time>2022-08-09T07:54:58Z</time>
      </trkpt>
      <trkpt lat="44.85523" lon="1.3125">
        <ele>138.57</ele>
        <time>2022-08-09T07:55:13Z</time>
      </trkpt>
      <trkpt lat="44.85528" lon="1.31279">
        <ele>141.45</ele>
        <time>2022-08-09T07:55:26Z</time>
      </trkpt>
      <trkpt lat="44.8554" lon="1.31306">
        <ele>143.85</ele>
        <time>2022-08-09T07:55:40Z</time>
      </trkpt>
      <trkpt lat="44.85554" lon="1.3133">
        <ele>145.78</ele>
        <time>2022-08-09T07:55:54Z</time>
      </trkpt>
      <trkpt lat="44.85567" lon="1.31349">
        <ele>149.14</ele>
        <time>2022-08-09T07:56:06Z</time>
      </trkpt>
      <trkpt lat="44.85578" lon="1.31371">
        <ele>150.58</ele>
        <time>2022-08-09T07:56:17Z</time>
      </trkpt>
      <trkpt lat="44.85595" lon="1.31405">
        <ele>152.51</ele>
        <time>2022-08-09T07:56:32Z</time>
      </trkpt>
      <trkpt lat="44.85616" lon="1.31437">
        <ele>153.47</ele>
        <time>2022-08-09T07:56:47Z</time>
      </trkpt>
      <trkpt lat="44.85637" lon="1.31468">
        <ele>154.91</ele>
        <time>2022-08-09T07:57:01Z</time>
      </trkpt>
      <trkpt lat="44.85664" lon="1.31511">
        <ele>157.79</ele>
        <time>2022-08-09T07:57:18Z</time>
      </trkpt>
      <trkpt lat="44.85687" lon="1.31541">
        <ele>159.24</ele>
        <time>2022-08-09T07:57:32Z</time>
      </trkpt>
      <trkpt lat="44.857" lon="1.31548">
        <ele>158.27</ele>
        <time>2022-08-09T07:57:36Z</time>
      </trkpt>
      <trkpt lat="44.85705" lon="1.31547">
        <ele>158.27</ele>
        <time>2022-08-09T07:57:37Z</time>
      </trkpt>
      <trkpt lat="44.85715" lon="1.31545">
        <ele>158.27</ele>
        <time>2022-08-09T07:57:39Z</time>
      </trkpt>
      <trkpt lat="44.85721" lon="1.31542">
        <ele>158.27</ele>
        <time>2022-08-09T07:57:40Z</time>
      </trkpt>
      <trkpt lat="44.85727" lon="1.31539">
        <ele>158.27</ele>
        <time>2022-08-09T07:57:41Z</time>
      </trkpt>
      <trkpt lat="44.8574" lon="1.31536">
        <ele>157.31</ele>
        <time>2022-08-09T07:57:43Z</time>
      </trkpt>
      <trkpt lat="44.85747" lon="1.31537">
        <ele>157.31</ele>
        <time>2022-08-09T07:57:44Z</time>
      </trkpt>
      <trkpt lat="44.85754" lon="1.31538">
        <ele>156.83</ele>
        <time>2022-08-09T07:57:45Z</time>
      </trkpt>
      <trkpt lat="44.8576" lon="1.31541">
        <ele>156.35</ele>
        <time>2022-08-09T07:57:46Z</time>
      </trkpt>
      <trkpt lat="44.85766" lon="1.31544">
        <ele>155.87</ele>
        <time>2022-08-09T07:57:47Z</time>
      </trkpt>
      <trkpt lat="44.85792" lon="1.31551">
        <ele>152.99</ele>
        <time>2022-08-09T07:57:52Z</time>
      </trkpt>
      <trkpt lat="44.8582" lon="1.31561">
        <ele>150.58</ele>
        <time>2022-08-09T07:58:00Z</time>
      </trkpt>
      <trkpt lat="44.85825" lon="1.31572">
        <ele>150.1</ele>
        <time>2022-08-09T07:58:02Z</time>
      </trkpt>
      <trkpt lat="44.85828" lon="1.31584">
        <ele>149.14</ele>
        <time>2022-08-09T07:58:04Z</time>
      </trkpt>
      <trkpt lat="44.85829" lon="1.31591">
        <ele>149.14</ele>
        <time>2022-08-09T07:58:05Z</time>
      </trkpt>
      <trkpt lat="44.85834" lon="1.31694">
        <ele>146.26</ele>
        <time>2022-08-09T07:58:18Z</time>
      </trkpt>
      <trkpt lat="44.85836" lon="1.31701">
        <ele>146.26</ele>
        <time>2022-08-09T07:58:19Z</time>
      </trkpt>
      <trkpt lat="44.85838" lon="1.31708">
        <ele>145.78</ele>
        <time>2022-08-09T07:58:20Z</time>
      </trkpt>
      <trkpt lat="44.85841" lon="1.31714">
        <ele>145.78</ele>
        <time>2022-08-09T07:58:21Z</time>
      </trkpt>
      <trkpt lat="44.85846" lon="1.31718">
        <ele>145.3</ele>
        <time>2022-08-09T07:58:22Z</time>
      </trkpt>
      <trkpt lat="44.85851" lon="1.31722">
        <ele>144.82</ele>
        <time>2022-08-09T07:58:23Z</time>
      </trkpt>
      <trkpt lat="44.85857" lon="1.31725">
        <ele>144.82</ele>
        <time>2022-08-09T07:58:24Z</time>
      </trkpt>
      <trkpt lat="44.85863" lon="1.31728">
        <ele>144.34</ele>
        <time>2022-08-09T07:58:25Z</time>
      </trkpt>
      <trkpt lat="44.85883" lon="1.31737">
        <ele>143.37</ele>
        <time>2022-08-09T07:58:28Z</time>
      </trkpt>
      <trkpt lat="44.85909" lon="1.31748">
        <ele>142.41</ele>
        <time>2022-08-09T07:58:32Z</time>
      </trkpt>
      <trkpt lat="44.85916" lon="1.31749">
        <ele>141.93</ele>
        <time>2022-08-09T07:58:33Z</time>
      </trkpt>
      <trkpt lat="44.85923" lon="1.31749">
        <ele>141.93</ele>
        <time>2022-08-09T07:58:34Z</time>
      </trkpt>
      <trkpt lat="44.8593" lon="1.31748">
        <ele>141.93</ele>
        <time>2022-08-09T07:58:35Z</time>
      </trkpt>
      <trkpt lat="44.85936" lon="1.31746">
        <ele>141.45</ele>
        <time>2022-08-09T07:58:36Z</time>
      </trkpt>
      <trkpt lat="44.85943" lon="1.31741">
        <ele>141.45</ele>
        <time>2022-08-09T07:58:37Z</time>
      </trkpt>
      <trkpt lat="44.85948" lon="1.31735">
        <ele>141.45</ele>
        <time>2022-08-09T07:58:38Z</time>
      </trkpt>
      <trkpt lat="44.85952" lon="1.31729">
        <ele>140.97</ele>
        <time>2022-08-09T07:58:39Z</time>
      </trkpt>
      <trkpt lat="44.8596" lon="1.31716">
        <ele>140.49</ele>
        <time>2022-08-09T07:58:41Z</time>
      </trkpt>
      <trkpt lat="44.85965" lon="1.31711">
        <ele>140.49</ele>
        <time>2022-08-09T07:58:42Z</time>
      </trkpt>
      <trkpt lat="44.8597" lon="1.31707">
        <ele>140.01</ele>
        <time>2022-08-09T07:58:43Z</time>
      </trkpt>
      <trkpt lat="44.85976" lon="1.31703">
        <ele>139.53</ele>
        <time>2022-08-09T07:58:44Z</time>
      </trkpt>
      <trkpt lat="44.85981" lon="1.317">
        <ele>139.53</ele>
        <time>2022-08-09T07:58:45Z</time>
      </trkpt>
      <trkpt lat="44.85987" lon="1.31698">
        <ele>139.05</ele>
        <time>2022-08-09T07:58:46Z</time>
      </trkpt>
      <trkpt lat="44.85993" lon="1.31696">
        <ele>138.57</ele>
        <time>2022-08-09T07:58:47Z</time>
      </trkpt>
      <trkpt lat="44.8608" lon="1.31677">
        <ele>137.13</ele>
        <time>2022-08-09T07:58:59Z</time>
      </trkpt>
      <trkpt lat="44.86088" lon="1.31678">
        <ele>137.13</ele>
        <time>2022-08-09T07:59:00Z</time>
      </trkpt>
      <trkpt lat="44.86095" lon="1.31678">
        <ele>137.13</ele>
        <time>2022-08-09T07:59:01Z</time>
      </trkpt>
      <trkpt lat="44.86108" lon="1.31677">
        <ele>136.64</ele>
        <time>2022-08-09T07:59:03Z</time>
      </trkpt>
      <trkpt lat="44.86114" lon="1.31676">
        <ele>136.64</ele>
        <time>2022-08-09T07:59:04Z</time>
      </trkpt>
      <trkpt lat="44.86119" lon="1.31674">
        <ele>136.64</ele>
        <time>2022-08-09T07:59:05Z</time>
      </trkpt>
      <trkpt lat="44.86129" lon="1.3167">
        <ele>136.16</ele>
        <time>2022-08-09T07:59:07Z</time>
      </trkpt>
      <trkpt lat="44.86133" lon="1.31667">
        <ele>136.16</ele>
        <time>2022-08-09T07:59:08Z</time>
      </trkpt>
      <trkpt lat="44.86137" lon="1.31664">
        <ele>136.16</ele>
        <time>2022-08-09T07:59:09Z</time>
      </trkpt>
      <trkpt lat="44.8614" lon="1.3166">
        <ele>136.16</ele>
        <time>2022-08-09T07:59:10Z</time>
      </trkpt>
      <trkpt lat="44.86143" lon="1.31656">
        <ele>136.16</ele>
        <time>2022-08-09T07:59:11Z</time>
      </trkpt>
      <trkpt lat="44.86145" lon="1.31652">
        <ele>136.16</ele>
        <time>2022-08-09T07:59:12Z</time>
      </trkpt>
      <trkpt lat="44.86153" lon="1.3164">
        <ele>136.64</ele>
        <time>2022-08-09T07:59:16Z</time>
      </trkpt>
      <trkpt lat="44.86169" lon="1.31612">
        <ele>139.53</ele>
        <time>2022-08-09T07:59:28Z</time>
      </trkpt>
      <trkpt lat="44.86181" lon="1.31593">
        <ele>142.89</ele>
        <time>2022-08-09T07:59:36Z</time>
      </trkpt>
      <trkpt lat="44.86198" lon="1.31569">
        <ele>150.58</ele>
        <time>2022-08-09T07:59:49Z</time>
      </trkpt>
      <trkpt lat="44.86224" lon="1.31519">
        <ele>149.14</ele>
        <time>2022-08-09T08:00:07Z</time>
      </trkpt>
      <trkpt lat="44.8624" lon="1.31479">
        <ele>149.62</ele>
        <time>2022-08-09T08:00:23Z</time>
      </trkpt>
      <trkpt lat="44.86233" lon="1.31442">
        <ele>152.03</ele>
        <time>2022-08-09T08:00:36Z</time>
      </trkpt>
      <trkpt lat="44.86222" lon="1.31404">
        <ele>153.95</ele>
        <time>2022-08-09T08:00:49Z</time>
      </trkpt>
      <trkpt lat="44.86219" lon="1.31374">
        <ele>154.43</ele>
        <time>2022-08-09T08:00:55Z</time>
      </trkpt>
      <trkpt lat="44.86218" lon="1.31366">
        <ele>154.43</ele>
        <time>2022-08-09T08:00:56Z</time>
      </trkpt>
      <trkpt lat="44.86208" lon="1.31323">
        <ele>154.43</ele>
        <time>2022-08-09T08:01:01Z</time>
      </trkpt>
      <trkpt lat="44.86204" lon="1.31299">
        <ele>154.43</ele>
        <time>2022-08-09T08:01:03Z</time>
      </trkpt>
      <trkpt lat="44.86203" lon="1.31274">
        <ele>154.43</ele>
        <time>2022-08-09T08:01:05Z</time>
      </trkpt>
      <trkpt lat="44.86224" lon="1.31155">
        <ele>150.58</ele>
        <time>2022-08-09T08:01:13Z</time>
      </trkpt>
      <trkpt lat="44.86229" lon="1.3114">
        <ele>149.62</ele>
        <time>2022-08-09T08:01:14Z</time>
      </trkpt>
      <trkpt lat="44.86235" lon="1.31127">
        <ele>148.66</ele>
        <time>2022-08-09T08:01:15Z</time>
      </trkpt>
      <trkpt lat="44.86267" lon="1.31049">
        <ele>143.85</ele>
        <time>2022-08-09T08:01:21Z</time>
      </trkpt>
      <trkpt lat="44.86286" lon="1.30961">
        <ele>139.05</ele>
        <time>2022-08-09T08:01:28Z</time>
      </trkpt>
      <trkpt lat="44.86289" lon="1.30951">
        <ele>138.09</ele>
        <time>2022-08-09T08:01:29Z</time>
      </trkpt>
      <trkpt lat="44.86294" lon="1.3094">
        <ele>137.61</ele>
        <time>2022-08-09T08:01:30Z</time>
      </trkpt>
      <trkpt lat="44.86299" lon="1.30931">
        <ele>136.64</ele>
        <time>2022-08-09T08:01:31Z</time>
      </trkpt>
      <trkpt lat="44.86304" lon="1.30921">
        <ele>135.68</ele>
        <time>2022-08-09T08:01:32Z</time>
      </trkpt>
      <trkpt lat="44.8633" lon="1.30874">
        <ele>132.8</ele>
        <time>2022-08-09T08:01:37Z</time>
      </trkpt>
      <trkpt lat="44.86333" lon="1.30864">
        <ele>132.8</ele>
        <time>2022-08-09T08:01:38Z</time>
      </trkpt>
      <trkpt lat="44.86336" lon="1.30854">
        <ele>132.32</ele>
        <time>2022-08-09T08:01:39Z</time>
      </trkpt>
      <trkpt lat="44.86367" lon="1.30728">
        <ele>128.95</ele>
        <time>2022-08-09T08:01:53Z</time>
      </trkpt>
      <trkpt lat="44.86429" lon="1.30634">
        <ele>123.67</ele>
        <time>2022-08-09T08:02:04Z</time>
      </trkpt>
      <trkpt lat="44.86435" lon="1.30623">
        <ele>123.19</ele>
        <time>2022-08-09T08:02:05Z</time>
      </trkpt>
      <trkpt lat="44.86441" lon="1.30612">
        <ele>122.22</ele>
        <time>2022-08-09T08:02:06Z</time>
      </trkpt>
      <trkpt lat="44.86445" lon="1.30599">
        <ele>121.74</ele>
        <time>2022-08-09T08:02:07Z</time>
      </trkpt>
      <trkpt lat="44.86518" lon="1.30376">
        <ele>113.57</ele>
        <time>2022-08-09T08:02:25Z</time>
      </trkpt>
      <trkpt lat="44.86566" lon="1.30238">
        <ele>110.21</ele>
        <time>2022-08-09T08:02:38Z</time>
      </trkpt>
      <trkpt lat="44.8658" lon="1.302">
        <ele>109.25</ele>
        <time>2022-08-09T08:02:42Z</time>
      </trkpt>
      <trkpt lat="44.86582" lon="1.3019">
        <ele>109.25</ele>
        <time>2022-08-09T08:02:43Z</time>
      </trkpt>
      <trkpt lat="44.86584" lon="1.3018">
        <ele>109.25</ele>
        <time>2022-08-09T08:02:44Z</time>
      </trkpt>
      <trkpt lat="44.86584" lon="1.3017">
        <ele>109.25</ele>
        <time>2022-08-09T08:02:45Z</time>
      </trkpt>
      <trkpt lat="44.86583" lon="1.30161">
        <ele>108.77</ele>
        <time>2022-08-09T08:02:46Z</time>
      </trkpt>
      <trkpt lat="44.86581" lon="1.30152">
        <ele>108.77</ele>
        <time>2022-08-09T08:02:47Z</time>
      </trkpt>
      <trkpt lat="44.86579" lon="1.30145">
        <ele>108.77</ele>
        <time>2022-08-09T08:02:48Z</time>
      </trkpt>
      <trkpt lat="44.86576" lon="1.30139">
        <ele>108.77</ele>
        <time>2022-08-09T08:02:49Z</time>
      </trkpt>
      <trkpt lat="44.86573" lon="1.30133">
        <ele>108.29</ele>
        <time>2022-08-09T08:02:50Z</time>
      </trkpt>
      <trkpt lat="44.86554" lon="1.30106">
        <ele>106.84</ele>
        <time>2022-08-09T08:03:00Z</time>
      </trkpt>
      <trkpt lat="44.8655" lon="1.30106">
        <ele>106.36</ele>
        <time>2022-08-09T08:03:09Z</time>
      </trkpt>
      <trkpt lat="44.86549" lon="1.30106">
        <ele>106.36</ele>
        <time>2022-08-09T08:03:10Z</time>
      </trkpt>
      <trkpt lat="44.86548" lon="1.30106">
        <ele>105.88</ele>
        <time>2022-08-09T08:03:11Z</time>
      </trkpt>
      <trkpt lat="44.86543" lon="1.30107">
        <ele>105.88</ele>
        <time>2022-08-09T08:03:14Z</time>
      </trkpt>
      <trkpt lat="44.86541" lon="1.30108">
        <ele>105.88</ele>
        <time>2022-08-09T08:03:15Z</time>
      </trkpt>
      <trkpt lat="44.86539" lon="1.3011">
        <ele>105.88</ele>
        <time>2022-08-09T08:03:16Z</time>
      </trkpt>
      <trkpt lat="44.86537" lon="1.30112">
        <ele>105.88</ele>
        <time>2022-08-09T08:03:17Z</time>
      </trkpt>
      <trkpt lat="44.86535" lon="1.30114">
        <ele>105.88</ele>
        <time>2022-08-09T08:03:18Z</time>
      </trkpt>
      <trkpt lat="44.86533" lon="1.30116">
        <ele>105.88</ele>
        <time>2022-08-09T08:03:19Z</time>
      </trkpt>
      <trkpt lat="44.8653" lon="1.30117">
        <ele>106.36</ele>
        <time>2022-08-09T08:03:20Z</time>
      </trkpt>
      <trkpt lat="44.86528" lon="1.30119">
        <ele>105.88</ele>
        <time>2022-08-09T08:03:21Z</time>
      </trkpt>
      <trkpt lat="44.86526" lon="1.3012">
        <ele>105.88</ele>
        <time>2022-08-09T08:03:22Z</time>
      </trkpt>
      <trkpt lat="44.86523" lon="1.3012">
        <ele>105.88</ele>
        <time>2022-08-09T08:03:23Z</time>
      </trkpt>
      <trkpt lat="44.86521" lon="1.30119">
        <ele>105.88</ele>
        <time>2022-08-09T08:03:24Z</time>
      </trkpt>
      <trkpt lat="44.86519" lon="1.30117">
        <ele>105.88</ele>
        <time>2022-08-09T08:03:25Z</time>
      </trkpt>
      <trkpt lat="44.86517" lon="1.30115">
        <ele>105.88</ele>
        <time>2022-08-09T08:03:26Z</time>
      </trkpt>
      <trkpt lat="44.86491" lon="1.30073">
        <ele>106.36</ele>
        <time>2022-08-09T08:03:39Z</time>
      </trkpt>
      <trkpt lat="44.86476" lon="1.30036">
        <ele>107.32</ele>
        <time>2022-08-09T08:03:50Z</time>
      </trkpt>
      <trkpt lat="44.86475" lon="1.30035">
        <ele>107.32</ele>
        <time>2022-08-09T08:03:51Z</time>
      </trkpt>
      <trkpt lat="44.86473" lon="1.30034">
        <ele>107.32</ele>
        <time>2022-08-09T08:03:52Z</time>
      </trkpt>
      <trkpt lat="44.86471" lon="1.30035">
        <ele>107.32</ele>
        <time>2022-08-09T08:03:53Z</time>
      </trkpt>
      <trkpt lat="44.86467" lon="1.30041">
        <ele>107.81</ele>
        <time>2022-08-09T08:03:56Z</time>
      </trkpt>
      <trkpt lat="44.86461" lon="1.30042">
        <ele>107.81</ele>
        <time>2022-08-09T08:04:07Z</time>
      </trkpt>
    </trkseg>
  </trk>
</gpx>